<?xml version="1.0" encoding="utf-8"?>
<gpx xmlns:xsi="http://www.w3.org/2001/XMLSchema-instance" xmlns:xsd="http://www.w3.org/2001/XMLSchema" version="1.1" creator="Shapelink.com" xmlns="http://www.topografix.com/GPX/1/1" xmlns:gpxtpx="http://www.garmin.com/xmlschemas/TrackPointExtension/v1">
  <metadata>
    <name>Løping 4.31 km, 2014-04-01</name>
    <desc></desc>
    <author><name>Mikael Blom</name></author> 
    <time>2014-04-01T18:03:00Z</time>
  </metadata>
  <trk>
    <name>Løping 4.31 km, 2014-04-01</name>
    <trkseg>
      <trkpt lat="59.9540213" lon="17.7148268">
        <ele>47.2418</ele>
        <time>2014-04-01T18:03:00Z</time>
      </trkpt>
      <trkpt lat="59.9540032" lon="17.7147994">
        <ele>46.7612</ele>
        <time>2014-04-01T18:03:01Z</time>
      </trkpt>
      <trkpt lat="59.9539855" lon="17.7147535">
        <ele>46.2806</ele>
        <time>2014-04-01T18:03:02Z</time>
      </trkpt>
      <trkpt lat="59.9539678" lon="17.714697">
        <ele>45.7999</ele>
        <time>2014-04-01T18:03:03Z</time>
      </trkpt>
      <trkpt lat="59.9539503" lon="17.7146385">
        <ele>45.3192</ele>
        <time>2014-04-01T18:03:04Z</time>
      </trkpt>
      <trkpt lat="59.9539298" lon="17.7145832">
        <ele>44.8386</ele>
        <time>2014-04-01T18:03:05Z</time>
      </trkpt>
      <trkpt lat="59.9539134" lon="17.7145396">
        <ele>44.8386</ele>
        <time>2014-04-01T18:03:06Z</time>
      </trkpt>
      <trkpt lat="59.9538987" lon="17.714483">
        <ele>44.358</ele>
        <time>2014-04-01T18:03:07Z</time>
      </trkpt>
      <trkpt lat="59.9538799" lon="17.714423">
        <ele>44.358</ele>
        <time>2014-04-01T18:03:08Z</time>
      </trkpt>
      <trkpt lat="59.9538673" lon="17.7143622">
        <ele>44.358</ele>
        <time>2014-04-01T18:03:09Z</time>
      </trkpt>
      <trkpt lat="59.9538597" lon="17.7143069">
        <ele>43.8773</ele>
        <time>2014-04-01T18:03:10Z</time>
      </trkpt>
      <trkpt lat="59.953853" lon="17.7142565">
        <ele>43.3966</ele>
        <time>2014-04-01T18:03:11Z</time>
      </trkpt>
      <trkpt lat="59.9538474" lon="17.7142013">
        <ele>43.3966</ele>
        <time>2014-04-01T18:03:12Z</time>
      </trkpt>
      <trkpt lat="59.9538478" lon="17.7141432">
        <ele>42.4354</ele>
        <time>2014-04-01T18:03:13Z</time>
      </trkpt>
      <trkpt lat="59.953853" lon="17.7140831">
        <ele>41.9547</ele>
        <time>2014-04-01T18:03:14Z</time>
      </trkpt>
      <trkpt lat="59.9538581" lon="17.7140251">
        <ele>41.474</ele>
        <time>2014-04-01T18:03:15Z</time>
      </trkpt>
      <trkpt lat="59.9538549" lon="17.7139721">
        <ele>41.474</ele>
        <time>2014-04-01T18:03:16Z</time>
      </trkpt>
      <trkpt lat="59.9538479" lon="17.713918">
        <ele>40.9934</ele>
        <time>2014-04-01T18:03:17Z</time>
      </trkpt>
      <trkpt lat="59.9538416" lon="17.7138651">
        <ele>40.5128</ele>
        <time>2014-04-01T18:03:18Z</time>
      </trkpt>
      <trkpt lat="59.9538367" lon="17.7138243">
        <ele>40.0321</ele>
        <time>2014-04-01T18:03:19Z</time>
      </trkpt>
      <trkpt lat="59.9538315" lon="17.7137682">
        <ele>40.0321</ele>
        <time>2014-04-01T18:03:20Z</time>
      </trkpt>
      <trkpt lat="59.953826" lon="17.7137128">
        <ele>40.0321</ele>
        <time>2014-04-01T18:03:21Z</time>
      </trkpt>
      <trkpt lat="59.9538239" lon="17.7136624">
        <ele>39.0707</ele>
        <time>2014-04-01T18:03:22Z</time>
      </trkpt>
      <trkpt lat="59.9538157" lon="17.7136152">
        <ele>38.5901</ele>
        <time>2014-04-01T18:03:23Z</time>
      </trkpt>
      <trkpt lat="59.9538098" lon="17.71357">
        <ele>38.1094</ele>
        <time>2014-04-01T18:03:24Z</time>
      </trkpt>
      <trkpt lat="59.9538005" lon="17.7135279">
        <ele>37.1481</ele>
        <time>2014-04-01T18:03:25Z</time>
      </trkpt>
      <trkpt lat="59.9537908" lon="17.7134769">
        <ele>37.1481</ele>
        <time>2014-04-01T18:03:26Z</time>
      </trkpt>
      <trkpt lat="59.9537836" lon="17.7134288">
        <ele>36.6675</ele>
        <time>2014-04-01T18:03:27Z</time>
      </trkpt>
      <trkpt lat="59.95378" lon="17.7133726">
        <ele>36.6675</ele>
        <time>2014-04-01T18:03:28Z</time>
      </trkpt>
      <trkpt lat="59.9537722" lon="17.7133149">
        <ele>36.6675</ele>
        <time>2014-04-01T18:03:29Z</time>
      </trkpt>
      <trkpt lat="59.9537593" lon="17.7132566">
        <ele>36.1868</ele>
        <time>2014-04-01T18:03:30Z</time>
      </trkpt>
      <trkpt lat="59.9537519" lon="17.7132129">
        <ele>35.7061</ele>
        <time>2014-04-01T18:03:31Z</time>
      </trkpt>
      <trkpt lat="59.9537415" lon="17.7131767">
        <ele>35.2255</ele>
        <time>2014-04-01T18:03:32Z</time>
      </trkpt>
      <trkpt lat="59.9537249" lon="17.713139">
        <ele>34.7449</ele>
        <time>2014-04-01T18:03:33Z</time>
      </trkpt>
      <trkpt lat="59.9537039" lon="17.7131009">
        <ele>34.7449</ele>
        <time>2014-04-01T18:03:34Z</time>
      </trkpt>
      <trkpt lat="59.9536835" lon="17.713067">
        <ele>34.2642</ele>
        <time>2014-04-01T18:03:35Z</time>
      </trkpt>
      <trkpt lat="59.953666" lon="17.7130314">
        <ele>33.7834</ele>
        <time>2014-04-01T18:03:36Z</time>
      </trkpt>
      <trkpt lat="59.9536478" lon="17.7130063">
        <ele>33.7834</ele>
        <time>2014-04-01T18:03:37Z</time>
      </trkpt>
      <trkpt lat="59.9536278" lon="17.7130108">
        <ele>33.7834</ele>
        <time>2014-04-01T18:03:38Z</time>
      </trkpt>
      <trkpt lat="59.9536028" lon="17.7130337">
        <ele>33.7834</ele>
        <time>2014-04-01T18:03:39Z</time>
      </trkpt>
      <trkpt lat="59.95358" lon="17.7130518">
        <ele>33.3029</ele>
        <time>2014-04-01T18:03:40Z</time>
      </trkpt>
      <trkpt lat="59.9535601" lon="17.713074">
        <ele>33.3029</ele>
        <time>2014-04-01T18:03:41Z</time>
      </trkpt>
      <trkpt lat="59.9535416" lon="17.7131">
        <ele>33.3029</ele>
        <time>2014-04-01T18:03:42Z</time>
      </trkpt>
      <trkpt lat="59.9535244" lon="17.713116">
        <ele>32.8223</ele>
        <time>2014-04-01T18:03:43Z</time>
      </trkpt>
      <trkpt lat="59.9535084" lon="17.7131373">
        <ele>33.3029</ele>
        <time>2014-04-01T18:03:44Z</time>
      </trkpt>
      <trkpt lat="59.9534934" lon="17.7131646">
        <ele>33.3029</ele>
        <time>2014-04-01T18:03:45Z</time>
      </trkpt>
      <trkpt lat="59.9534748" lon="17.7131894">
        <ele>33.3029</ele>
        <time>2014-04-01T18:03:46Z</time>
      </trkpt>
      <trkpt lat="59.9534557" lon="17.7132146">
        <ele>33.3029</ele>
        <time>2014-04-01T18:03:47Z</time>
      </trkpt>
      <trkpt lat="59.9534402" lon="17.7132417">
        <ele>33.7834</ele>
        <time>2014-04-01T18:03:48Z</time>
      </trkpt>
      <trkpt lat="59.9534257" lon="17.7132678">
        <ele>33.7834</ele>
        <time>2014-04-01T18:03:49Z</time>
      </trkpt>
      <trkpt lat="59.9534126" lon="17.7132922">
        <ele>34.2642</ele>
        <time>2014-04-01T18:03:50Z</time>
      </trkpt>
      <trkpt lat="59.9534" lon="17.7133196">
        <ele>34.7449</ele>
        <time>2014-04-01T18:03:51Z</time>
      </trkpt>
      <trkpt lat="59.9533837" lon="17.7133471">
        <ele>35.2255</ele>
        <time>2014-04-01T18:03:52Z</time>
      </trkpt>
      <trkpt lat="59.9533671" lon="17.7133759">
        <ele>35.2255</ele>
        <time>2014-04-01T18:03:53Z</time>
      </trkpt>
      <trkpt lat="59.9533472" lon="17.7134117">
        <ele>35.7061</ele>
        <time>2014-04-01T18:03:54Z</time>
      </trkpt>
      <trkpt lat="59.9533241" lon="17.7134517">
        <ele>36.1868</ele>
        <time>2014-04-01T18:03:55Z</time>
      </trkpt>
      <trkpt lat="59.953251" lon="17.7135689">
        <ele>45.7999</ele>
        <time>2014-04-01T18:04:38Z</time>
      </trkpt>
      <trkpt lat="59.9532449" lon="17.7135817">
        <ele>45.7999</ele>
        <time>2014-04-01T18:04:39Z</time>
      </trkpt>
      <trkpt lat="59.9532366" lon="17.7136061">
        <ele>45.7999</ele>
        <time>2014-04-01T18:04:40Z</time>
      </trkpt>
      <trkpt lat="59.9532257" lon="17.7136402">
        <ele>45.7999</ele>
        <time>2014-04-01T18:04:41Z</time>
      </trkpt>
      <trkpt lat="59.9532177" lon="17.7136837">
        <ele>45.3192</ele>
        <time>2014-04-01T18:04:42Z</time>
      </trkpt>
      <trkpt lat="59.9532097" lon="17.7137293">
        <ele>44.8386</ele>
        <time>2014-04-01T18:04:43Z</time>
      </trkpt>
      <trkpt lat="59.9531916" lon="17.7137662">
        <ele>44.358</ele>
        <time>2014-04-01T18:04:44Z</time>
      </trkpt>
      <trkpt lat="59.9531713" lon="17.7137931">
        <ele>43.3966</ele>
        <time>2014-04-01T18:04:45Z</time>
      </trkpt>
      <trkpt lat="59.9531509" lon="17.7138072">
        <ele>43.3966</ele>
        <time>2014-04-01T18:04:46Z</time>
      </trkpt>
      <trkpt lat="59.9531304" lon="17.7138262">
        <ele>42.916</ele>
        <time>2014-04-01T18:04:47Z</time>
      </trkpt>
      <trkpt lat="59.9531079" lon="17.7138484">
        <ele>42.4354</ele>
        <time>2014-04-01T18:04:48Z</time>
      </trkpt>
      <trkpt lat="59.9530832" lon="17.7138644">
        <ele>42.4354</ele>
        <time>2014-04-01T18:04:49Z</time>
      </trkpt>
      <trkpt lat="59.9530563" lon="17.7138791">
        <ele>42.916</ele>
        <time>2014-04-01T18:04:50Z</time>
      </trkpt>
      <trkpt lat="59.9530288" lon="17.7138916">
        <ele>42.916</ele>
        <time>2014-04-01T18:04:51Z</time>
      </trkpt>
      <trkpt lat="59.9530034" lon="17.7139003">
        <ele>42.916</ele>
        <time>2014-04-01T18:04:52Z</time>
      </trkpt>
      <trkpt lat="59.9529761" lon="17.7139097">
        <ele>42.916</ele>
        <time>2014-04-01T18:04:53Z</time>
      </trkpt>
      <trkpt lat="59.9529422" lon="17.7139226">
        <ele>42.916</ele>
        <time>2014-04-01T18:04:54Z</time>
      </trkpt>
      <trkpt lat="59.9529053" lon="17.7139359">
        <ele>42.4354</ele>
        <time>2014-04-01T18:04:55Z</time>
      </trkpt>
      <trkpt lat="59.9528707" lon="17.713938">
        <ele>42.4354</ele>
        <time>2014-04-01T18:04:56Z</time>
      </trkpt>
      <trkpt lat="59.9528393" lon="17.7139224">
        <ele>41.9547</ele>
        <time>2014-04-01T18:04:57Z</time>
      </trkpt>
      <trkpt lat="59.9528098" lon="17.7139006">
        <ele>41.9547</ele>
        <time>2014-04-01T18:04:58Z</time>
      </trkpt>
      <trkpt lat="59.9527817" lon="17.7138796">
        <ele>41.474</ele>
        <time>2014-04-01T18:04:59Z</time>
      </trkpt>
      <trkpt lat="59.9527565" lon="17.7138548">
        <ele>40.9934</ele>
        <time>2014-04-01T18:05:00Z</time>
      </trkpt>
      <trkpt lat="59.9527325" lon="17.7138288">
        <ele>40.5128</ele>
        <time>2014-04-01T18:05:01Z</time>
      </trkpt>
      <trkpt lat="59.9527087" lon="17.713791">
        <ele>40.0321</ele>
        <time>2014-04-01T18:05:02Z</time>
      </trkpt>
      <trkpt lat="59.9526871" lon="17.7137512">
        <ele>40.0321</ele>
        <time>2014-04-01T18:05:03Z</time>
      </trkpt>
      <trkpt lat="59.9526668" lon="17.7137092">
        <ele>39.5513</ele>
        <time>2014-04-01T18:05:04Z</time>
      </trkpt>
      <trkpt lat="59.9526433" lon="17.7136699">
        <ele>39.0707</ele>
        <time>2014-04-01T18:05:05Z</time>
      </trkpt>
      <trkpt lat="59.9526199" lon="17.7136331">
        <ele>39.0707</ele>
        <time>2014-04-01T18:05:06Z</time>
      </trkpt>
      <trkpt lat="59.9525983" lon="17.7135924">
        <ele>39.0707</ele>
        <time>2014-04-01T18:05:07Z</time>
      </trkpt>
      <trkpt lat="59.9525777" lon="17.7135508">
        <ele>39.0707</ele>
        <time>2014-04-01T18:05:08Z</time>
      </trkpt>
      <trkpt lat="59.9525565" lon="17.7135108">
        <ele>38.5901</ele>
        <time>2014-04-01T18:05:09Z</time>
      </trkpt>
      <trkpt lat="59.9525356" lon="17.7134666">
        <ele>38.1094</ele>
        <time>2014-04-01T18:05:10Z</time>
      </trkpt>
      <trkpt lat="59.9525133" lon="17.7134264">
        <ele>38.1094</ele>
        <time>2014-04-01T18:05:11Z</time>
      </trkpt>
      <trkpt lat="59.9524928" lon="17.7133895">
        <ele>38.1094</ele>
        <time>2014-04-01T18:05:12Z</time>
      </trkpt>
      <trkpt lat="59.9524741" lon="17.713349">
        <ele>38.1094</ele>
        <time>2014-04-01T18:05:13Z</time>
      </trkpt>
      <trkpt lat="59.952454" lon="17.7133145">
        <ele>37.6287</ele>
        <time>2014-04-01T18:05:14Z</time>
      </trkpt>
      <trkpt lat="59.9524342" lon="17.7132819">
        <ele>37.6287</ele>
        <time>2014-04-01T18:05:15Z</time>
      </trkpt>
      <trkpt lat="59.9524174" lon="17.7132462">
        <ele>37.6287</ele>
        <time>2014-04-01T18:05:16Z</time>
      </trkpt>
      <trkpt lat="59.952405" lon="17.713219">
        <ele>37.1481</ele>
        <time>2014-04-01T18:05:17Z</time>
      </trkpt>
      <trkpt lat="59.9523902" lon="17.7131885">
        <ele>37.1481</ele>
        <time>2014-04-01T18:05:18Z</time>
      </trkpt>
      <trkpt lat="59.9523751" lon="17.713155">
        <ele>37.1481</ele>
        <time>2014-04-01T18:05:19Z</time>
      </trkpt>
      <trkpt lat="59.9523589" lon="17.7131169">
        <ele>37.1481</ele>
        <time>2014-04-01T18:05:20Z</time>
      </trkpt>
      <trkpt lat="59.9523419" lon="17.7130814">
        <ele>37.1481</ele>
        <time>2014-04-01T18:05:21Z</time>
      </trkpt>
      <trkpt lat="59.9523228" lon="17.7130498">
        <ele>37.1481</ele>
        <time>2014-04-01T18:05:22Z</time>
      </trkpt>
      <trkpt lat="59.952304" lon="17.7130164">
        <ele>37.1481</ele>
        <time>2014-04-01T18:05:23Z</time>
      </trkpt>
      <trkpt lat="59.9522896" lon="17.7129841">
        <ele>37.1481</ele>
        <time>2014-04-01T18:05:24Z</time>
      </trkpt>
      <trkpt lat="59.9522715" lon="17.7129472">
        <ele>37.6287</ele>
        <time>2014-04-01T18:05:25Z</time>
      </trkpt>
      <trkpt lat="59.9522472" lon="17.712913">
        <ele>38.1094</ele>
        <time>2014-04-01T18:05:26Z</time>
      </trkpt>
      <trkpt lat="59.9522237" lon="17.7128787">
        <ele>38.5901</ele>
        <time>2014-04-01T18:05:27Z</time>
      </trkpt>
      <trkpt lat="59.952202" lon="17.7128338">
        <ele>39.0707</ele>
        <time>2014-04-01T18:05:28Z</time>
      </trkpt>
      <trkpt lat="59.9521803" lon="17.7127973">
        <ele>38.5901</ele>
        <time>2014-04-01T18:05:29Z</time>
      </trkpt>
      <trkpt lat="59.952159" lon="17.7127607">
        <ele>39.0707</ele>
        <time>2014-04-01T18:05:30Z</time>
      </trkpt>
      <trkpt lat="59.9521379" lon="17.7127265">
        <ele>38.5901</ele>
        <time>2014-04-01T18:05:31Z</time>
      </trkpt>
      <trkpt lat="59.9521156" lon="17.7127022">
        <ele>39.0707</ele>
        <time>2014-04-01T18:05:32Z</time>
      </trkpt>
      <trkpt lat="59.9520914" lon="17.7126738">
        <ele>39.0707</ele>
        <time>2014-04-01T18:05:33Z</time>
      </trkpt>
      <trkpt lat="59.9520679" lon="17.7126447">
        <ele>39.0707</ele>
        <time>2014-04-01T18:05:34Z</time>
      </trkpt>
      <trkpt lat="59.9520454" lon="17.7126255">
        <ele>39.5513</ele>
        <time>2014-04-01T18:05:35Z</time>
      </trkpt>
      <trkpt lat="59.9520232" lon="17.7126135">
        <ele>39.5513</ele>
        <time>2014-04-01T18:05:36Z</time>
      </trkpt>
      <trkpt lat="59.9519996" lon="17.7126002">
        <ele>39.5513</ele>
        <time>2014-04-01T18:05:37Z</time>
      </trkpt>
      <trkpt lat="59.9519752" lon="17.712582">
        <ele>39.5513</ele>
        <time>2014-04-01T18:05:38Z</time>
      </trkpt>
      <trkpt lat="59.9519519" lon="17.7125685">
        <ele>40.0321</ele>
        <time>2014-04-01T18:05:39Z</time>
      </trkpt>
      <trkpt lat="59.9519308" lon="17.712559">
        <ele>40.0321</ele>
        <time>2014-04-01T18:05:40Z</time>
      </trkpt>
      <trkpt lat="59.9519094" lon="17.7125525">
        <ele>40.0321</ele>
        <time>2014-04-01T18:05:41Z</time>
      </trkpt>
      <trkpt lat="59.9518871" lon="17.7125429">
        <ele>40.0321</ele>
        <time>2014-04-01T18:05:42Z</time>
      </trkpt>
      <trkpt lat="59.9518636" lon="17.7125323">
        <ele>40.5128</ele>
        <time>2014-04-01T18:05:43Z</time>
      </trkpt>
      <trkpt lat="59.951841" lon="17.7125321">
        <ele>40.5128</ele>
        <time>2014-04-01T18:05:44Z</time>
      </trkpt>
      <trkpt lat="59.9518187" lon="17.7125337">
        <ele>40.0321</ele>
        <time>2014-04-01T18:05:45Z</time>
      </trkpt>
      <trkpt lat="59.9517943" lon="17.7125336">
        <ele>40.0321</ele>
        <time>2014-04-01T18:05:46Z</time>
      </trkpt>
      <trkpt lat="59.9517691" lon="17.7125302">
        <ele>40.5128</ele>
        <time>2014-04-01T18:05:47Z</time>
      </trkpt>
      <trkpt lat="59.9517447" lon="17.7125279">
        <ele>40.5128</ele>
        <time>2014-04-01T18:05:48Z</time>
      </trkpt>
      <trkpt lat="59.9517214" lon="17.7125312">
        <ele>40.0321</ele>
        <time>2014-04-01T18:05:49Z</time>
      </trkpt>
      <trkpt lat="59.9516999" lon="17.7125334">
        <ele>39.5513</ele>
        <time>2014-04-01T18:05:50Z</time>
      </trkpt>
      <trkpt lat="59.9516738" lon="17.7125375">
        <ele>39.5513</ele>
        <time>2014-04-01T18:05:51Z</time>
      </trkpt>
      <trkpt lat="59.9516462" lon="17.7125474">
        <ele>39.5513</ele>
        <time>2014-04-01T18:05:52Z</time>
      </trkpt>
      <trkpt lat="59.9516158" lon="17.7125582">
        <ele>39.0707</ele>
        <time>2014-04-01T18:05:53Z</time>
      </trkpt>
      <trkpt lat="59.9515912" lon="17.7125623">
        <ele>39.0707</ele>
        <time>2014-04-01T18:05:54Z</time>
      </trkpt>
      <trkpt lat="59.951572" lon="17.7125626">
        <ele>39.0707</ele>
        <time>2014-04-01T18:05:55Z</time>
      </trkpt>
      <trkpt lat="59.9515479" lon="17.7125668">
        <ele>38.5901</ele>
        <time>2014-04-01T18:05:56Z</time>
      </trkpt>
      <trkpt lat="59.9515207" lon="17.7125715">
        <ele>38.5901</ele>
        <time>2014-04-01T18:05:57Z</time>
      </trkpt>
      <trkpt lat="59.9514959" lon="17.7125655">
        <ele>38.5901</ele>
        <time>2014-04-01T18:05:58Z</time>
      </trkpt>
      <trkpt lat="59.9514733" lon="17.7125557">
        <ele>38.1094</ele>
        <time>2014-04-01T18:05:59Z</time>
      </trkpt>
      <trkpt lat="59.951449" lon="17.7125441">
        <ele>38.1094</ele>
        <time>2014-04-01T18:06:00Z</time>
      </trkpt>
      <trkpt lat="59.9514226" lon="17.7125266">
        <ele>38.1094</ele>
        <time>2014-04-01T18:06:01Z</time>
      </trkpt>
      <trkpt lat="59.9513945" lon="17.7125091">
        <ele>38.1094</ele>
        <time>2014-04-01T18:06:02Z</time>
      </trkpt>
      <trkpt lat="59.9513651" lon="17.7124959">
        <ele>38.5901</ele>
        <time>2014-04-01T18:06:03Z</time>
      </trkpt>
      <trkpt lat="59.9513401" lon="17.7124896">
        <ele>39.0707</ele>
        <time>2014-04-01T18:06:04Z</time>
      </trkpt>
      <trkpt lat="59.9513171" lon="17.7124805">
        <ele>39.0707</ele>
        <time>2014-04-01T18:06:05Z</time>
      </trkpt>
      <trkpt lat="59.9512879" lon="17.7124747">
        <ele>39.5513</ele>
        <time>2014-04-01T18:06:06Z</time>
      </trkpt>
      <trkpt lat="59.9512562" lon="17.7124749">
        <ele>39.5513</ele>
        <time>2014-04-01T18:06:07Z</time>
      </trkpt>
      <trkpt lat="59.9512241" lon="17.7124746">
        <ele>40.0321</ele>
        <time>2014-04-01T18:06:08Z</time>
      </trkpt>
      <trkpt lat="59.9511935" lon="17.7124808">
        <ele>40.9934</ele>
        <time>2014-04-01T18:06:09Z</time>
      </trkpt>
      <trkpt lat="59.951164" lon="17.7124945">
        <ele>41.474</ele>
        <time>2014-04-01T18:06:10Z</time>
      </trkpt>
      <trkpt lat="59.9511386" lon="17.7125011">
        <ele>41.474</ele>
        <time>2014-04-01T18:06:11Z</time>
      </trkpt>
      <trkpt lat="59.9511169" lon="17.7124922">
        <ele>41.474</ele>
        <time>2014-04-01T18:06:12Z</time>
      </trkpt>
      <trkpt lat="59.9510909" lon="17.7124979">
        <ele>41.474</ele>
        <time>2014-04-01T18:06:13Z</time>
      </trkpt>
      <trkpt lat="59.9510667" lon="17.712496">
        <ele>42.4354</ele>
        <time>2014-04-01T18:06:14Z</time>
      </trkpt>
      <trkpt lat="59.9510439" lon="17.7124924">
        <ele>42.916</ele>
        <time>2014-04-01T18:06:15Z</time>
      </trkpt>
      <trkpt lat="59.9510174" lon="17.712481">
        <ele>43.3966</ele>
        <time>2014-04-01T18:06:16Z</time>
      </trkpt>
      <trkpt lat="59.9509914" lon="17.7124613">
        <ele>43.3966</ele>
        <time>2014-04-01T18:06:17Z</time>
      </trkpt>
      <trkpt lat="59.9509664" lon="17.7124419">
        <ele>44.358</ele>
        <time>2014-04-01T18:06:18Z</time>
      </trkpt>
      <trkpt lat="59.9509463" lon="17.7124125">
        <ele>45.3192</ele>
        <time>2014-04-01T18:06:19Z</time>
      </trkpt>
      <trkpt lat="59.9509294" lon="17.712378">
        <ele>45.7999</ele>
        <time>2014-04-01T18:06:20Z</time>
      </trkpt>
      <trkpt lat="59.9509115" lon="17.7123525">
        <ele>46.2806</ele>
        <time>2014-04-01T18:06:21Z</time>
      </trkpt>
      <trkpt lat="59.9508924" lon="17.712322">
        <ele>46.7612</ele>
        <time>2014-04-01T18:06:22Z</time>
      </trkpt>
      <trkpt lat="59.9508725" lon="17.7122835">
        <ele>46.7612</ele>
        <time>2014-04-01T18:06:23Z</time>
      </trkpt>
      <trkpt lat="59.950848" lon="17.7122484">
        <ele>46.7612</ele>
        <time>2014-04-01T18:06:24Z</time>
      </trkpt>
      <trkpt lat="59.9508294" lon="17.7122044">
        <ele>46.7612</ele>
        <time>2014-04-01T18:06:25Z</time>
      </trkpt>
      <trkpt lat="59.9508119" lon="17.7121582">
        <ele>46.7612</ele>
        <time>2014-04-01T18:06:26Z</time>
      </trkpt>
      <trkpt lat="59.9507978" lon="17.7121219">
        <ele>46.2806</ele>
        <time>2014-04-01T18:06:27Z</time>
      </trkpt>
      <trkpt lat="59.9507868" lon="17.7120855">
        <ele>46.2806</ele>
        <time>2014-04-01T18:06:28Z</time>
      </trkpt>
      <trkpt lat="59.950772" lon="17.7120514">
        <ele>46.7612</ele>
        <time>2014-04-01T18:06:29Z</time>
      </trkpt>
      <trkpt lat="59.9507577" lon="17.7120064">
        <ele>47.7225</ele>
        <time>2014-04-01T18:06:30Z</time>
      </trkpt>
      <trkpt lat="59.9507423" lon="17.7119535">
        <ele>47.7225</ele>
        <time>2014-04-01T18:06:31Z</time>
      </trkpt>
      <trkpt lat="59.9507242" lon="17.7119055">
        <ele>48.684</ele>
        <time>2014-04-01T18:06:32Z</time>
      </trkpt>
      <trkpt lat="59.9507052" lon="17.7118693">
        <ele>49.1646</ele>
        <time>2014-04-01T18:06:33Z</time>
      </trkpt>
      <trkpt lat="59.950685" lon="17.7118366">
        <ele>49.6453</ele>
        <time>2014-04-01T18:06:34Z</time>
      </trkpt>
      <trkpt lat="59.9506658" lon="17.7118074">
        <ele>50.126</ele>
        <time>2014-04-01T18:06:35Z</time>
      </trkpt>
      <trkpt lat="59.9506433" lon="17.7117946">
        <ele>51.0872</ele>
        <time>2014-04-01T18:06:36Z</time>
      </trkpt>
      <trkpt lat="59.9506202" lon="17.7117929">
        <ele>51.5679</ele>
        <time>2014-04-01T18:06:37Z</time>
      </trkpt>
      <trkpt lat="59.9505997" lon="17.7118122">
        <ele>52.0486</ele>
        <time>2014-04-01T18:06:38Z</time>
      </trkpt>
      <trkpt lat="59.9505879" lon="17.7118374">
        <ele>52.0486</ele>
        <time>2014-04-01T18:06:39Z</time>
      </trkpt>
      <trkpt lat="59.9505759" lon="17.7118558">
        <ele>51.5679</ele>
        <time>2014-04-01T18:06:40Z</time>
      </trkpt>
      <trkpt lat="59.9505627" lon="17.7118717">
        <ele>51.0872</ele>
        <time>2014-04-01T18:06:41Z</time>
      </trkpt>
      <trkpt lat="59.9505536" lon="17.7118682">
        <ele>51.0872</ele>
        <time>2014-04-01T18:06:42Z</time>
      </trkpt>
      <trkpt lat="59.9505408" lon="17.711855">
        <ele>51.0872</ele>
        <time>2014-04-01T18:06:43Z</time>
      </trkpt>
      <trkpt lat="59.9505216" lon="17.7118408">
        <ele>51.0872</ele>
        <time>2014-04-01T18:06:44Z</time>
      </trkpt>
      <trkpt lat="59.9504971" lon="17.711833">
        <ele>51.0872</ele>
        <time>2014-04-01T18:06:45Z</time>
      </trkpt>
      <trkpt lat="59.9504738" lon="17.7118178">
        <ele>51.0872</ele>
        <time>2014-04-01T18:06:46Z</time>
      </trkpt>
      <trkpt lat="59.9504528" lon="17.7117906">
        <ele>51.0872</ele>
        <time>2014-04-01T18:06:47Z</time>
      </trkpt>
      <trkpt lat="59.9504316" lon="17.7117628">
        <ele>51.0872</ele>
        <time>2014-04-01T18:06:48Z</time>
      </trkpt>
      <trkpt lat="59.950413" lon="17.7117256">
        <ele>51.0872</ele>
        <time>2014-04-01T18:06:49Z</time>
      </trkpt>
      <trkpt lat="59.9503959" lon="17.711694">
        <ele>51.0872</ele>
        <time>2014-04-01T18:06:50Z</time>
      </trkpt>
      <trkpt lat="59.9503773" lon="17.7116666">
        <ele>51.0872</ele>
        <time>2014-04-01T18:06:51Z</time>
      </trkpt>
      <trkpt lat="59.9503567" lon="17.7116299">
        <ele>50.6066</ele>
        <time>2014-04-01T18:06:52Z</time>
      </trkpt>
      <trkpt lat="59.9503383" lon="17.7115905">
        <ele>50.6066</ele>
        <time>2014-04-01T18:06:53Z</time>
      </trkpt>
      <trkpt lat="59.9503186" lon="17.7115662">
        <ele>49.6453</ele>
        <time>2014-04-01T18:06:54Z</time>
      </trkpt>
      <trkpt lat="59.9502979" lon="17.7115449">
        <ele>49.1646</ele>
        <time>2014-04-01T18:06:55Z</time>
      </trkpt>
      <trkpt lat="59.9502756" lon="17.7115201">
        <ele>49.1646</ele>
        <time>2014-04-01T18:06:56Z</time>
      </trkpt>
      <trkpt lat="59.9502564" lon="17.7114907">
        <ele>48.684</ele>
        <time>2014-04-01T18:06:57Z</time>
      </trkpt>
      <trkpt lat="59.9502355" lon="17.7114681">
        <ele>48.684</ele>
        <time>2014-04-01T18:06:58Z</time>
      </trkpt>
      <trkpt lat="59.9502071" lon="17.7114517">
        <ele>48.2034</ele>
        <time>2014-04-01T18:06:59Z</time>
      </trkpt>
      <trkpt lat="59.950174" lon="17.7114404">
        <ele>48.2034</ele>
        <time>2014-04-01T18:07:00Z</time>
      </trkpt>
      <trkpt lat="59.9501461" lon="17.7114354">
        <ele>48.2034</ele>
        <time>2014-04-01T18:07:01Z</time>
      </trkpt>
      <trkpt lat="59.9501208" lon="17.7114349">
        <ele>47.7225</ele>
        <time>2014-04-01T18:07:02Z</time>
      </trkpt>
      <trkpt lat="59.9500947" lon="17.7114293">
        <ele>47.7225</ele>
        <time>2014-04-01T18:07:03Z</time>
      </trkpt>
      <trkpt lat="59.9500718" lon="17.7114237">
        <ele>47.2418</ele>
        <time>2014-04-01T18:07:04Z</time>
      </trkpt>
      <trkpt lat="59.9500537" lon="17.7114335">
        <ele>46.7612</ele>
        <time>2014-04-01T18:07:05Z</time>
      </trkpt>
      <trkpt lat="59.9500347" lon="17.7114393">
        <ele>46.2806</ele>
        <time>2014-04-01T18:07:06Z</time>
      </trkpt>
      <trkpt lat="59.950013" lon="17.7114455">
        <ele>46.7612</ele>
        <time>2014-04-01T18:07:07Z</time>
      </trkpt>
      <trkpt lat="59.9499919" lon="17.7114579">
        <ele>46.7612</ele>
        <time>2014-04-01T18:07:08Z</time>
      </trkpt>
      <trkpt lat="59.9499668" lon="17.7114715">
        <ele>46.7612</ele>
        <time>2014-04-01T18:07:09Z</time>
      </trkpt>
      <trkpt lat="59.9499435" lon="17.7114776">
        <ele>46.7612</ele>
        <time>2014-04-01T18:07:10Z</time>
      </trkpt>
      <trkpt lat="59.9499198" lon="17.7114842">
        <ele>46.7612</ele>
        <time>2014-04-01T18:07:11Z</time>
      </trkpt>
      <trkpt lat="59.9498938" lon="17.7114978">
        <ele>46.2806</ele>
        <time>2014-04-01T18:07:12Z</time>
      </trkpt>
      <trkpt lat="59.9498689" lon="17.7115168">
        <ele>45.7999</ele>
        <time>2014-04-01T18:07:13Z</time>
      </trkpt>
      <trkpt lat="59.9498477" lon="17.7115356">
        <ele>45.7999</ele>
        <time>2014-04-01T18:07:14Z</time>
      </trkpt>
      <trkpt lat="59.9498306" lon="17.7115486">
        <ele>46.2806</ele>
        <time>2014-04-01T18:07:15Z</time>
      </trkpt>
      <trkpt lat="59.9498116" lon="17.7115682">
        <ele>46.7612</ele>
        <time>2014-04-01T18:07:16Z</time>
      </trkpt>
      <trkpt lat="59.9497851" lon="17.7115886">
        <ele>46.7612</ele>
        <time>2014-04-01T18:07:17Z</time>
      </trkpt>
      <trkpt lat="59.9497569" lon="17.7116044">
        <ele>47.2418</ele>
        <time>2014-04-01T18:07:18Z</time>
      </trkpt>
      <trkpt lat="59.9497313" lon="17.7116128">
        <ele>47.2418</ele>
        <time>2014-04-01T18:07:19Z</time>
      </trkpt>
      <trkpt lat="59.949703" lon="17.711625">
        <ele>47.7225</ele>
        <time>2014-04-01T18:07:20Z</time>
      </trkpt>
      <trkpt lat="59.9496769" lon="17.7116373">
        <ele>47.7225</ele>
        <time>2014-04-01T18:07:21Z</time>
      </trkpt>
      <trkpt lat="59.9496531" lon="17.71165">
        <ele>47.7225</ele>
        <time>2014-04-01T18:07:22Z</time>
      </trkpt>
      <trkpt lat="59.9496317" lon="17.7116649">
        <ele>48.2034</ele>
        <time>2014-04-01T18:07:23Z</time>
      </trkpt>
      <trkpt lat="59.9496084" lon="17.7116867">
        <ele>48.2034</ele>
        <time>2014-04-01T18:07:24Z</time>
      </trkpt>
      <trkpt lat="59.9495846" lon="17.7117029">
        <ele>48.684</ele>
        <time>2014-04-01T18:07:25Z</time>
      </trkpt>
      <trkpt lat="59.9495629" lon="17.7117149">
        <ele>49.1646</ele>
        <time>2014-04-01T18:07:26Z</time>
      </trkpt>
      <trkpt lat="59.9495422" lon="17.7117366">
        <ele>49.6453</ele>
        <time>2014-04-01T18:07:27Z</time>
      </trkpt>
      <trkpt lat="59.9495199" lon="17.7117577">
        <ele>49.6453</ele>
        <time>2014-04-01T18:07:28Z</time>
      </trkpt>
      <trkpt lat="59.949496" lon="17.7117739">
        <ele>50.126</ele>
        <time>2014-04-01T18:07:29Z</time>
      </trkpt>
      <trkpt lat="59.9494717" lon="17.711792">
        <ele>50.126</ele>
        <time>2014-04-01T18:07:30Z</time>
      </trkpt>
      <trkpt lat="59.9494521" lon="17.7118122">
        <ele>50.126</ele>
        <time>2014-04-01T18:07:31Z</time>
      </trkpt>
      <trkpt lat="59.9494327" lon="17.7118353">
        <ele>50.126</ele>
        <time>2014-04-01T18:07:32Z</time>
      </trkpt>
      <trkpt lat="59.9494187" lon="17.7118603">
        <ele>49.6453</ele>
        <time>2014-04-01T18:07:33Z</time>
      </trkpt>
      <trkpt lat="59.9494068" lon="17.7118815">
        <ele>49.6453</ele>
        <time>2014-04-01T18:07:34Z</time>
      </trkpt>
      <trkpt lat="59.949395" lon="17.7119147">
        <ele>49.6453</ele>
        <time>2014-04-01T18:07:35Z</time>
      </trkpt>
      <trkpt lat="59.9493883" lon="17.7119543">
        <ele>49.1646</ele>
        <time>2014-04-01T18:07:36Z</time>
      </trkpt>
      <trkpt lat="59.9493805" lon="17.7119978">
        <ele>49.1646</ele>
        <time>2014-04-01T18:07:37Z</time>
      </trkpt>
      <trkpt lat="59.9493691" lon="17.7120446">
        <ele>48.684</ele>
        <time>2014-04-01T18:07:38Z</time>
      </trkpt>
      <trkpt lat="59.9493609" lon="17.7120887">
        <ele>48.2034</ele>
        <time>2014-04-01T18:07:39Z</time>
      </trkpt>
      <trkpt lat="59.9493505" lon="17.7121208">
        <ele>47.7225</ele>
        <time>2014-04-01T18:07:40Z</time>
      </trkpt>
      <trkpt lat="59.9493327" lon="17.712121">
        <ele>47.2418</ele>
        <time>2014-04-01T18:07:41Z</time>
      </trkpt>
      <trkpt lat="59.949308" lon="17.7120954">
        <ele>46.7612</ele>
        <time>2014-04-01T18:07:42Z</time>
      </trkpt>
      <trkpt lat="59.9492861" lon="17.7120571">
        <ele>46.2806</ele>
        <time>2014-04-01T18:07:43Z</time>
      </trkpt>
      <trkpt lat="59.9492757" lon="17.7120075">
        <ele>46.7612</ele>
        <time>2014-04-01T18:07:44Z</time>
      </trkpt>
      <trkpt lat="59.9492718" lon="17.7119602">
        <ele>46.7612</ele>
        <time>2014-04-01T18:07:45Z</time>
      </trkpt>
      <trkpt lat="59.9492712" lon="17.7119103">
        <ele>47.2418</ele>
        <time>2014-04-01T18:07:46Z</time>
      </trkpt>
      <trkpt lat="59.9492689" lon="17.7118638">
        <ele>47.7225</ele>
        <time>2014-04-01T18:07:47Z</time>
      </trkpt>
      <trkpt lat="59.9492655" lon="17.7118148">
        <ele>47.7225</ele>
        <time>2014-04-01T18:07:48Z</time>
      </trkpt>
      <trkpt lat="59.9492639" lon="17.7117676">
        <ele>48.2034</ele>
        <time>2014-04-01T18:07:49Z</time>
      </trkpt>
      <trkpt lat="59.9492641" lon="17.7117233">
        <ele>48.2034</ele>
        <time>2014-04-01T18:07:50Z</time>
      </trkpt>
      <trkpt lat="59.9492622" lon="17.711665">
        <ele>48.2034</ele>
        <time>2014-04-01T18:07:51Z</time>
      </trkpt>
      <trkpt lat="59.9492578" lon="17.7116096">
        <ele>48.684</ele>
        <time>2014-04-01T18:07:52Z</time>
      </trkpt>
      <trkpt lat="59.9492527" lon="17.7115656">
        <ele>48.684</ele>
        <time>2014-04-01T18:07:53Z</time>
      </trkpt>
      <trkpt lat="59.9492463" lon="17.7115195">
        <ele>49.6453</ele>
        <time>2014-04-01T18:07:54Z</time>
      </trkpt>
      <trkpt lat="59.9492404" lon="17.7114753">
        <ele>50.126</ele>
        <time>2014-04-01T18:07:55Z</time>
      </trkpt>
      <trkpt lat="59.9492385" lon="17.7114283">
        <ele>50.126</ele>
        <time>2014-04-01T18:07:56Z</time>
      </trkpt>
      <trkpt lat="59.9492396" lon="17.7113793">
        <ele>50.6066</ele>
        <time>2014-04-01T18:07:57Z</time>
      </trkpt>
      <trkpt lat="59.9492397" lon="17.711335">
        <ele>51.0872</ele>
        <time>2014-04-01T18:07:58Z</time>
      </trkpt>
      <trkpt lat="59.9492386" lon="17.7112865">
        <ele>51.5679</ele>
        <time>2014-04-01T18:07:59Z</time>
      </trkpt>
      <trkpt lat="59.9492401" lon="17.7112316">
        <ele>52.0486</ele>
        <time>2014-04-01T18:08:00Z</time>
      </trkpt>
      <trkpt lat="59.9492412" lon="17.7111786">
        <ele>52.5292</ele>
        <time>2014-04-01T18:08:01Z</time>
      </trkpt>
      <trkpt lat="59.9492358" lon="17.7111308">
        <ele>53.4905</ele>
        <time>2014-04-01T18:08:02Z</time>
      </trkpt>
      <trkpt lat="59.9492335" lon="17.7110869">
        <ele>53.4905</ele>
        <time>2014-04-01T18:08:03Z</time>
      </trkpt>
      <trkpt lat="59.9492344" lon="17.711043">
        <ele>54.4518</ele>
        <time>2014-04-01T18:08:04Z</time>
      </trkpt>
      <trkpt lat="59.9492355" lon="17.7109973">
        <ele>54.9324</ele>
        <time>2014-04-01T18:08:05Z</time>
      </trkpt>
      <trkpt lat="59.9492382" lon="17.7109503">
        <ele>55.4131</ele>
        <time>2014-04-01T18:08:06Z</time>
      </trkpt>
      <trkpt lat="59.9492401" lon="17.7109115">
        <ele>55.4131</ele>
        <time>2014-04-01T18:08:07Z</time>
      </trkpt>
      <trkpt lat="59.9492479" lon="17.71086">
        <ele>55.8938</ele>
        <time>2014-04-01T18:08:08Z</time>
      </trkpt>
      <trkpt lat="59.9492622" lon="17.7108053">
        <ele>56.3745</ele>
        <time>2014-04-01T18:08:09Z</time>
      </trkpt>
      <trkpt lat="59.9492746" lon="17.7107577">
        <ele>56.3745</ele>
        <time>2014-04-01T18:08:10Z</time>
      </trkpt>
      <trkpt lat="59.9492892" lon="17.7107078">
        <ele>56.3745</ele>
        <time>2014-04-01T18:08:11Z</time>
      </trkpt>
      <trkpt lat="59.9493044" lon="17.7106685">
        <ele>56.3745</ele>
        <time>2014-04-01T18:08:12Z</time>
      </trkpt>
      <trkpt lat="59.9493176" lon="17.7106382">
        <ele>56.8551</ele>
        <time>2014-04-01T18:08:13Z</time>
      </trkpt>
      <trkpt lat="59.9493339" lon="17.7106058">
        <ele>56.8551</ele>
        <time>2014-04-01T18:08:14Z</time>
      </trkpt>
      <trkpt lat="59.9493532" lon="17.7105777">
        <ele>56.8551</ele>
        <time>2014-04-01T18:08:15Z</time>
      </trkpt>
      <trkpt lat="59.9493743" lon="17.7105507">
        <ele>57.3358</ele>
        <time>2014-04-01T18:08:16Z</time>
      </trkpt>
      <trkpt lat="59.9493971" lon="17.7105291">
        <ele>57.3358</ele>
        <time>2014-04-01T18:08:17Z</time>
      </trkpt>
      <trkpt lat="59.9494193" lon="17.7105058">
        <ele>57.8165</ele>
        <time>2014-04-01T18:08:18Z</time>
      </trkpt>
      <trkpt lat="59.9494433" lon="17.7104763">
        <ele>57.8165</ele>
        <time>2014-04-01T18:08:19Z</time>
      </trkpt>
      <trkpt lat="59.949468" lon="17.7104491">
        <ele>58.2971</ele>
        <time>2014-04-01T18:08:20Z</time>
      </trkpt>
      <trkpt lat="59.949487" lon="17.710426">
        <ele>58.2971</ele>
        <time>2014-04-01T18:08:21Z</time>
      </trkpt>
      <trkpt lat="59.9495043" lon="17.7103997">
        <ele>58.7777</ele>
        <time>2014-04-01T18:08:22Z</time>
      </trkpt>
      <trkpt lat="59.949508" lon="17.7103922">
        <ele>60.7003</ele>
        <time>2014-04-01T18:08:57Z</time>
      </trkpt>
      <trkpt lat="59.9495041" lon="17.7103887">
        <ele>60.7003</ele>
        <time>2014-04-01T18:08:58Z</time>
      </trkpt>
      <trkpt lat="59.9494896" lon="17.7103907">
        <ele>60.7003</ele>
        <time>2014-04-01T18:08:59Z</time>
      </trkpt>
      <trkpt lat="59.9494681" lon="17.7103953">
        <ele>60.7003</ele>
        <time>2014-04-01T18:09:00Z</time>
      </trkpt>
      <trkpt lat="59.9494442" lon="17.7104012">
        <ele>60.7003</ele>
        <time>2014-04-01T18:09:01Z</time>
      </trkpt>
      <trkpt lat="59.9494193" lon="17.7104063">
        <ele>60.2197</ele>
        <time>2014-04-01T18:09:02Z</time>
      </trkpt>
      <trkpt lat="59.9493938" lon="17.7104161">
        <ele>59.7391</ele>
        <time>2014-04-01T18:09:03Z</time>
      </trkpt>
      <trkpt lat="59.9493686" lon="17.7104289">
        <ele>59.2584</ele>
        <time>2014-04-01T18:09:04Z</time>
      </trkpt>
      <trkpt lat="59.949341" lon="17.7104488">
        <ele>59.2584</ele>
        <time>2014-04-01T18:09:05Z</time>
      </trkpt>
      <trkpt lat="59.9493137" lon="17.710471">
        <ele>58.7777</ele>
        <time>2014-04-01T18:09:06Z</time>
      </trkpt>
      <trkpt lat="59.9492893" lon="17.7104899">
        <ele>58.2971</ele>
        <time>2014-04-01T18:09:07Z</time>
      </trkpt>
      <trkpt lat="59.9492648" lon="17.7105058">
        <ele>57.8165</ele>
        <time>2014-04-01T18:09:08Z</time>
      </trkpt>
      <trkpt lat="59.9492443" lon="17.7105175">
        <ele>57.3358</ele>
        <time>2014-04-01T18:09:09Z</time>
      </trkpt>
      <trkpt lat="59.9492245" lon="17.7105328">
        <ele>57.3358</ele>
        <time>2014-04-01T18:09:10Z</time>
      </trkpt>
      <trkpt lat="59.9491997" lon="17.71055">
        <ele>56.3745</ele>
        <time>2014-04-01T18:09:11Z</time>
      </trkpt>
      <trkpt lat="59.9491759" lon="17.7105665">
        <ele>56.3745</ele>
        <time>2014-04-01T18:09:12Z</time>
      </trkpt>
      <trkpt lat="59.9491596" lon="17.7105795">
        <ele>56.3745</ele>
        <time>2014-04-01T18:09:13Z</time>
      </trkpt>
      <trkpt lat="59.9491479" lon="17.7105924">
        <ele>55.8938</ele>
        <time>2014-04-01T18:09:14Z</time>
      </trkpt>
      <trkpt lat="59.949136" lon="17.710614">
        <ele>55.4131</ele>
        <time>2014-04-01T18:09:15Z</time>
      </trkpt>
      <trkpt lat="59.9491271" lon="17.7106385">
        <ele>55.4131</ele>
        <time>2014-04-01T18:09:16Z</time>
      </trkpt>
      <trkpt lat="59.9491174" lon="17.7106752">
        <ele>54.9324</ele>
        <time>2014-04-01T18:09:17Z</time>
      </trkpt>
      <trkpt lat="59.949108" lon="17.7107192">
        <ele>54.4518</ele>
        <time>2014-04-01T18:09:18Z</time>
      </trkpt>
      <trkpt lat="59.9491016" lon="17.7107695">
        <ele>53.9712</ele>
        <time>2014-04-01T18:09:19Z</time>
      </trkpt>
      <trkpt lat="59.9491014" lon="17.7108304">
        <ele>53.4905</ele>
        <time>2014-04-01T18:09:20Z</time>
      </trkpt>
      <trkpt lat="59.9491026" lon="17.7108881">
        <ele>53.4905</ele>
        <time>2014-04-01T18:09:21Z</time>
      </trkpt>
      <trkpt lat="59.949109" lon="17.7109356">
        <ele>53.0098</ele>
        <time>2014-04-01T18:09:22Z</time>
      </trkpt>
      <trkpt lat="59.9491229" lon="17.7109794">
        <ele>52.5292</ele>
        <time>2014-04-01T18:09:23Z</time>
      </trkpt>
      <trkpt lat="59.9491389" lon="17.7110227">
        <ele>52.5292</ele>
        <time>2014-04-01T18:09:24Z</time>
      </trkpt>
      <trkpt lat="59.9491495" lon="17.7110799">
        <ele>52.5292</ele>
        <time>2014-04-01T18:09:25Z</time>
      </trkpt>
      <trkpt lat="59.9491515" lon="17.711142">
        <ele>52.5292</ele>
        <time>2014-04-01T18:09:26Z</time>
      </trkpt>
      <trkpt lat="59.9491313" lon="17.7111894">
        <ele>51.5679</ele>
        <time>2014-04-01T18:09:27Z</time>
      </trkpt>
      <trkpt lat="59.9491008" lon="17.7112092">
        <ele>51.0872</ele>
        <time>2014-04-01T18:09:28Z</time>
      </trkpt>
      <trkpt lat="59.9490638" lon="17.7112143">
        <ele>50.6066</ele>
        <time>2014-04-01T18:09:29Z</time>
      </trkpt>
      <trkpt lat="59.9490315" lon="17.7112004">
        <ele>50.126</ele>
        <time>2014-04-01T18:09:30Z</time>
      </trkpt>
      <trkpt lat="59.9490047" lon="17.7111695">
        <ele>50.126</ele>
        <time>2014-04-01T18:09:31Z</time>
      </trkpt>
      <trkpt lat="59.9489728" lon="17.7111418">
        <ele>49.6453</ele>
        <time>2014-04-01T18:09:32Z</time>
      </trkpt>
      <trkpt lat="59.9489377" lon="17.7111243">
        <ele>49.6453</ele>
        <time>2014-04-01T18:09:33Z</time>
      </trkpt>
      <trkpt lat="59.9489065" lon="17.7111056">
        <ele>49.1646</ele>
        <time>2014-04-01T18:09:34Z</time>
      </trkpt>
      <trkpt lat="59.9488722" lon="17.7110922">
        <ele>48.684</ele>
        <time>2014-04-01T18:09:35Z</time>
      </trkpt>
      <trkpt lat="59.9488376" lon="17.7110858">
        <ele>48.684</ele>
        <time>2014-04-01T18:09:36Z</time>
      </trkpt>
      <trkpt lat="59.9488097" lon="17.7110737">
        <ele>48.684</ele>
        <time>2014-04-01T18:09:37Z</time>
      </trkpt>
      <trkpt lat="59.9487868" lon="17.7110599">
        <ele>48.2034</ele>
        <time>2014-04-01T18:09:38Z</time>
      </trkpt>
      <trkpt lat="59.9487644" lon="17.7110493">
        <ele>47.7225</ele>
        <time>2014-04-01T18:09:39Z</time>
      </trkpt>
      <trkpt lat="59.948737" lon="17.7110519">
        <ele>48.2034</ele>
        <time>2014-04-01T18:09:40Z</time>
      </trkpt>
      <trkpt lat="59.9487124" lon="17.711062">
        <ele>47.2418</ele>
        <time>2014-04-01T18:09:41Z</time>
      </trkpt>
      <trkpt lat="59.9486864" lon="17.7110739">
        <ele>46.7612</ele>
        <time>2014-04-01T18:09:42Z</time>
      </trkpt>
      <trkpt lat="59.9486582" lon="17.7110927">
        <ele>46.2806</ele>
        <time>2014-04-01T18:09:43Z</time>
      </trkpt>
      <trkpt lat="59.9486273" lon="17.7111203">
        <ele>46.2806</ele>
        <time>2014-04-01T18:09:44Z</time>
      </trkpt>
      <trkpt lat="59.9485978" lon="17.7111585">
        <ele>45.7999</ele>
        <time>2014-04-01T18:09:45Z</time>
      </trkpt>
      <trkpt lat="59.9485729" lon="17.7111923">
        <ele>45.7999</ele>
        <time>2014-04-01T18:09:46Z</time>
      </trkpt>
      <trkpt lat="59.9485516" lon="17.7112185">
        <ele>45.7999</ele>
        <time>2014-04-01T18:09:47Z</time>
      </trkpt>
      <trkpt lat="59.9485364" lon="17.7112396">
        <ele>45.3192</ele>
        <time>2014-04-01T18:09:48Z</time>
      </trkpt>
      <trkpt lat="59.9485309" lon="17.7112637">
        <ele>45.7999</ele>
        <time>2014-04-01T18:09:49Z</time>
      </trkpt>
      <trkpt lat="59.9485251" lon="17.711298">
        <ele>45.3192</ele>
        <time>2014-04-01T18:09:50Z</time>
      </trkpt>
      <trkpt lat="59.9485191" lon="17.7113309">
        <ele>45.3192</ele>
        <time>2014-04-01T18:09:51Z</time>
      </trkpt>
      <trkpt lat="59.9485143" lon="17.7113728">
        <ele>44.8386</ele>
        <time>2014-04-01T18:09:52Z</time>
      </trkpt>
      <trkpt lat="59.948517" lon="17.7114417">
        <ele>46.2806</ele>
        <time>2014-04-01T18:09:57Z</time>
      </trkpt>
      <trkpt lat="59.9485209" lon="17.7114377">
        <ele>46.2806</ele>
        <time>2014-04-01T18:09:58Z</time>
      </trkpt>
      <trkpt lat="59.9485216" lon="17.7114232">
        <ele>46.2806</ele>
        <time>2014-04-01T18:09:59Z</time>
      </trkpt>
      <trkpt lat="59.9485283" lon="17.7114047">
        <ele>46.2806</ele>
        <time>2014-04-01T18:10:00Z</time>
      </trkpt>
      <trkpt lat="59.9485321" lon="17.7113577">
        <ele>46.2806</ele>
        <time>2014-04-01T18:10:01Z</time>
      </trkpt>
      <trkpt lat="59.9485349" lon="17.7112971">
        <ele>46.2806</ele>
        <time>2014-04-01T18:10:02Z</time>
      </trkpt>
      <trkpt lat="59.9485444" lon="17.711244">
        <ele>46.2806</ele>
        <time>2014-04-01T18:10:03Z</time>
      </trkpt>
      <trkpt lat="59.9485656" lon="17.7112018">
        <ele>45.7999</ele>
        <time>2014-04-01T18:10:04Z</time>
      </trkpt>
      <trkpt lat="59.948591" lon="17.711159">
        <ele>46.2806</ele>
        <time>2014-04-01T18:10:05Z</time>
      </trkpt>
      <trkpt lat="59.9486139" lon="17.7111238">
        <ele>46.2806</ele>
        <time>2014-04-01T18:10:06Z</time>
      </trkpt>
      <trkpt lat="59.9486342" lon="17.7110912">
        <ele>46.2806</ele>
        <time>2014-04-01T18:10:07Z</time>
      </trkpt>
      <trkpt lat="59.9486542" lon="17.711073">
        <ele>46.2806</ele>
        <time>2014-04-01T18:10:08Z</time>
      </trkpt>
      <trkpt lat="59.9486734" lon="17.7110638">
        <ele>46.2806</ele>
        <time>2014-04-01T18:10:09Z</time>
      </trkpt>
      <trkpt lat="59.948693" lon="17.7110491">
        <ele>46.2806</ele>
        <time>2014-04-01T18:10:10Z</time>
      </trkpt>
      <trkpt lat="59.9487154" lon="17.7110373">
        <ele>46.2806</ele>
        <time>2014-04-01T18:10:11Z</time>
      </trkpt>
      <trkpt lat="59.9487401" lon="17.7110185">
        <ele>46.2806</ele>
        <time>2014-04-01T18:10:12Z</time>
      </trkpt>
      <trkpt lat="59.9487637" lon="17.7110017">
        <ele>46.2806</ele>
        <time>2014-04-01T18:10:13Z</time>
      </trkpt>
      <trkpt lat="59.9487901" lon="17.7109938">
        <ele>46.7612</ele>
        <time>2014-04-01T18:10:14Z</time>
      </trkpt>
      <trkpt lat="59.9488139" lon="17.7109876">
        <ele>47.7225</ele>
        <time>2014-04-01T18:10:15Z</time>
      </trkpt>
      <trkpt lat="59.9488304" lon="17.7109922">
        <ele>47.7225</ele>
        <time>2014-04-01T18:10:16Z</time>
      </trkpt>
      <trkpt lat="59.9488526" lon="17.7110053">
        <ele>48.2034</ele>
        <time>2014-04-01T18:10:17Z</time>
      </trkpt>
      <trkpt lat="59.9488768" lon="17.7110145">
        <ele>49.1646</ele>
        <time>2014-04-01T18:10:18Z</time>
      </trkpt>
      <trkpt lat="59.9489007" lon="17.7110259">
        <ele>49.6453</ele>
        <time>2014-04-01T18:10:19Z</time>
      </trkpt>
      <trkpt lat="59.9489239" lon="17.7110378">
        <ele>50.126</ele>
        <time>2014-04-01T18:10:20Z</time>
      </trkpt>
      <trkpt lat="59.9489454" lon="17.7110528">
        <ele>50.6066</ele>
        <time>2014-04-01T18:10:21Z</time>
      </trkpt>
      <trkpt lat="59.9489667" lon="17.7110772">
        <ele>51.0872</ele>
        <time>2014-04-01T18:10:22Z</time>
      </trkpt>
      <trkpt lat="59.9489858" lon="17.7111146">
        <ele>51.5679</ele>
        <time>2014-04-01T18:10:23Z</time>
      </trkpt>
      <trkpt lat="59.9490018" lon="17.7111642">
        <ele>51.5679</ele>
        <time>2014-04-01T18:10:24Z</time>
      </trkpt>
      <trkpt lat="59.9490211" lon="17.7111993">
        <ele>52.0486</ele>
        <time>2014-04-01T18:10:25Z</time>
      </trkpt>
      <trkpt lat="59.9490391" lon="17.7112248">
        <ele>52.5292</ele>
        <time>2014-04-01T18:10:26Z</time>
      </trkpt>
      <trkpt lat="59.9490604" lon="17.7112404">
        <ele>52.5292</ele>
        <time>2014-04-01T18:10:27Z</time>
      </trkpt>
      <trkpt lat="59.9490874" lon="17.7112476">
        <ele>52.5292</ele>
        <time>2014-04-01T18:10:28Z</time>
      </trkpt>
      <trkpt lat="59.9491143" lon="17.7112471">
        <ele>52.5292</ele>
        <time>2014-04-01T18:10:29Z</time>
      </trkpt>
      <trkpt lat="59.9491365" lon="17.7112335">
        <ele>53.0098</ele>
        <time>2014-04-01T18:10:30Z</time>
      </trkpt>
      <trkpt lat="59.949155" lon="17.7112051">
        <ele>53.4905</ele>
        <time>2014-04-01T18:10:31Z</time>
      </trkpt>
      <trkpt lat="59.9491634" lon="17.7111643">
        <ele>53.9712</ele>
        <time>2014-04-01T18:10:32Z</time>
      </trkpt>
      <trkpt lat="59.9491557" lon="17.7111145">
        <ele>53.9712</ele>
        <time>2014-04-01T18:10:33Z</time>
      </trkpt>
      <trkpt lat="59.9491391" lon="17.711072">
        <ele>53.9712</ele>
        <time>2014-04-01T18:10:34Z</time>
      </trkpt>
      <trkpt lat="59.9491216" lon="17.7110306">
        <ele>54.4518</ele>
        <time>2014-04-01T18:10:35Z</time>
      </trkpt>
      <trkpt lat="59.9491055" lon="17.7109902">
        <ele>55.4131</ele>
        <time>2014-04-01T18:10:36Z</time>
      </trkpt>
      <trkpt lat="59.9490925" lon="17.710943">
        <ele>55.4131</ele>
        <time>2014-04-01T18:10:37Z</time>
      </trkpt>
      <trkpt lat="59.9490851" lon="17.7108863">
        <ele>55.8938</ele>
        <time>2014-04-01T18:10:38Z</time>
      </trkpt>
      <trkpt lat="59.9490804" lon="17.7108173">
        <ele>57.3358</ele>
        <time>2014-04-01T18:10:39Z</time>
      </trkpt>
      <trkpt lat="59.949082" lon="17.7107563">
        <ele>57.8165</ele>
        <time>2014-04-01T18:10:40Z</time>
      </trkpt>
      <trkpt lat="59.9490914" lon="17.7107073">
        <ele>58.2971</ele>
        <time>2014-04-01T18:10:41Z</time>
      </trkpt>
      <trkpt lat="59.9491023" lon="17.710653">
        <ele>58.7777</ele>
        <time>2014-04-01T18:10:42Z</time>
      </trkpt>
      <trkpt lat="59.9491151" lon="17.7105964">
        <ele>58.7777</ele>
        <time>2014-04-01T18:10:43Z</time>
      </trkpt>
      <trkpt lat="59.9491307" lon="17.7105541">
        <ele>58.7777</ele>
        <time>2014-04-01T18:10:44Z</time>
      </trkpt>
      <trkpt lat="59.9491484" lon="17.7105284">
        <ele>59.2584</ele>
        <time>2014-04-01T18:10:45Z</time>
      </trkpt>
      <trkpt lat="59.9491717" lon="17.7105022">
        <ele>59.2584</ele>
        <time>2014-04-01T18:10:46Z</time>
      </trkpt>
      <trkpt lat="59.9491966" lon="17.7104845">
        <ele>59.7391</ele>
        <time>2014-04-01T18:10:47Z</time>
      </trkpt>
      <trkpt lat="59.9492199" lon="17.7104748">
        <ele>59.2584</ele>
        <time>2014-04-01T18:10:48Z</time>
      </trkpt>
      <trkpt lat="59.9492413" lon="17.7104571">
        <ele>59.2584</ele>
        <time>2014-04-01T18:10:49Z</time>
      </trkpt>
      <trkpt lat="59.9492656" lon="17.7104414">
        <ele>59.7391</ele>
        <time>2014-04-01T18:10:50Z</time>
      </trkpt>
      <trkpt lat="59.9492903" lon="17.71044">
        <ele>59.7391</ele>
        <time>2014-04-01T18:10:51Z</time>
      </trkpt>
      <trkpt lat="59.9493106" lon="17.7104388">
        <ele>60.2197</ele>
        <time>2014-04-01T18:10:52Z</time>
      </trkpt>
      <trkpt lat="59.9493238" lon="17.710429">
        <ele>60.2197</ele>
        <time>2014-04-01T18:10:53Z</time>
      </trkpt>
      <trkpt lat="59.9493354" lon="17.7104163">
        <ele>60.7003</ele>
        <time>2014-04-01T18:10:54Z</time>
      </trkpt>
      <trkpt lat="59.9493518" lon="17.7104088">
        <ele>60.7003</ele>
        <time>2014-04-01T18:10:55Z</time>
      </trkpt>
      <trkpt lat="59.9493728" lon="17.7104064">
        <ele>60.7003</ele>
        <time>2014-04-01T18:10:56Z</time>
      </trkpt>
      <trkpt lat="59.9493977" lon="17.71041">
        <ele>61.181</ele>
        <time>2014-04-01T18:10:57Z</time>
      </trkpt>
      <trkpt lat="59.9494257" lon="17.7104074">
        <ele>61.181</ele>
        <time>2014-04-01T18:10:58Z</time>
      </trkpt>
      <trkpt lat="59.9494539" lon="17.7103976">
        <ele>61.6617</ele>
        <time>2014-04-01T18:10:59Z</time>
      </trkpt>
      <trkpt lat="59.9494804" lon="17.7103841">
        <ele>62.1423</ele>
        <time>2014-04-01T18:11:00Z</time>
      </trkpt>
      <trkpt lat="59.9497213" lon="17.7099298">
        <ele>61.6617</ele>
        <time>2014-04-01T18:12:10Z</time>
      </trkpt>
      <trkpt lat="59.9497274" lon="17.7099342">
        <ele>61.181</ele>
        <time>2014-04-01T18:12:11Z</time>
      </trkpt>
      <trkpt lat="59.9497409" lon="17.7099474">
        <ele>60.7003</ele>
        <time>2014-04-01T18:12:12Z</time>
      </trkpt>
      <trkpt lat="59.9497581" lon="17.7099728">
        <ele>60.7003</ele>
        <time>2014-04-01T18:12:13Z</time>
      </trkpt>
      <trkpt lat="59.9497779" lon="17.7100042">
        <ele>60.7003</ele>
        <time>2014-04-01T18:12:14Z</time>
      </trkpt>
      <trkpt lat="59.9498052" lon="17.710029">
        <ele>60.7003</ele>
        <time>2014-04-01T18:12:15Z</time>
      </trkpt>
      <trkpt lat="59.9498317" lon="17.7100558">
        <ele>60.2197</ele>
        <time>2014-04-01T18:12:16Z</time>
      </trkpt>
      <trkpt lat="59.9498532" lon="17.7100863">
        <ele>59.2584</ele>
        <time>2014-04-01T18:12:17Z</time>
      </trkpt>
      <trkpt lat="59.9498792" lon="17.7101106">
        <ele>58.7777</ele>
        <time>2014-04-01T18:12:18Z</time>
      </trkpt>
      <trkpt lat="59.9499083" lon="17.7101276">
        <ele>58.7777</ele>
        <time>2014-04-01T18:12:19Z</time>
      </trkpt>
      <trkpt lat="59.9499392" lon="17.7101371">
        <ele>58.2971</ele>
        <time>2014-04-01T18:12:20Z</time>
      </trkpt>
      <trkpt lat="59.9499683" lon="17.7101555">
        <ele>57.8165</ele>
        <time>2014-04-01T18:12:21Z</time>
      </trkpt>
      <trkpt lat="59.9499974" lon="17.7101907">
        <ele>57.3358</ele>
        <time>2014-04-01T18:12:22Z</time>
      </trkpt>
      <trkpt lat="59.9500265" lon="17.7102319">
        <ele>55.8938</ele>
        <time>2014-04-01T18:12:23Z</time>
      </trkpt>
      <trkpt lat="59.9500573" lon="17.7102717">
        <ele>54.9324</ele>
        <time>2014-04-01T18:12:24Z</time>
      </trkpt>
      <trkpt lat="59.9500841" lon="17.7103088">
        <ele>53.9712</ele>
        <time>2014-04-01T18:12:25Z</time>
      </trkpt>
      <trkpt lat="59.9501092" lon="17.7103566">
        <ele>53.0098</ele>
        <time>2014-04-01T18:12:26Z</time>
      </trkpt>
      <trkpt lat="59.950132" lon="17.7104064">
        <ele>52.0486</ele>
        <time>2014-04-01T18:12:27Z</time>
      </trkpt>
      <trkpt lat="59.9501523" lon="17.7104606">
        <ele>51.5679</ele>
        <time>2014-04-01T18:12:28Z</time>
      </trkpt>
      <trkpt lat="59.9501715" lon="17.7105147">
        <ele>51.0872</ele>
        <time>2014-04-01T18:12:29Z</time>
      </trkpt>
      <trkpt lat="59.9501938" lon="17.7105636">
        <ele>50.126</ele>
        <time>2014-04-01T18:12:30Z</time>
      </trkpt>
      <trkpt lat="59.9502127" lon="17.7106206">
        <ele>49.1646</ele>
        <time>2014-04-01T18:12:31Z</time>
      </trkpt>
      <trkpt lat="59.9502334" lon="17.7106771">
        <ele>48.2034</ele>
        <time>2014-04-01T18:12:32Z</time>
      </trkpt>
      <trkpt lat="59.9502529" lon="17.7107278">
        <ele>47.7225</ele>
        <time>2014-04-01T18:12:33Z</time>
      </trkpt>
      <trkpt lat="59.9502741" lon="17.710776">
        <ele>47.2418</ele>
        <time>2014-04-01T18:12:34Z</time>
      </trkpt>
      <trkpt lat="59.9502979" lon="17.7108234">
        <ele>46.7612</ele>
        <time>2014-04-01T18:12:35Z</time>
      </trkpt>
      <trkpt lat="59.9503184" lon="17.7108708">
        <ele>45.3192</ele>
        <time>2014-04-01T18:12:36Z</time>
      </trkpt>
      <trkpt lat="59.9503428" lon="17.710917">
        <ele>44.8386</ele>
        <time>2014-04-01T18:12:37Z</time>
      </trkpt>
      <trkpt lat="59.9503625" lon="17.7109622">
        <ele>44.358</ele>
        <time>2014-04-01T18:12:38Z</time>
      </trkpt>
      <trkpt lat="59.9503822" lon="17.7110045">
        <ele>43.8773</ele>
        <time>2014-04-01T18:12:39Z</time>
      </trkpt>
      <trkpt lat="59.9504025" lon="17.7110519">
        <ele>43.3966</ele>
        <time>2014-04-01T18:12:40Z</time>
      </trkpt>
      <trkpt lat="59.9504289" lon="17.7110931">
        <ele>42.4354</ele>
        <time>2014-04-01T18:12:41Z</time>
      </trkpt>
      <trkpt lat="59.9504584" lon="17.7111284">
        <ele>42.4354</ele>
        <time>2014-04-01T18:12:42Z</time>
      </trkpt>
      <trkpt lat="59.9504917" lon="17.7111678">
        <ele>42.4354</ele>
        <time>2014-04-01T18:12:43Z</time>
      </trkpt>
      <trkpt lat="59.9505212" lon="17.7112054">
        <ele>41.9547</ele>
        <time>2014-04-01T18:12:44Z</time>
      </trkpt>
      <trkpt lat="59.9505512" lon="17.7112352">
        <ele>41.9547</ele>
        <time>2014-04-01T18:12:45Z</time>
      </trkpt>
      <trkpt lat="59.9505833" lon="17.7112626">
        <ele>42.916</ele>
        <time>2014-04-01T18:12:46Z</time>
      </trkpt>
      <trkpt lat="59.9506137" lon="17.7112957">
        <ele>44.358</ele>
        <time>2014-04-01T18:12:47Z</time>
      </trkpt>
      <trkpt lat="59.9506064" lon="17.7113202">
        <ele>44.358</ele>
        <time>2014-04-01T18:12:59Z</time>
      </trkpt>
      <trkpt lat="59.9505963" lon="17.7113087">
        <ele>44.358</ele>
        <time>2014-04-01T18:13:00Z</time>
      </trkpt>
      <trkpt lat="59.9505849" lon="17.7112888">
        <ele>44.358</ele>
        <time>2014-04-01T18:13:01Z</time>
      </trkpt>
      <trkpt lat="59.9505693" lon="17.71126">
        <ele>44.358</ele>
        <time>2014-04-01T18:13:02Z</time>
      </trkpt>
      <trkpt lat="59.9505438" lon="17.7112182">
        <ele>44.358</ele>
        <time>2014-04-01T18:13:03Z</time>
      </trkpt>
      <trkpt lat="59.9505147" lon="17.7111766">
        <ele>43.3966</ele>
        <time>2014-04-01T18:13:04Z</time>
      </trkpt>
      <trkpt lat="59.9504884" lon="17.7111523">
        <ele>43.8773</ele>
        <time>2014-04-01T18:13:05Z</time>
      </trkpt>
      <trkpt lat="59.9504601" lon="17.7111217">
        <ele>43.8773</ele>
        <time>2014-04-01T18:13:06Z</time>
      </trkpt>
      <trkpt lat="59.9504358" lon="17.7110808">
        <ele>44.358</ele>
        <time>2014-04-01T18:13:07Z</time>
      </trkpt>
      <trkpt lat="59.9504061" lon="17.7110451">
        <ele>44.8386</ele>
        <time>2014-04-01T18:13:08Z</time>
      </trkpt>
      <trkpt lat="59.9503764" lon="17.7110016">
        <ele>44.8386</ele>
        <time>2014-04-01T18:13:09Z</time>
      </trkpt>
      <trkpt lat="59.9503564" lon="17.7109731">
        <ele>45.7999</ele>
        <time>2014-04-01T18:13:10Z</time>
      </trkpt>
      <trkpt lat="59.950342" lon="17.7109628">
        <ele>46.2806</ele>
        <time>2014-04-01T18:13:11Z</time>
      </trkpt>
      <trkpt lat="59.9503236" lon="17.7109632">
        <ele>46.2806</ele>
        <time>2014-04-01T18:13:12Z</time>
      </trkpt>
      <trkpt lat="59.9502961" lon="17.710959">
        <ele>46.2806</ele>
        <time>2014-04-01T18:13:13Z</time>
      </trkpt>
      <trkpt lat="59.9502735" lon="17.7109381">
        <ele>46.7612</ele>
        <time>2014-04-01T18:13:14Z</time>
      </trkpt>
      <trkpt lat="59.9502512" lon="17.7109048">
        <ele>46.7612</ele>
        <time>2014-04-01T18:13:15Z</time>
      </trkpt>
      <trkpt lat="59.9502262" lon="17.7108689">
        <ele>47.2418</ele>
        <time>2014-04-01T18:13:16Z</time>
      </trkpt>
      <trkpt lat="59.9501993" lon="17.7108414">
        <ele>47.7225</ele>
        <time>2014-04-01T18:13:17Z</time>
      </trkpt>
      <trkpt lat="59.950176" lon="17.7108073">
        <ele>47.2418</ele>
        <time>2014-04-01T18:13:18Z</time>
      </trkpt>
      <trkpt lat="59.9501534" lon="17.7107607">
        <ele>47.2418</ele>
        <time>2014-04-01T18:13:19Z</time>
      </trkpt>
      <trkpt lat="59.9501301" lon="17.7107068">
        <ele>47.2418</ele>
        <time>2014-04-01T18:13:20Z</time>
      </trkpt>
      <trkpt lat="59.9501039" lon="17.710661">
        <ele>47.2418</ele>
        <time>2014-04-01T18:13:21Z</time>
      </trkpt>
      <trkpt lat="59.9500788" lon="17.7106292">
        <ele>47.2418</ele>
        <time>2014-04-01T18:13:22Z</time>
      </trkpt>
      <trkpt lat="59.9500573" lon="17.710597">
        <ele>47.2418</ele>
        <time>2014-04-01T18:13:23Z</time>
      </trkpt>
      <trkpt lat="59.9500393" lon="17.7105649">
        <ele>46.7612</ele>
        <time>2014-04-01T18:13:24Z</time>
      </trkpt>
      <trkpt lat="59.9500151" lon="17.7105377">
        <ele>46.7612</ele>
        <time>2014-04-01T18:13:25Z</time>
      </trkpt>
      <trkpt lat="59.9499952" lon="17.7105046">
        <ele>46.7612</ele>
        <time>2014-04-01T18:13:26Z</time>
      </trkpt>
      <trkpt lat="59.9499753" lon="17.7104854">
        <ele>47.2418</ele>
        <time>2014-04-01T18:13:27Z</time>
      </trkpt>
      <trkpt lat="59.949952" lon="17.7104815">
        <ele>47.2418</ele>
        <time>2014-04-01T18:13:28Z</time>
      </trkpt>
      <trkpt lat="59.9499373" lon="17.710464">
        <ele>47.2418</ele>
        <time>2014-04-01T18:13:29Z</time>
      </trkpt>
      <trkpt lat="59.9499203" lon="17.7104447">
        <ele>47.2418</ele>
        <time>2014-04-01T18:13:30Z</time>
      </trkpt>
      <trkpt lat="59.9498947" lon="17.7104298">
        <ele>47.2418</ele>
        <time>2014-04-01T18:13:31Z</time>
      </trkpt>
      <trkpt lat="59.9498737" lon="17.7104176">
        <ele>47.2418</ele>
        <time>2014-04-01T18:13:32Z</time>
      </trkpt>
      <trkpt lat="59.9498613" lon="17.7103932">
        <ele>47.2418</ele>
        <time>2014-04-01T18:13:33Z</time>
      </trkpt>
      <trkpt lat="59.9498472" lon="17.7103572">
        <ele>47.2418</ele>
        <time>2014-04-01T18:13:34Z</time>
      </trkpt>
      <trkpt lat="59.9498265" lon="17.7103298">
        <ele>47.7225</ele>
        <time>2014-04-01T18:13:35Z</time>
      </trkpt>
      <trkpt lat="59.9498108" lon="17.7103038">
        <ele>47.7225</ele>
        <time>2014-04-01T18:13:36Z</time>
      </trkpt>
      <trkpt lat="59.9497959" lon="17.7102763">
        <ele>48.2034</ele>
        <time>2014-04-01T18:13:37Z</time>
      </trkpt>
      <trkpt lat="59.949785" lon="17.7102375">
        <ele>48.2034</ele>
        <time>2014-04-01T18:13:38Z</time>
      </trkpt>
      <trkpt lat="59.9497773" lon="17.7102007">
        <ele>48.684</ele>
        <time>2014-04-01T18:13:39Z</time>
      </trkpt>
      <trkpt lat="59.9497669" lon="17.7101826">
        <ele>49.1646</ele>
        <time>2014-04-01T18:13:40Z</time>
      </trkpt>
      <trkpt lat="59.9497523" lon="17.710166">
        <ele>49.6453</ele>
        <time>2014-04-01T18:13:41Z</time>
      </trkpt>
      <trkpt lat="59.94973" lon="17.7101601">
        <ele>49.6453</ele>
        <time>2014-04-01T18:13:42Z</time>
      </trkpt>
      <trkpt lat="59.9497058" lon="17.7101598">
        <ele>49.6453</ele>
        <time>2014-04-01T18:13:43Z</time>
      </trkpt>
      <trkpt lat="59.9496809" lon="17.7101563">
        <ele>50.126</ele>
        <time>2014-04-01T18:13:44Z</time>
      </trkpt>
      <trkpt lat="59.9496607" lon="17.7101344">
        <ele>50.126</ele>
        <time>2014-04-01T18:13:45Z</time>
      </trkpt>
      <trkpt lat="59.9496401" lon="17.7100987">
        <ele>50.126</ele>
        <time>2014-04-01T18:13:46Z</time>
      </trkpt>
      <trkpt lat="59.9496219" lon="17.7100738">
        <ele>50.6066</ele>
        <time>2014-04-01T18:13:47Z</time>
      </trkpt>
      <trkpt lat="59.9496042" lon="17.7100578">
        <ele>50.6066</ele>
        <time>2014-04-01T18:13:48Z</time>
      </trkpt>
      <trkpt lat="59.949588" lon="17.7100422">
        <ele>51.0872</ele>
        <time>2014-04-01T18:13:49Z</time>
      </trkpt>
      <trkpt lat="59.949673" lon="17.7098323">
        <ele>61.6617</ele>
        <time>2014-04-01T18:14:22Z</time>
      </trkpt>
      <trkpt lat="59.9496799" lon="17.7098157">
        <ele>61.6617</ele>
        <time>2014-04-01T18:14:23Z</time>
      </trkpt>
      <trkpt lat="59.9496901" lon="17.7097837">
        <ele>61.181</ele>
        <time>2014-04-01T18:14:24Z</time>
      </trkpt>
      <trkpt lat="59.9497079" lon="17.7097445">
        <ele>61.181</ele>
        <time>2014-04-01T18:14:25Z</time>
      </trkpt>
      <trkpt lat="59.949725" lon="17.7096966">
        <ele>61.181</ele>
        <time>2014-04-01T18:14:26Z</time>
      </trkpt>
      <trkpt lat="59.9497362" lon="17.7096463">
        <ele>61.6617</ele>
        <time>2014-04-01T18:14:27Z</time>
      </trkpt>
      <trkpt lat="59.9497425" lon="17.7095976">
        <ele>61.6617</ele>
        <time>2014-04-01T18:14:28Z</time>
      </trkpt>
      <trkpt lat="59.949744" lon="17.7095485">
        <ele>62.1423</ele>
        <time>2014-04-01T18:14:29Z</time>
      </trkpt>
      <trkpt lat="59.9497403" lon="17.7095041">
        <ele>61.6617</ele>
        <time>2014-04-01T18:14:30Z</time>
      </trkpt>
      <trkpt lat="59.9497317" lon="17.7094698">
        <ele>61.6617</ele>
        <time>2014-04-01T18:14:31Z</time>
      </trkpt>
      <trkpt lat="59.9497186" lon="17.7094376">
        <ele>61.6617</ele>
        <time>2014-04-01T18:14:32Z</time>
      </trkpt>
      <trkpt lat="59.9497009" lon="17.709395">
        <ele>61.181</ele>
        <time>2014-04-01T18:14:33Z</time>
      </trkpt>
      <trkpt lat="59.9496854" lon="17.7093495">
        <ele>60.7003</ele>
        <time>2014-04-01T18:14:34Z</time>
      </trkpt>
      <trkpt lat="59.9496694" lon="17.7093134">
        <ele>60.7003</ele>
        <time>2014-04-01T18:14:35Z</time>
      </trkpt>
      <trkpt lat="59.9496535" lon="17.7092739">
        <ele>59.7391</ele>
        <time>2014-04-01T18:14:36Z</time>
      </trkpt>
      <trkpt lat="59.9496448" lon="17.709228">
        <ele>59.7391</ele>
        <time>2014-04-01T18:14:37Z</time>
      </trkpt>
      <trkpt lat="59.9496465" lon="17.7091916">
        <ele>59.2584</ele>
        <time>2014-04-01T18:14:38Z</time>
      </trkpt>
      <trkpt lat="59.9496559" lon="17.7091512">
        <ele>58.7777</ele>
        <time>2014-04-01T18:14:39Z</time>
      </trkpt>
      <trkpt lat="59.9496623" lon="17.7090953">
        <ele>58.2971</ele>
        <time>2014-04-01T18:14:40Z</time>
      </trkpt>
      <trkpt lat="59.949675" lon="17.7090461">
        <ele>57.8165</ele>
        <time>2014-04-01T18:14:41Z</time>
      </trkpt>
      <trkpt lat="59.9496912" lon="17.7090068">
        <ele>57.3358</ele>
        <time>2014-04-01T18:14:42Z</time>
      </trkpt>
      <trkpt lat="59.9497037" lon="17.7089643">
        <ele>57.3358</ele>
        <time>2014-04-01T18:14:43Z</time>
      </trkpt>
      <trkpt lat="59.9497229" lon="17.7089257">
        <ele>56.8551</ele>
        <time>2014-04-01T18:14:44Z</time>
      </trkpt>
      <trkpt lat="59.9497439" lon="17.7088719">
        <ele>56.3745</ele>
        <time>2014-04-01T18:14:45Z</time>
      </trkpt>
      <trkpt lat="59.9497631" lon="17.7088156">
        <ele>55.8938</ele>
        <time>2014-04-01T18:14:46Z</time>
      </trkpt>
      <trkpt lat="59.9497804" lon="17.7087605">
        <ele>55.8938</ele>
        <time>2014-04-01T18:14:47Z</time>
      </trkpt>
      <trkpt lat="59.9497979" lon="17.7087128">
        <ele>55.8938</ele>
        <time>2014-04-01T18:14:48Z</time>
      </trkpt>
      <trkpt lat="59.949816" lon="17.7086637">
        <ele>55.8938</ele>
        <time>2014-04-01T18:14:49Z</time>
      </trkpt>
      <trkpt lat="59.9498344" lon="17.7086222">
        <ele>55.4131</ele>
        <time>2014-04-01T18:14:50Z</time>
      </trkpt>
      <trkpt lat="59.9498508" lon="17.7085736">
        <ele>55.4131</ele>
        <time>2014-04-01T18:14:51Z</time>
      </trkpt>
      <trkpt lat="59.9498602" lon="17.7085005">
        <ele>55.4131</ele>
        <time>2014-04-01T18:14:52Z</time>
      </trkpt>
      <trkpt lat="59.9498624" lon="17.7084146">
        <ele>55.4131</ele>
        <time>2014-04-01T18:14:53Z</time>
      </trkpt>
      <trkpt lat="59.9498615" lon="17.7083284">
        <ele>56.3745</ele>
        <time>2014-04-01T18:14:54Z</time>
      </trkpt>
      <trkpt lat="59.9498665" lon="17.7082608">
        <ele>55.8938</ele>
        <time>2014-04-01T18:14:55Z</time>
      </trkpt>
      <trkpt lat="59.9498788" lon="17.7081902">
        <ele>56.3745</ele>
        <time>2014-04-01T18:14:56Z</time>
      </trkpt>
      <trkpt lat="59.9498939" lon="17.7081176">
        <ele>56.3745</ele>
        <time>2014-04-01T18:14:57Z</time>
      </trkpt>
      <trkpt lat="59.9499073" lon="17.7080482">
        <ele>56.3745</ele>
        <time>2014-04-01T18:14:58Z</time>
      </trkpt>
      <trkpt lat="59.9499206" lon="17.7079748">
        <ele>56.8551</ele>
        <time>2014-04-01T18:14:59Z</time>
      </trkpt>
      <trkpt lat="59.9499411" lon="17.7078919">
        <ele>57.8165</ele>
        <time>2014-04-01T18:15:00Z</time>
      </trkpt>
      <trkpt lat="59.949969" lon="17.7078251">
        <ele>57.8165</ele>
        <time>2014-04-01T18:15:01Z</time>
      </trkpt>
      <trkpt lat="59.9499975" lon="17.7077853">
        <ele>56.8551</ele>
        <time>2014-04-01T18:15:02Z</time>
      </trkpt>
      <trkpt lat="59.9500238" lon="17.7077531">
        <ele>56.8551</ele>
        <time>2014-04-01T18:15:03Z</time>
      </trkpt>
      <trkpt lat="59.9500449" lon="17.7077376">
        <ele>55.8938</ele>
        <time>2014-04-01T18:15:04Z</time>
      </trkpt>
      <trkpt lat="59.9500685" lon="17.7077241">
        <ele>55.8938</ele>
        <time>2014-04-01T18:15:05Z</time>
      </trkpt>
      <trkpt lat="59.950088" lon="17.7077308">
        <ele>54.9324</ele>
        <time>2014-04-01T18:15:06Z</time>
      </trkpt>
      <trkpt lat="59.9501078" lon="17.7077271">
        <ele>54.4518</ele>
        <time>2014-04-01T18:15:07Z</time>
      </trkpt>
      <trkpt lat="59.950129" lon="17.7077117">
        <ele>53.9712</ele>
        <time>2014-04-01T18:15:08Z</time>
      </trkpt>
      <trkpt lat="59.9501555" lon="17.7077008">
        <ele>53.9712</ele>
        <time>2014-04-01T18:15:09Z</time>
      </trkpt>
      <trkpt lat="59.9501838" lon="17.7076859">
        <ele>53.9712</ele>
        <time>2014-04-01T18:15:10Z</time>
      </trkpt>
      <trkpt lat="59.9502109" lon="17.707678">
        <ele>53.4905</ele>
        <time>2014-04-01T18:15:11Z</time>
      </trkpt>
      <trkpt lat="59.9502338" lon="17.707676">
        <ele>53.0098</ele>
        <time>2014-04-01T18:15:12Z</time>
      </trkpt>
      <trkpt lat="59.9502539" lon="17.7076698">
        <ele>52.5292</ele>
        <time>2014-04-01T18:15:13Z</time>
      </trkpt>
      <trkpt lat="59.9502689" lon="17.7076524">
        <ele>52.0486</ele>
        <time>2014-04-01T18:15:14Z</time>
      </trkpt>
      <trkpt lat="59.9502854" lon="17.7076403">
        <ele>51.5679</ele>
        <time>2014-04-01T18:15:15Z</time>
      </trkpt>
      <trkpt lat="59.950297" lon="17.7076278">
        <ele>50.6066</ele>
        <time>2014-04-01T18:15:16Z</time>
      </trkpt>
      <trkpt lat="59.9503075" lon="17.7075993">
        <ele>50.126</ele>
        <time>2014-04-01T18:15:17Z</time>
      </trkpt>
      <trkpt lat="59.9503165" lon="17.7075578">
        <ele>50.126</ele>
        <time>2014-04-01T18:15:18Z</time>
      </trkpt>
      <trkpt lat="59.9503185" lon="17.7075138">
        <ele>50.126</ele>
        <time>2014-04-01T18:15:19Z</time>
      </trkpt>
      <trkpt lat="59.9503171" lon="17.707467">
        <ele>49.1646</ele>
        <time>2014-04-01T18:15:20Z</time>
      </trkpt>
      <trkpt lat="59.9503115" lon="17.7074159">
        <ele>48.2034</ele>
        <time>2014-04-01T18:15:21Z</time>
      </trkpt>
      <trkpt lat="59.9503046" lon="17.7073682">
        <ele>46.7612</ele>
        <time>2014-04-01T18:15:22Z</time>
      </trkpt>
      <trkpt lat="59.9503044" lon="17.70745">
        <ele>49.6453</ele>
        <time>2014-04-01T18:15:37Z</time>
      </trkpt>
      <trkpt lat="59.9503041" lon="17.7074605">
        <ele>49.6453</ele>
        <time>2014-04-01T18:15:38Z</time>
      </trkpt>
      <trkpt lat="59.9503077" lon="17.7074776">
        <ele>50.126</ele>
        <time>2014-04-01T18:15:39Z</time>
      </trkpt>
      <trkpt lat="59.9503171" lon="17.707506">
        <ele>50.126</ele>
        <time>2014-04-01T18:15:40Z</time>
      </trkpt>
      <trkpt lat="59.9503402" lon="17.707535">
        <ele>52.0486</ele>
        <time>2014-04-01T18:15:41Z</time>
      </trkpt>
      <trkpt lat="59.9503537" lon="17.7075764">
        <ele>53.0098</ele>
        <time>2014-04-01T18:15:42Z</time>
      </trkpt>
      <trkpt lat="59.9503588" lon="17.7076242">
        <ele>53.9712</ele>
        <time>2014-04-01T18:15:43Z</time>
      </trkpt>
      <trkpt lat="59.9503512" lon="17.7076688">
        <ele>53.9712</ele>
        <time>2014-04-01T18:15:44Z</time>
      </trkpt>
      <trkpt lat="59.9503358" lon="17.7077027">
        <ele>54.4518</ele>
        <time>2014-04-01T18:15:45Z</time>
      </trkpt>
      <trkpt lat="59.950316" lon="17.7077287">
        <ele>54.4518</ele>
        <time>2014-04-01T18:15:46Z</time>
      </trkpt>
      <trkpt lat="59.950301" lon="17.7077495">
        <ele>54.9324</ele>
        <time>2014-04-01T18:15:47Z</time>
      </trkpt>
      <trkpt lat="59.9502874" lon="17.7077509">
        <ele>55.4131</ele>
        <time>2014-04-01T18:15:48Z</time>
      </trkpt>
      <trkpt lat="59.9502693" lon="17.7077641">
        <ele>55.4131</ele>
        <time>2014-04-01T18:15:49Z</time>
      </trkpt>
      <trkpt lat="59.950248" lon="17.7077794">
        <ele>55.4131</ele>
        <time>2014-04-01T18:15:50Z</time>
      </trkpt>
      <trkpt lat="59.9502238" lon="17.7077847">
        <ele>54.9324</ele>
        <time>2014-04-01T18:15:51Z</time>
      </trkpt>
      <trkpt lat="59.9502027" lon="17.7077853">
        <ele>54.9324</ele>
        <time>2014-04-01T18:15:52Z</time>
      </trkpt>
      <trkpt lat="59.9501816" lon="17.7077915">
        <ele>54.4518</ele>
        <time>2014-04-01T18:15:53Z</time>
      </trkpt>
      <trkpt lat="59.9501544" lon="17.7078018">
        <ele>54.4518</ele>
        <time>2014-04-01T18:15:54Z</time>
      </trkpt>
      <trkpt lat="59.9501254" lon="17.7078094">
        <ele>54.4518</ele>
        <time>2014-04-01T18:15:55Z</time>
      </trkpt>
      <trkpt lat="59.9500959" lon="17.7078251">
        <ele>53.9712</ele>
        <time>2014-04-01T18:15:56Z</time>
      </trkpt>
      <trkpt lat="59.9500639" lon="17.7078526">
        <ele>53.9712</ele>
        <time>2014-04-01T18:15:57Z</time>
      </trkpt>
      <trkpt lat="59.9500363" lon="17.7078711">
        <ele>54.4518</ele>
        <time>2014-04-01T18:15:58Z</time>
      </trkpt>
      <trkpt lat="59.9500071" lon="17.7078951">
        <ele>54.4518</ele>
        <time>2014-04-01T18:15:59Z</time>
      </trkpt>
      <trkpt lat="59.9499819" lon="17.7079049">
        <ele>54.4518</ele>
        <time>2014-04-01T18:16:00Z</time>
      </trkpt>
      <trkpt lat="59.9499577" lon="17.7079238">
        <ele>53.9712</ele>
        <time>2014-04-01T18:16:01Z</time>
      </trkpt>
      <trkpt lat="59.9499358" lon="17.7079572">
        <ele>53.9712</ele>
        <time>2014-04-01T18:16:02Z</time>
      </trkpt>
      <trkpt lat="59.9499161" lon="17.7079997">
        <ele>54.4518</ele>
        <time>2014-04-01T18:16:03Z</time>
      </trkpt>
      <trkpt lat="59.9499015" lon="17.7080494">
        <ele>54.9324</ele>
        <time>2014-04-01T18:16:04Z</time>
      </trkpt>
      <trkpt lat="59.9498893" lon="17.708094">
        <ele>55.4131</ele>
        <time>2014-04-01T18:16:05Z</time>
      </trkpt>
      <trkpt lat="59.9498793" lon="17.7081453">
        <ele>55.8938</ele>
        <time>2014-04-01T18:16:06Z</time>
      </trkpt>
      <trkpt lat="59.9498699" lon="17.7081994">
        <ele>56.3745</ele>
        <time>2014-04-01T18:16:07Z</time>
      </trkpt>
      <trkpt lat="59.9498615" lon="17.708259">
        <ele>56.8551</ele>
        <time>2014-04-01T18:16:08Z</time>
      </trkpt>
      <trkpt lat="59.9498545" lon="17.7083026">
        <ele>57.8165</ele>
        <time>2014-04-01T18:16:09Z</time>
      </trkpt>
      <trkpt lat="59.9498458" lon="17.70835">
        <ele>57.8165</ele>
        <time>2014-04-01T18:16:10Z</time>
      </trkpt>
      <trkpt lat="59.9498368" lon="17.7084">
        <ele>57.8165</ele>
        <time>2014-04-01T18:16:11Z</time>
      </trkpt>
      <trkpt lat="59.9498301" lon="17.7084425">
        <ele>57.8165</ele>
        <time>2014-04-01T18:16:12Z</time>
      </trkpt>
      <trkpt lat="59.949823" lon="17.7084874">
        <ele>57.3358</ele>
        <time>2014-04-01T18:16:13Z</time>
      </trkpt>
      <trkpt lat="59.9498137" lon="17.7085357">
        <ele>57.8165</ele>
        <time>2014-04-01T18:16:14Z</time>
      </trkpt>
      <trkpt lat="59.9498049" lon="17.708582">
        <ele>57.8165</ele>
        <time>2014-04-01T18:16:15Z</time>
      </trkpt>
      <trkpt lat="59.9497966" lon="17.7086292">
        <ele>57.3358</ele>
        <time>2014-04-01T18:16:16Z</time>
      </trkpt>
      <trkpt lat="59.949788" lon="17.7086752">
        <ele>57.3358</ele>
        <time>2014-04-01T18:16:17Z</time>
      </trkpt>
      <trkpt lat="59.9497716" lon="17.7087182">
        <ele>57.8165</ele>
        <time>2014-04-01T18:16:18Z</time>
      </trkpt>
      <trkpt lat="59.9497591" lon="17.7087581">
        <ele>57.8165</ele>
        <time>2014-04-01T18:16:19Z</time>
      </trkpt>
      <trkpt lat="59.9497478" lon="17.7087979">
        <ele>57.8165</ele>
        <time>2014-04-01T18:16:20Z</time>
      </trkpt>
      <trkpt lat="59.9497322" lon="17.70884">
        <ele>57.8165</ele>
        <time>2014-04-01T18:16:21Z</time>
      </trkpt>
      <trkpt lat="59.9497167" lon="17.7088782">
        <ele>57.3358</ele>
        <time>2014-04-01T18:16:22Z</time>
      </trkpt>
      <trkpt lat="59.9497031" lon="17.7089181">
        <ele>57.3358</ele>
        <time>2014-04-01T18:16:23Z</time>
      </trkpt>
      <trkpt lat="59.9496919" lon="17.7089673">
        <ele>57.3358</ele>
        <time>2014-04-01T18:16:24Z</time>
      </trkpt>
      <trkpt lat="59.9496835" lon="17.7090127">
        <ele>57.8165</ele>
        <time>2014-04-01T18:16:25Z</time>
      </trkpt>
      <trkpt lat="59.9496785" lon="17.7090523">
        <ele>58.2971</ele>
        <time>2014-04-01T18:16:26Z</time>
      </trkpt>
      <trkpt lat="59.9496771" lon="17.7090995">
        <ele>58.2971</ele>
        <time>2014-04-01T18:16:27Z</time>
      </trkpt>
      <trkpt lat="59.9496738" lon="17.7091474">
        <ele>59.2584</ele>
        <time>2014-04-01T18:16:28Z</time>
      </trkpt>
      <trkpt lat="59.9496721" lon="17.7091857">
        <ele>59.2584</ele>
        <time>2014-04-01T18:16:29Z</time>
      </trkpt>
      <trkpt lat="59.94967" lon="17.7092226">
        <ele>59.7391</ele>
        <time>2014-04-01T18:16:30Z</time>
      </trkpt>
      <trkpt lat="59.9496675" lon="17.7092657">
        <ele>60.2197</ele>
        <time>2014-04-01T18:16:31Z</time>
      </trkpt>
      <trkpt lat="59.949667" lon="17.7093002">
        <ele>60.2197</ele>
        <time>2014-04-01T18:16:32Z</time>
      </trkpt>
      <trkpt lat="59.9496695" lon="17.709333">
        <ele>60.7003</ele>
        <time>2014-04-01T18:16:33Z</time>
      </trkpt>
      <trkpt lat="59.9496763" lon="17.7093641">
        <ele>60.7003</ele>
        <time>2014-04-01T18:16:34Z</time>
      </trkpt>
      <trkpt lat="59.9496876" lon="17.7093916">
        <ele>61.181</ele>
        <time>2014-04-01T18:16:35Z</time>
      </trkpt>
      <trkpt lat="59.9497006" lon="17.7094123">
        <ele>61.181</ele>
        <time>2014-04-01T18:16:36Z</time>
      </trkpt>
      <trkpt lat="59.9497149" lon="17.7094304">
        <ele>61.6617</ele>
        <time>2014-04-01T18:16:37Z</time>
      </trkpt>
      <trkpt lat="59.9497326" lon="17.7094429">
        <ele>61.6617</ele>
        <time>2014-04-01T18:16:38Z</time>
      </trkpt>
      <trkpt lat="59.9497498" lon="17.7094593">
        <ele>62.1423</ele>
        <time>2014-04-01T18:16:39Z</time>
      </trkpt>
      <trkpt lat="59.9497628" lon="17.7094829">
        <ele>62.6229</ele>
        <time>2014-04-01T18:16:40Z</time>
      </trkpt>
      <trkpt lat="59.949768" lon="17.7095111">
        <ele>62.6229</ele>
        <time>2014-04-01T18:16:41Z</time>
      </trkpt>
      <trkpt lat="59.9497662" lon="17.7095568">
        <ele>62.6229</ele>
        <time>2014-04-01T18:16:42Z</time>
      </trkpt>
      <trkpt lat="59.9497648" lon="17.7096051">
        <ele>63.1036</ele>
        <time>2014-04-01T18:16:43Z</time>
      </trkpt>
      <trkpt lat="59.94976" lon="17.7096563">
        <ele>62.6229</ele>
        <time>2014-04-01T18:16:44Z</time>
      </trkpt>
      <trkpt lat="59.9497519" lon="17.7097081">
        <ele>62.6229</ele>
        <time>2014-04-01T18:16:45Z</time>
      </trkpt>
      <trkpt lat="59.9497455" lon="17.7097543">
        <ele>62.6229</ele>
        <time>2014-04-01T18:16:46Z</time>
      </trkpt>
      <trkpt lat="59.9497409" lon="17.7097981">
        <ele>62.6229</ele>
        <time>2014-04-01T18:16:47Z</time>
      </trkpt>
      <trkpt lat="59.9500379" lon="17.7091024">
        <ele>62.6229</ele>
        <time>2014-04-01T18:18:27Z</time>
      </trkpt>
      <trkpt lat="59.9500497" lon="17.7091087">
        <ele>62.1423</ele>
        <time>2014-04-01T18:18:28Z</time>
      </trkpt>
      <trkpt lat="59.9500653" lon="17.70912">
        <ele>61.6617</ele>
        <time>2014-04-01T18:18:29Z</time>
      </trkpt>
      <trkpt lat="59.9500828" lon="17.7091366">
        <ele>61.181</ele>
        <time>2014-04-01T18:18:30Z</time>
      </trkpt>
      <trkpt lat="59.9501031" lon="17.7091656">
        <ele>61.181</ele>
        <time>2014-04-01T18:18:31Z</time>
      </trkpt>
      <trkpt lat="59.9501208" lon="17.7092083">
        <ele>60.7003</ele>
        <time>2014-04-01T18:18:32Z</time>
      </trkpt>
      <trkpt lat="59.9501413" lon="17.7092585">
        <ele>60.7003</ele>
        <time>2014-04-01T18:18:33Z</time>
      </trkpt>
      <trkpt lat="59.9501654" lon="17.7093052">
        <ele>60.2197</ele>
        <time>2014-04-01T18:18:34Z</time>
      </trkpt>
      <trkpt lat="59.9501913" lon="17.7093497">
        <ele>59.2584</ele>
        <time>2014-04-01T18:18:35Z</time>
      </trkpt>
      <trkpt lat="59.9502203" lon="17.7093811">
        <ele>58.7777</ele>
        <time>2014-04-01T18:18:36Z</time>
      </trkpt>
      <trkpt lat="59.9502498" lon="17.7094214">
        <ele>58.2971</ele>
        <time>2014-04-01T18:18:37Z</time>
      </trkpt>
      <trkpt lat="59.9502751" lon="17.7094697">
        <ele>57.3358</ele>
        <time>2014-04-01T18:18:38Z</time>
      </trkpt>
      <trkpt lat="59.9502978" lon="17.7095176">
        <ele>56.8551</ele>
        <time>2014-04-01T18:18:39Z</time>
      </trkpt>
      <trkpt lat="59.9503213" lon="17.7095651">
        <ele>55.8938</ele>
        <time>2014-04-01T18:18:40Z</time>
      </trkpt>
      <trkpt lat="59.9503455" lon="17.7096148">
        <ele>54.9324</ele>
        <time>2014-04-01T18:18:41Z</time>
      </trkpt>
      <trkpt lat="59.9503745" lon="17.7096401">
        <ele>53.9712</ele>
        <time>2014-04-01T18:18:42Z</time>
      </trkpt>
      <trkpt lat="59.950403" lon="17.7096533">
        <ele>53.4905</ele>
        <time>2014-04-01T18:18:43Z</time>
      </trkpt>
      <trkpt lat="59.9504335" lon="17.7096657">
        <ele>52.5292</ele>
        <time>2014-04-01T18:18:44Z</time>
      </trkpt>
      <trkpt lat="59.9504652" lon="17.7096847">
        <ele>51.5679</ele>
        <time>2014-04-01T18:18:45Z</time>
      </trkpt>
      <trkpt lat="59.9504927" lon="17.7097054">
        <ele>50.126</ele>
        <time>2014-04-01T18:18:46Z</time>
      </trkpt>
      <trkpt lat="59.950518" lon="17.709721">
        <ele>49.1646</ele>
        <time>2014-04-01T18:18:47Z</time>
      </trkpt>
      <trkpt lat="59.9505454" lon="17.7097433">
        <ele>48.2034</ele>
        <time>2014-04-01T18:18:48Z</time>
      </trkpt>
      <trkpt lat="59.950578" lon="17.7097714">
        <ele>47.7225</ele>
        <time>2014-04-01T18:18:49Z</time>
      </trkpt>
      <trkpt lat="59.9506081" lon="17.7097987">
        <ele>46.7612</ele>
        <time>2014-04-01T18:18:50Z</time>
      </trkpt>
      <trkpt lat="59.9506376" lon="17.7098205">
        <ele>45.7999</ele>
        <time>2014-04-01T18:18:51Z</time>
      </trkpt>
      <trkpt lat="59.9506709" lon="17.7098462">
        <ele>45.3192</ele>
        <time>2014-04-01T18:18:52Z</time>
      </trkpt>
      <trkpt lat="59.9507005" lon="17.7098706">
        <ele>44.8386</ele>
        <time>2014-04-01T18:18:53Z</time>
      </trkpt>
      <trkpt lat="59.950725" lon="17.7098939">
        <ele>43.8773</ele>
        <time>2014-04-01T18:18:54Z</time>
      </trkpt>
      <trkpt lat="59.9507421" lon="17.7099183">
        <ele>43.8773</ele>
        <time>2014-04-01T18:18:55Z</time>
      </trkpt>
      <trkpt lat="59.9506704" lon="17.7099225">
        <ele>45.3192</ele>
        <time>2014-04-01T18:19:06Z</time>
      </trkpt>
      <trkpt lat="59.9506658" lon="17.7099131">
        <ele>45.7999</ele>
        <time>2014-04-01T18:19:07Z</time>
      </trkpt>
      <trkpt lat="59.9506553" lon="17.7099003">
        <ele>45.3192</ele>
        <time>2014-04-01T18:19:08Z</time>
      </trkpt>
      <trkpt lat="59.9506359" lon="17.709877">
        <ele>45.7999</ele>
        <time>2014-04-01T18:19:09Z</time>
      </trkpt>
      <trkpt lat="59.9506139" lon="17.7098391">
        <ele>45.7999</ele>
        <time>2014-04-01T18:19:10Z</time>
      </trkpt>
      <trkpt lat="59.9505888" lon="17.7098028">
        <ele>45.3192</ele>
        <time>2014-04-01T18:19:11Z</time>
      </trkpt>
      <trkpt lat="59.950563" lon="17.7097685">
        <ele>44.8386</ele>
        <time>2014-04-01T18:19:12Z</time>
      </trkpt>
      <trkpt lat="59.9505393" lon="17.7097338">
        <ele>44.8386</ele>
        <time>2014-04-01T18:19:13Z</time>
      </trkpt>
      <trkpt lat="59.9505168" lon="17.7097144">
        <ele>44.8386</ele>
        <time>2014-04-01T18:19:14Z</time>
      </trkpt>
      <trkpt lat="59.950491" lon="17.7097015">
        <ele>44.358</ele>
        <time>2014-04-01T18:19:15Z</time>
      </trkpt>
      <trkpt lat="59.9504652" lon="17.709688">
        <ele>44.358</ele>
        <time>2014-04-01T18:19:16Z</time>
      </trkpt>
      <trkpt lat="59.9504451" lon="17.7096677">
        <ele>44.8386</ele>
        <time>2014-04-01T18:19:17Z</time>
      </trkpt>
      <trkpt lat="59.9504321" lon="17.7096439">
        <ele>44.8386</ele>
        <time>2014-04-01T18:19:18Z</time>
      </trkpt>
      <trkpt lat="59.9504181" lon="17.7096215">
        <ele>45.3192</ele>
        <time>2014-04-01T18:19:19Z</time>
      </trkpt>
      <trkpt lat="59.9503999" lon="17.7096048">
        <ele>45.3192</ele>
        <time>2014-04-01T18:19:20Z</time>
      </trkpt>
      <trkpt lat="59.9503807" lon="17.7095894">
        <ele>46.2806</ele>
        <time>2014-04-01T18:19:21Z</time>
      </trkpt>
      <trkpt lat="59.9503666" lon="17.7095808">
        <ele>46.2806</ele>
        <time>2014-04-01T18:19:22Z</time>
      </trkpt>
      <trkpt lat="59.9503518" lon="17.7095786">
        <ele>46.7612</ele>
        <time>2014-04-01T18:19:23Z</time>
      </trkpt>
      <trkpt lat="59.9503358" lon="17.709572">
        <ele>47.2418</ele>
        <time>2014-04-01T18:19:24Z</time>
      </trkpt>
      <trkpt lat="59.9503206" lon="17.7095631">
        <ele>47.2418</ele>
        <time>2014-04-01T18:19:25Z</time>
      </trkpt>
      <trkpt lat="59.9502996" lon="17.7095641">
        <ele>47.2418</ele>
        <time>2014-04-01T18:19:26Z</time>
      </trkpt>
      <trkpt lat="59.9502802" lon="17.7095616">
        <ele>47.2418</ele>
        <time>2014-04-01T18:19:27Z</time>
      </trkpt>
      <trkpt lat="59.950264" lon="17.7095541">
        <ele>47.7225</ele>
        <time>2014-04-01T18:19:28Z</time>
      </trkpt>
      <trkpt lat="59.9502498" lon="17.7095458">
        <ele>47.7225</ele>
        <time>2014-04-01T18:19:29Z</time>
      </trkpt>
      <trkpt lat="59.9502362" lon="17.7095381">
        <ele>47.7225</ele>
        <time>2014-04-01T18:19:30Z</time>
      </trkpt>
      <trkpt lat="59.9502176" lon="17.7095391">
        <ele>48.2034</ele>
        <time>2014-04-01T18:19:31Z</time>
      </trkpt>
      <trkpt lat="59.9501969" lon="17.7095511">
        <ele>48.2034</ele>
        <time>2014-04-01T18:19:32Z</time>
      </trkpt>
      <trkpt lat="59.9501766" lon="17.7095641">
        <ele>48.684</ele>
        <time>2014-04-01T18:19:33Z</time>
      </trkpt>
      <trkpt lat="59.9501554" lon="17.7095687">
        <ele>49.6453</ele>
        <time>2014-04-01T18:19:34Z</time>
      </trkpt>
      <trkpt lat="59.9501359" lon="17.7095599">
        <ele>50.126</ele>
        <time>2014-04-01T18:19:35Z</time>
      </trkpt>
      <trkpt lat="59.9501169" lon="17.709545">
        <ele>51.0872</ele>
        <time>2014-04-01T18:19:36Z</time>
      </trkpt>
      <trkpt lat="59.950097" lon="17.7095423">
        <ele>51.0872</ele>
        <time>2014-04-01T18:19:37Z</time>
      </trkpt>
      <trkpt lat="59.9500771" lon="17.7095426">
        <ele>51.5679</ele>
        <time>2014-04-01T18:19:38Z</time>
      </trkpt>
      <trkpt lat="59.9500575" lon="17.7095369">
        <ele>52.0486</ele>
        <time>2014-04-01T18:19:39Z</time>
      </trkpt>
      <trkpt lat="59.9500349" lon="17.7095338">
        <ele>53.0098</ele>
        <time>2014-04-01T18:19:40Z</time>
      </trkpt>
      <trkpt lat="59.9500144" lon="17.7095324">
        <ele>53.4905</ele>
        <time>2014-04-01T18:19:41Z</time>
      </trkpt>
      <trkpt lat="59.9499985" lon="17.7095233">
        <ele>53.9712</ele>
        <time>2014-04-01T18:19:42Z</time>
      </trkpt>
      <trkpt lat="59.9499831" lon="17.7095019">
        <ele>54.9324</ele>
        <time>2014-04-01T18:19:43Z</time>
      </trkpt>
      <trkpt lat="59.9499695" lon="17.7094764">
        <ele>55.8938</ele>
        <time>2014-04-01T18:19:44Z</time>
      </trkpt>
      <trkpt lat="59.9499591" lon="17.7094625">
        <ele>56.8551</ele>
        <time>2014-04-01T18:19:45Z</time>
      </trkpt>
      <trkpt lat="59.9499488" lon="17.7094543">
        <ele>58.2971</ele>
        <time>2014-04-01T18:19:46Z</time>
      </trkpt>
      <trkpt lat="59.9499363" lon="17.7094386">
        <ele>58.7777</ele>
        <time>2014-04-01T18:19:47Z</time>
      </trkpt>
      <trkpt lat="59.9499224" lon="17.7094236">
        <ele>59.2584</ele>
        <time>2014-04-01T18:19:48Z</time>
      </trkpt>
      <trkpt lat="59.9499073" lon="17.7094098">
        <ele>60.2197</ele>
        <time>2014-04-01T18:19:49Z</time>
      </trkpt>
      <trkpt lat="59.9498901" lon="17.7093784">
        <ele>60.7003</ele>
        <time>2014-04-01T18:19:50Z</time>
      </trkpt>
      <trkpt lat="59.9498745" lon="17.7093403">
        <ele>61.6617</ele>
        <time>2014-04-01T18:19:51Z</time>
      </trkpt>
      <trkpt lat="59.9498575" lon="17.7093059">
        <ele>62.1423</ele>
        <time>2014-04-01T18:19:52Z</time>
      </trkpt>
      <trkpt lat="59.9500087" lon="17.7088729">
        <ele>64.0651</ele>
        <time>2014-04-01T18:21:02Z</time>
      </trkpt>
      <trkpt lat="59.9500102" lon="17.7088643">
        <ele>64.0651</ele>
        <time>2014-04-01T18:21:03Z</time>
      </trkpt>
      <trkpt lat="59.9500115" lon="17.7088451">
        <ele>64.0651</ele>
        <time>2014-04-01T18:21:04Z</time>
      </trkpt>
      <trkpt lat="59.9500145" lon="17.7088068">
        <ele>64.0651</ele>
        <time>2014-04-01T18:21:05Z</time>
      </trkpt>
      <trkpt lat="59.9500249" lon="17.708768">
        <ele>63.5844</ele>
        <time>2014-04-01T18:21:06Z</time>
      </trkpt>
      <trkpt lat="59.9500367" lon="17.7087224">
        <ele>63.5844</ele>
        <time>2014-04-01T18:21:07Z</time>
      </trkpt>
      <trkpt lat="59.9500414" lon="17.708663">
        <ele>63.5844</ele>
        <time>2014-04-01T18:21:08Z</time>
      </trkpt>
      <trkpt lat="59.9500456" lon="17.7086131">
        <ele>63.1036</ele>
        <time>2014-04-01T18:21:09Z</time>
      </trkpt>
      <trkpt lat="59.9500544" lon="17.7085577">
        <ele>63.1036</ele>
        <time>2014-04-01T18:21:10Z</time>
      </trkpt>
      <trkpt lat="59.9500635" lon="17.7085009">
        <ele>62.6229</ele>
        <time>2014-04-01T18:21:11Z</time>
      </trkpt>
      <trkpt lat="59.9500767" lon="17.7084349">
        <ele>62.6229</ele>
        <time>2014-04-01T18:21:12Z</time>
      </trkpt>
      <trkpt lat="59.9500896" lon="17.7083632">
        <ele>62.1423</ele>
        <time>2014-04-01T18:21:13Z</time>
      </trkpt>
      <trkpt lat="59.9501046" lon="17.7082896">
        <ele>61.6617</ele>
        <time>2014-04-01T18:21:14Z</time>
      </trkpt>
      <trkpt lat="59.9501166" lon="17.7082184">
        <ele>62.1423</ele>
        <time>2014-04-01T18:21:15Z</time>
      </trkpt>
      <trkpt lat="59.9501321" lon="17.708182">
        <ele>61.6617</ele>
        <time>2014-04-01T18:21:16Z</time>
      </trkpt>
      <trkpt lat="59.9501503" lon="17.7081653">
        <ele>60.7003</ele>
        <time>2014-04-01T18:21:17Z</time>
      </trkpt>
      <trkpt lat="59.9501697" lon="17.7081639">
        <ele>59.7391</ele>
        <time>2014-04-01T18:21:18Z</time>
      </trkpt>
      <trkpt lat="59.9501943" lon="17.7081701">
        <ele>59.2584</ele>
        <time>2014-04-01T18:21:19Z</time>
      </trkpt>
      <trkpt lat="59.9502273" lon="17.7081896">
        <ele>58.2971</ele>
        <time>2014-04-01T18:21:20Z</time>
      </trkpt>
      <trkpt lat="59.9502617" lon="17.7082222">
        <ele>57.8165</ele>
        <time>2014-04-01T18:21:21Z</time>
      </trkpt>
      <trkpt lat="59.9502927" lon="17.7082628">
        <ele>56.8551</ele>
        <time>2014-04-01T18:21:22Z</time>
      </trkpt>
      <trkpt lat="59.9503161" lon="17.7083028">
        <ele>55.8938</ele>
        <time>2014-04-01T18:21:23Z</time>
      </trkpt>
      <trkpt lat="59.9503422" lon="17.7083388">
        <ele>54.9324</ele>
        <time>2014-04-01T18:21:24Z</time>
      </trkpt>
      <trkpt lat="59.9503734" lon="17.7083773">
        <ele>54.9324</ele>
        <time>2014-04-01T18:21:25Z</time>
      </trkpt>
      <trkpt lat="59.9504039" lon="17.7084191">
        <ele>53.9712</ele>
        <time>2014-04-01T18:21:26Z</time>
      </trkpt>
      <trkpt lat="59.9504414" lon="17.7084544">
        <ele>53.9712</ele>
        <time>2014-04-01T18:21:27Z</time>
      </trkpt>
      <trkpt lat="59.9504788" lon="17.7084809">
        <ele>53.4905</ele>
        <time>2014-04-01T18:21:28Z</time>
      </trkpt>
      <trkpt lat="59.9505201" lon="17.7084995">
        <ele>53.9712</ele>
        <time>2014-04-01T18:21:29Z</time>
      </trkpt>
      <trkpt lat="59.9505626" lon="17.7085089">
        <ele>54.9324</ele>
        <time>2014-04-01T18:21:30Z</time>
      </trkpt>
      <trkpt lat="59.9506097" lon="17.7085166">
        <ele>55.4131</ele>
        <time>2014-04-01T18:21:31Z</time>
      </trkpt>
      <trkpt lat="59.9506582" lon="17.708523">
        <ele>56.3745</ele>
        <time>2014-04-01T18:21:32Z</time>
      </trkpt>
      <trkpt lat="59.9507157" lon="17.7085099">
        <ele>59.2584</ele>
        <time>2014-04-01T18:21:33Z</time>
      </trkpt>
      <trkpt lat="59.9507651" lon="17.7085052">
        <ele>60.2197</ele>
        <time>2014-04-01T18:21:34Z</time>
      </trkpt>
      <trkpt lat="59.9508117" lon="17.7085006">
        <ele>62.1423</ele>
        <time>2014-04-01T18:21:35Z</time>
      </trkpt>
      <trkpt lat="59.9508558" lon="17.7084871">
        <ele>64.0651</ele>
        <time>2014-04-01T18:21:36Z</time>
      </trkpt>
      <trkpt lat="59.9508775" lon="17.7085016">
        <ele>65.0264</ele>
        <time>2014-04-01T18:21:45Z</time>
      </trkpt>
      <trkpt lat="59.9508692" lon="17.708498">
        <ele>64.5457</ele>
        <time>2014-04-01T18:21:46Z</time>
      </trkpt>
      <trkpt lat="59.9508465" lon="17.7085077">
        <ele>63.5844</ele>
        <time>2014-04-01T18:21:47Z</time>
      </trkpt>
      <trkpt lat="59.950819" lon="17.7085045">
        <ele>62.6229</ele>
        <time>2014-04-01T18:21:48Z</time>
      </trkpt>
      <trkpt lat="59.9507844" lon="17.7084953">
        <ele>61.6617</ele>
        <time>2014-04-01T18:21:49Z</time>
      </trkpt>
      <trkpt lat="59.9507553" lon="17.7084804">
        <ele>60.2197</ele>
        <time>2014-04-01T18:21:50Z</time>
      </trkpt>
      <trkpt lat="59.9507221" lon="17.7084746">
        <ele>59.2584</ele>
        <time>2014-04-01T18:21:51Z</time>
      </trkpt>
      <trkpt lat="59.9506916" lon="17.7084779">
        <ele>57.8165</ele>
        <time>2014-04-01T18:21:52Z</time>
      </trkpt>
      <trkpt lat="59.9506624" lon="17.7084944">
        <ele>56.3745</ele>
        <time>2014-04-01T18:21:53Z</time>
      </trkpt>
      <trkpt lat="59.9506408" lon="17.708503">
        <ele>55.8938</ele>
        <time>2014-04-01T18:21:54Z</time>
      </trkpt>
      <trkpt lat="59.9506128" lon="17.7085025">
        <ele>55.4131</ele>
        <time>2014-04-01T18:21:55Z</time>
      </trkpt>
      <trkpt lat="59.9505864" lon="17.708486">
        <ele>54.4518</ele>
        <time>2014-04-01T18:21:56Z</time>
      </trkpt>
      <trkpt lat="59.950562" lon="17.7084455">
        <ele>54.4518</ele>
        <time>2014-04-01T18:21:57Z</time>
      </trkpt>
      <trkpt lat="59.9505362" lon="17.7084308">
        <ele>53.9712</ele>
        <time>2014-04-01T18:21:58Z</time>
      </trkpt>
      <trkpt lat="59.9505092" lon="17.7084203">
        <ele>53.9712</ele>
        <time>2014-04-01T18:21:59Z</time>
      </trkpt>
      <trkpt lat="59.9504839" lon="17.7083923">
        <ele>53.4905</ele>
        <time>2014-04-01T18:22:00Z</time>
      </trkpt>
      <trkpt lat="59.9504606" lon="17.7083785">
        <ele>53.0098</ele>
        <time>2014-04-01T18:22:01Z</time>
      </trkpt>
      <trkpt lat="59.9504386" lon="17.7083751">
        <ele>52.5292</ele>
        <time>2014-04-01T18:22:02Z</time>
      </trkpt>
      <trkpt lat="59.9504174" lon="17.7083597">
        <ele>52.0486</ele>
        <time>2014-04-01T18:22:03Z</time>
      </trkpt>
      <trkpt lat="59.9503973" lon="17.7083375">
        <ele>52.0486</ele>
        <time>2014-04-01T18:22:04Z</time>
      </trkpt>
      <trkpt lat="59.9503804" lon="17.7083031">
        <ele>51.0872</ele>
        <time>2014-04-01T18:22:05Z</time>
      </trkpt>
      <trkpt lat="59.9503653" lon="17.7082529">
        <ele>51.0872</ele>
        <time>2014-04-01T18:22:06Z</time>
      </trkpt>
      <trkpt lat="59.9503446" lon="17.7082178">
        <ele>51.0872</ele>
        <time>2014-04-01T18:22:07Z</time>
      </trkpt>
      <trkpt lat="59.9503182" lon="17.7081991">
        <ele>51.0872</ele>
        <time>2014-04-01T18:22:08Z</time>
      </trkpt>
      <trkpt lat="59.9502905" lon="17.7081827">
        <ele>50.6066</ele>
        <time>2014-04-01T18:22:09Z</time>
      </trkpt>
      <trkpt lat="59.9502668" lon="17.7081784">
        <ele>50.6066</ele>
        <time>2014-04-01T18:22:10Z</time>
      </trkpt>
      <trkpt lat="59.9502476" lon="17.7081803">
        <ele>50.126</ele>
        <time>2014-04-01T18:22:11Z</time>
      </trkpt>
      <trkpt lat="59.9502337" lon="17.7081647">
        <ele>50.6066</ele>
        <time>2014-04-01T18:22:12Z</time>
      </trkpt>
      <trkpt lat="59.9502135" lon="17.7081573">
        <ele>50.6066</ele>
        <time>2014-04-01T18:22:13Z</time>
      </trkpt>
      <trkpt lat="59.9501913" lon="17.7081435">
        <ele>51.0872</ele>
        <time>2014-04-01T18:22:14Z</time>
      </trkpt>
      <trkpt lat="59.9501711" lon="17.708128">
        <ele>51.0872</ele>
        <time>2014-04-01T18:22:15Z</time>
      </trkpt>
      <trkpt lat="59.9501559" lon="17.7081209">
        <ele>51.0872</ele>
        <time>2014-04-01T18:22:16Z</time>
      </trkpt>
      <trkpt lat="59.950142" lon="17.7081169">
        <ele>51.5679</ele>
        <time>2014-04-01T18:22:17Z</time>
      </trkpt>
      <trkpt lat="59.9501241" lon="17.7081364">
        <ele>51.0872</ele>
        <time>2014-04-01T18:22:18Z</time>
      </trkpt>
      <trkpt lat="59.9501126" lon="17.7081504">
        <ele>51.0872</ele>
        <time>2014-04-01T18:22:19Z</time>
      </trkpt>
      <trkpt lat="59.9501016" lon="17.708159">
        <ele>51.0872</ele>
        <time>2014-04-01T18:22:20Z</time>
      </trkpt>
      <trkpt lat="59.9500869" lon="17.7081862">
        <ele>51.5679</ele>
        <time>2014-04-01T18:22:21Z</time>
      </trkpt>
      <trkpt lat="59.9500715" lon="17.7082233">
        <ele>52.0486</ele>
        <time>2014-04-01T18:22:22Z</time>
      </trkpt>
      <trkpt lat="59.9500607" lon="17.7082554">
        <ele>52.5292</ele>
        <time>2014-04-01T18:22:23Z</time>
      </trkpt>
      <trkpt lat="59.950057" lon="17.7082939">
        <ele>52.5292</ele>
        <time>2014-04-01T18:22:24Z</time>
      </trkpt>
      <trkpt lat="59.9500529" lon="17.7083349">
        <ele>53.4905</ele>
        <time>2014-04-01T18:22:25Z</time>
      </trkpt>
      <trkpt lat="59.9500467" lon="17.7083735">
        <ele>53.9712</ele>
        <time>2014-04-01T18:22:26Z</time>
      </trkpt>
      <trkpt lat="59.9500451" lon="17.7084037">
        <ele>54.4518</ele>
        <time>2014-04-01T18:22:27Z</time>
      </trkpt>
      <trkpt lat="59.9500402" lon="17.708441">
        <ele>54.9324</ele>
        <time>2014-04-01T18:22:28Z</time>
      </trkpt>
      <trkpt lat="59.950032" lon="17.7084885">
        <ele>54.9324</ele>
        <time>2014-04-01T18:22:29Z</time>
      </trkpt>
      <trkpt lat="59.9500275" lon="17.7085292">
        <ele>55.8938</ele>
        <time>2014-04-01T18:22:30Z</time>
      </trkpt>
      <trkpt lat="59.9500253" lon="17.7085664">
        <ele>56.3745</ele>
        <time>2014-04-01T18:22:31Z</time>
      </trkpt>
      <trkpt lat="59.9500154" lon="17.7086389">
        <ele>57.3358</ele>
        <time>2014-04-01T18:22:32Z</time>
      </trkpt>
      <trkpt lat="59.9500095" lon="17.7086778">
        <ele>57.3358</ele>
        <time>2014-04-01T18:22:33Z</time>
      </trkpt>
      <trkpt lat="59.9499995" lon="17.7087265">
        <ele>57.8165</ele>
        <time>2014-04-01T18:22:34Z</time>
      </trkpt>
      <trkpt lat="59.9499901" lon="17.7087744">
        <ele>58.2971</ele>
        <time>2014-04-01T18:22:35Z</time>
      </trkpt>
      <trkpt lat="59.9499843" lon="17.708818">
        <ele>59.2584</ele>
        <time>2014-04-01T18:22:36Z</time>
      </trkpt>
      <trkpt lat="59.9499822" lon="17.7088611">
        <ele>59.7391</ele>
        <time>2014-04-01T18:22:37Z</time>
      </trkpt>
      <trkpt lat="59.949982" lon="17.7088974">
        <ele>61.181</ele>
        <time>2014-04-01T18:22:38Z</time>
      </trkpt>
      <trkpt lat="59.9497509" lon="17.7094733">
        <ele>65.0264</ele>
        <time>2014-04-01T18:23:51Z</time>
      </trkpt>
      <trkpt lat="59.9497467" lon="17.7094588">
        <ele>65.0264</ele>
        <time>2014-04-01T18:23:52Z</time>
      </trkpt>
      <trkpt lat="59.9497472" lon="17.7094359">
        <ele>64.5457</ele>
        <time>2014-04-01T18:23:53Z</time>
      </trkpt>
      <trkpt lat="59.9497415" lon="17.7094061">
        <ele>64.5457</ele>
        <time>2014-04-01T18:23:54Z</time>
      </trkpt>
      <trkpt lat="59.9497338" lon="17.7093696">
        <ele>64.0651</ele>
        <time>2014-04-01T18:23:55Z</time>
      </trkpt>
      <trkpt lat="59.9497242" lon="17.7093394">
        <ele>63.5844</ele>
        <time>2014-04-01T18:23:56Z</time>
      </trkpt>
      <trkpt lat="59.9497125" lon="17.7093061">
        <ele>64.0651</ele>
        <time>2014-04-01T18:23:57Z</time>
      </trkpt>
      <trkpt lat="59.9496986" lon="17.7092713">
        <ele>63.5844</ele>
        <time>2014-04-01T18:23:58Z</time>
      </trkpt>
      <trkpt lat="59.9496892" lon="17.7092325">
        <ele>63.5844</ele>
        <time>2014-04-01T18:23:59Z</time>
      </trkpt>
      <trkpt lat="59.9496799" lon="17.7091921">
        <ele>63.5844</ele>
        <time>2014-04-01T18:24:00Z</time>
      </trkpt>
      <trkpt lat="59.9496727" lon="17.7091507">
        <ele>63.5844</ele>
        <time>2014-04-01T18:24:01Z</time>
      </trkpt>
      <trkpt lat="59.9496742" lon="17.7091082">
        <ele>63.5844</ele>
        <time>2014-04-01T18:24:02Z</time>
      </trkpt>
      <trkpt lat="59.9496804" lon="17.7090617">
        <ele>62.6229</ele>
        <time>2014-04-01T18:24:03Z</time>
      </trkpt>
      <trkpt lat="59.9496882" lon="17.7090149">
        <ele>62.1423</ele>
        <time>2014-04-01T18:24:04Z</time>
      </trkpt>
      <trkpt lat="59.9496961" lon="17.7089756">
        <ele>61.6617</ele>
        <time>2014-04-01T18:24:05Z</time>
      </trkpt>
      <trkpt lat="59.949708" lon="17.7089316">
        <ele>61.181</ele>
        <time>2014-04-01T18:24:06Z</time>
      </trkpt>
      <trkpt lat="59.9497215" lon="17.7088818">
        <ele>60.7003</ele>
        <time>2014-04-01T18:24:07Z</time>
      </trkpt>
      <trkpt lat="59.94974" lon="17.7088296">
        <ele>59.7391</ele>
        <time>2014-04-01T18:24:08Z</time>
      </trkpt>
      <trkpt lat="59.9497586" lon="17.7087741">
        <ele>59.2584</ele>
        <time>2014-04-01T18:24:09Z</time>
      </trkpt>
      <trkpt lat="59.9497782" lon="17.7087233">
        <ele>58.7777</ele>
        <time>2014-04-01T18:24:10Z</time>
      </trkpt>
      <trkpt lat="59.9497975" lon="17.7086809">
        <ele>57.8165</ele>
        <time>2014-04-01T18:24:11Z</time>
      </trkpt>
      <trkpt lat="59.9498162" lon="17.7086342">
        <ele>57.8165</ele>
        <time>2014-04-01T18:24:12Z</time>
      </trkpt>
      <trkpt lat="59.9498315" lon="17.7085711">
        <ele>57.3358</ele>
        <time>2014-04-01T18:24:13Z</time>
      </trkpt>
      <trkpt lat="59.9498431" lon="17.7085095">
        <ele>56.8551</ele>
        <time>2014-04-01T18:24:14Z</time>
      </trkpt>
      <trkpt lat="59.9498503" lon="17.7084499">
        <ele>56.3745</ele>
        <time>2014-04-01T18:24:15Z</time>
      </trkpt>
      <trkpt lat="59.9498534" lon="17.7083887">
        <ele>55.8938</ele>
        <time>2014-04-01T18:24:16Z</time>
      </trkpt>
      <trkpt lat="59.9498622" lon="17.7083327">
        <ele>55.4131</ele>
        <time>2014-04-01T18:24:17Z</time>
      </trkpt>
      <trkpt lat="59.9498743" lon="17.7082794">
        <ele>54.9324</ele>
        <time>2014-04-01T18:24:18Z</time>
      </trkpt>
      <trkpt lat="59.9498844" lon="17.7082245">
        <ele>54.4518</ele>
        <time>2014-04-01T18:24:19Z</time>
      </trkpt>
      <trkpt lat="59.9498991" lon="17.7081753">
        <ele>53.9712</ele>
        <time>2014-04-01T18:24:20Z</time>
      </trkpt>
      <trkpt lat="59.9499128" lon="17.7081223">
        <ele>53.4905</ele>
        <time>2014-04-01T18:24:21Z</time>
      </trkpt>
      <trkpt lat="59.9499253" lon="17.7080696">
        <ele>53.4905</ele>
        <time>2014-04-01T18:24:22Z</time>
      </trkpt>
      <trkpt lat="59.9499306" lon="17.7080251">
        <ele>53.0098</ele>
        <time>2014-04-01T18:24:23Z</time>
      </trkpt>
      <trkpt lat="59.9499363" lon="17.7079836">
        <ele>52.5292</ele>
        <time>2014-04-01T18:24:24Z</time>
      </trkpt>
      <trkpt lat="59.9499392" lon="17.7079485">
        <ele>52.0486</ele>
        <time>2014-04-01T18:24:25Z</time>
      </trkpt>
      <trkpt lat="59.9499338" lon="17.707918">
        <ele>51.5679</ele>
        <time>2014-04-01T18:24:26Z</time>
      </trkpt>
      <trkpt lat="59.949927" lon="17.7078975">
        <ele>50.6066</ele>
        <time>2014-04-01T18:24:27Z</time>
      </trkpt>
      <trkpt lat="59.9499336" lon="17.7079814">
        <ele>50.126</ele>
        <time>2014-04-01T18:24:46Z</time>
      </trkpt>
      <trkpt lat="59.9499278" lon="17.707993">
        <ele>49.6453</ele>
        <time>2014-04-01T18:24:47Z</time>
      </trkpt>
      <trkpt lat="59.9499213" lon="17.7080142">
        <ele>50.126</ele>
        <time>2014-04-01T18:24:48Z</time>
      </trkpt>
      <trkpt lat="59.949913" lon="17.7080313">
        <ele>50.6066</ele>
        <time>2014-04-01T18:24:49Z</time>
      </trkpt>
      <trkpt lat="59.9499043" lon="17.7080488">
        <ele>50.6066</ele>
        <time>2014-04-01T18:24:50Z</time>
      </trkpt>
      <trkpt lat="59.949895" lon="17.708081">
        <ele>51.0872</ele>
        <time>2014-04-01T18:24:51Z</time>
      </trkpt>
      <trkpt lat="59.9498892" lon="17.7081152">
        <ele>51.0872</ele>
        <time>2014-04-01T18:24:52Z</time>
      </trkpt>
      <trkpt lat="59.9498763" lon="17.7081581">
        <ele>51.0872</ele>
        <time>2014-04-01T18:24:53Z</time>
      </trkpt>
      <trkpt lat="59.9498637" lon="17.7082002">
        <ele>51.5679</ele>
        <time>2014-04-01T18:24:54Z</time>
      </trkpt>
      <trkpt lat="59.949846" lon="17.7082482">
        <ele>51.5679</ele>
        <time>2014-04-01T18:24:55Z</time>
      </trkpt>
      <trkpt lat="59.9498308" lon="17.7082947">
        <ele>51.5679</ele>
        <time>2014-04-01T18:24:56Z</time>
      </trkpt>
      <trkpt lat="59.9498198" lon="17.7083503">
        <ele>50.6066</ele>
        <time>2014-04-01T18:24:57Z</time>
      </trkpt>
      <trkpt lat="59.9498033" lon="17.7084">
        <ele>51.5679</ele>
        <time>2014-04-01T18:24:58Z</time>
      </trkpt>
      <trkpt lat="59.9497903" lon="17.7084401">
        <ele>51.5679</ele>
        <time>2014-04-01T18:24:59Z</time>
      </trkpt>
      <trkpt lat="59.9497789" lon="17.7084789">
        <ele>52.0486</ele>
        <time>2014-04-01T18:25:00Z</time>
      </trkpt>
      <trkpt lat="59.9497658" lon="17.7085115">
        <ele>53.0098</ele>
        <time>2014-04-01T18:25:01Z</time>
      </trkpt>
      <trkpt lat="59.9497492" lon="17.7085503">
        <ele>53.0098</ele>
        <time>2014-04-01T18:25:02Z</time>
      </trkpt>
      <trkpt lat="59.9497279" lon="17.708603">
        <ele>53.4905</ele>
        <time>2014-04-01T18:25:03Z</time>
      </trkpt>
      <trkpt lat="59.9497048" lon="17.7086558">
        <ele>53.4905</ele>
        <time>2014-04-01T18:25:04Z</time>
      </trkpt>
      <trkpt lat="59.9496849" lon="17.7087063">
        <ele>53.9712</ele>
        <time>2014-04-01T18:25:05Z</time>
      </trkpt>
      <trkpt lat="59.9496694" lon="17.7087532">
        <ele>53.9712</ele>
        <time>2014-04-01T18:25:06Z</time>
      </trkpt>
      <trkpt lat="59.9496535" lon="17.7087988">
        <ele>53.9712</ele>
        <time>2014-04-01T18:25:07Z</time>
      </trkpt>
      <trkpt lat="59.9496379" lon="17.7088392">
        <ele>53.9712</ele>
        <time>2014-04-01T18:25:08Z</time>
      </trkpt>
      <trkpt lat="59.9496219" lon="17.7088825">
        <ele>53.9712</ele>
        <time>2014-04-01T18:25:09Z</time>
      </trkpt>
      <trkpt lat="59.9496062" lon="17.7089283">
        <ele>53.4905</ele>
        <time>2014-04-01T18:25:10Z</time>
      </trkpt>
      <trkpt lat="59.9495908" lon="17.7089671">
        <ele>53.4905</ele>
        <time>2014-04-01T18:25:11Z</time>
      </trkpt>
      <trkpt lat="59.9495709" lon="17.7090124">
        <ele>54.4518</ele>
        <time>2014-04-01T18:25:12Z</time>
      </trkpt>
      <trkpt lat="59.949552" lon="17.7090736">
        <ele>53.9712</ele>
        <time>2014-04-01T18:25:13Z</time>
      </trkpt>
      <trkpt lat="59.9495395" lon="17.7091256">
        <ele>53.9712</ele>
        <time>2014-04-01T18:25:14Z</time>
      </trkpt>
      <trkpt lat="59.9495284" lon="17.7091712">
        <ele>54.4518</ele>
        <time>2014-04-01T18:25:15Z</time>
      </trkpt>
      <trkpt lat="59.9495157" lon="17.709222">
        <ele>54.4518</ele>
        <time>2014-04-01T18:25:16Z</time>
      </trkpt>
      <trkpt lat="59.9495088" lon="17.7092705">
        <ele>54.4518</ele>
        <time>2014-04-01T18:25:17Z</time>
      </trkpt>
      <trkpt lat="59.9494965" lon="17.7093201">
        <ele>54.4518</ele>
        <time>2014-04-01T18:25:18Z</time>
      </trkpt>
      <trkpt lat="59.9494809" lon="17.7093653">
        <ele>54.4518</ele>
        <time>2014-04-01T18:25:19Z</time>
      </trkpt>
      <trkpt lat="59.9494675" lon="17.7094091">
        <ele>53.9712</ele>
        <time>2014-04-01T18:25:20Z</time>
      </trkpt>
      <trkpt lat="59.9494546" lon="17.7094566">
        <ele>53.9712</ele>
        <time>2014-04-01T18:25:21Z</time>
      </trkpt>
      <trkpt lat="59.9494412" lon="17.7095064">
        <ele>53.4905</ele>
        <time>2014-04-01T18:25:22Z</time>
      </trkpt>
      <trkpt lat="59.9494306" lon="17.7095516">
        <ele>53.4905</ele>
        <time>2014-04-01T18:25:23Z</time>
      </trkpt>
      <trkpt lat="59.9494176" lon="17.7096013">
        <ele>53.4905</ele>
        <time>2014-04-01T18:25:24Z</time>
      </trkpt>
      <trkpt lat="59.9494007" lon="17.7096501">
        <ele>53.4905</ele>
        <time>2014-04-01T18:25:25Z</time>
      </trkpt>
      <trkpt lat="59.9493787" lon="17.7096999">
        <ele>53.4905</ele>
        <time>2014-04-01T18:25:26Z</time>
      </trkpt>
      <trkpt lat="59.9493586" lon="17.7097486">
        <ele>53.4905</ele>
        <time>2014-04-01T18:25:27Z</time>
      </trkpt>
      <trkpt lat="59.9493422" lon="17.7097915">
        <ele>53.9712</ele>
        <time>2014-04-01T18:25:28Z</time>
      </trkpt>
      <trkpt lat="59.9493285" lon="17.7098252">
        <ele>54.4518</ele>
        <time>2014-04-01T18:25:29Z</time>
      </trkpt>
      <trkpt lat="59.9493164" lon="17.709861">
        <ele>54.4518</ele>
        <time>2014-04-01T18:25:30Z</time>
      </trkpt>
      <trkpt lat="59.9493018" lon="17.7098973">
        <ele>54.4518</ele>
        <time>2014-04-01T18:25:31Z</time>
      </trkpt>
      <trkpt lat="59.9492851" lon="17.7099349">
        <ele>53.9712</ele>
        <time>2014-04-01T18:25:32Z</time>
      </trkpt>
      <trkpt lat="59.9492672" lon="17.7099737">
        <ele>53.9712</ele>
        <time>2014-04-01T18:25:33Z</time>
      </trkpt>
      <trkpt lat="59.9492487" lon="17.7100137">
        <ele>53.9712</ele>
        <time>2014-04-01T18:25:34Z</time>
      </trkpt>
      <trkpt lat="59.9492292" lon="17.7100495">
        <ele>53.9712</ele>
        <time>2014-04-01T18:25:35Z</time>
      </trkpt>
      <trkpt lat="59.949211" lon="17.7100899">
        <ele>53.9712</ele>
        <time>2014-04-01T18:25:36Z</time>
      </trkpt>
      <trkpt lat="59.9491959" lon="17.7101347">
        <ele>53.9712</ele>
        <time>2014-04-01T18:25:37Z</time>
      </trkpt>
      <trkpt lat="59.9491795" lon="17.7101747">
        <ele>53.9712</ele>
        <time>2014-04-01T18:25:38Z</time>
      </trkpt>
      <trkpt lat="59.949161" lon="17.7102062">
        <ele>53.4905</ele>
        <time>2014-04-01T18:25:39Z</time>
      </trkpt>
      <trkpt lat="59.9491434" lon="17.7102362">
        <ele>53.0098</ele>
        <time>2014-04-01T18:25:40Z</time>
      </trkpt>
      <trkpt lat="59.9491276" lon="17.7102674">
        <ele>53.0098</ele>
        <time>2014-04-01T18:25:41Z</time>
      </trkpt>
      <trkpt lat="59.9491092" lon="17.7102912">
        <ele>53.4905</ele>
        <time>2014-04-01T18:25:42Z</time>
      </trkpt>
      <trkpt lat="59.9490909" lon="17.7103103">
        <ele>53.4905</ele>
        <time>2014-04-01T18:25:43Z</time>
      </trkpt>
      <trkpt lat="59.9490719" lon="17.7103344">
        <ele>53.0098</ele>
        <time>2014-04-01T18:25:44Z</time>
      </trkpt>
      <trkpt lat="59.9490493" lon="17.710367">
        <ele>52.5292</ele>
        <time>2014-04-01T18:25:45Z</time>
      </trkpt>
      <trkpt lat="59.9490268" lon="17.7104038">
        <ele>52.0486</ele>
        <time>2014-04-01T18:25:46Z</time>
      </trkpt>
      <trkpt lat="59.9490099" lon="17.7104469">
        <ele>51.5679</ele>
        <time>2014-04-01T18:25:47Z</time>
      </trkpt>
      <trkpt lat="59.9489924" lon="17.7104913">
        <ele>50.6066</ele>
        <time>2014-04-01T18:25:48Z</time>
      </trkpt>
      <trkpt lat="59.9489712" lon="17.7105412">
        <ele>50.126</ele>
        <time>2014-04-01T18:25:49Z</time>
      </trkpt>
      <trkpt lat="59.9489459" lon="17.7105877">
        <ele>49.6453</ele>
        <time>2014-04-01T18:25:50Z</time>
      </trkpt>
      <trkpt lat="59.9489184" lon="17.7106311">
        <ele>49.1646</ele>
        <time>2014-04-01T18:25:51Z</time>
      </trkpt>
      <trkpt lat="59.9488899" lon="17.7106714">
        <ele>48.684</ele>
        <time>2014-04-01T18:25:52Z</time>
      </trkpt>
      <trkpt lat="59.9488631" lon="17.7107104">
        <ele>48.684</ele>
        <time>2014-04-01T18:25:53Z</time>
      </trkpt>
      <trkpt lat="59.9488401" lon="17.7107554">
        <ele>48.2034</ele>
        <time>2014-04-01T18:25:54Z</time>
      </trkpt>
      <trkpt lat="59.9488189" lon="17.7108002">
        <ele>47.2418</ele>
        <time>2014-04-01T18:25:55Z</time>
      </trkpt>
      <trkpt lat="59.9488002" lon="17.7108392">
        <ele>46.7612</ele>
        <time>2014-04-01T18:25:56Z</time>
      </trkpt>
      <trkpt lat="59.9487823" lon="17.7108695">
        <ele>46.7612</ele>
        <time>2014-04-01T18:25:57Z</time>
      </trkpt>
      <trkpt lat="59.9487668" lon="17.7108928">
        <ele>46.7612</ele>
        <time>2014-04-01T18:25:58Z</time>
      </trkpt>
      <trkpt lat="59.9487532" lon="17.710915">
        <ele>46.2806</ele>
        <time>2014-04-01T18:25:59Z</time>
      </trkpt>
      <trkpt lat="59.9487383" lon="17.7109466">
        <ele>45.7999</ele>
        <time>2014-04-01T18:26:00Z</time>
      </trkpt>
      <trkpt lat="59.9487219" lon="17.7109838">
        <ele>44.8386</ele>
        <time>2014-04-01T18:26:01Z</time>
      </trkpt>
      <trkpt lat="59.9487035" lon="17.7110186">
        <ele>43.8773</ele>
        <time>2014-04-01T18:26:02Z</time>
      </trkpt>
      <trkpt lat="59.9486838" lon="17.711057">
        <ele>42.916</ele>
        <time>2014-04-01T18:26:03Z</time>
      </trkpt>
      <trkpt lat="59.9486641" lon="17.7110802">
        <ele>42.4354</ele>
        <time>2014-04-01T18:26:04Z</time>
      </trkpt>
      <trkpt lat="59.9486281" lon="17.7110953">
        <ele>41.474</ele>
        <time>2014-04-01T18:26:05Z</time>
      </trkpt>
      <trkpt lat="59.9486062" lon="17.71112">
        <ele>41.474</ele>
        <time>2014-04-01T18:26:06Z</time>
      </trkpt>
      <trkpt lat="59.9485877" lon="17.7111579">
        <ele>40.9934</ele>
        <time>2014-04-01T18:26:07Z</time>
      </trkpt>
      <trkpt lat="59.9485763" lon="17.711208">
        <ele>40.9934</ele>
        <time>2014-04-01T18:26:08Z</time>
      </trkpt>
      <trkpt lat="59.9485646" lon="17.7112524">
        <ele>40.5128</ele>
        <time>2014-04-01T18:26:09Z</time>
      </trkpt>
      <trkpt lat="59.9485538" lon="17.7112866">
        <ele>40.5128</ele>
        <time>2014-04-01T18:26:10Z</time>
      </trkpt>
      <trkpt lat="59.9485453" lon="17.711343">
        <ele>41.474</ele>
        <time>2014-04-01T18:26:11Z</time>
      </trkpt>
      <trkpt lat="59.9485361" lon="17.7114028">
        <ele>41.9547</ele>
        <time>2014-04-01T18:26:12Z</time>
      </trkpt>
      <trkpt lat="59.9485233" lon="17.7114419">
        <ele>41.9547</ele>
        <time>2014-04-01T18:26:13Z</time>
      </trkpt>
      <trkpt lat="59.94851" lon="17.7115056">
        <ele>42.916</ele>
        <time>2014-04-01T18:26:14Z</time>
      </trkpt>
      <trkpt lat="59.9485009" lon="17.7115703">
        <ele>44.358</ele>
        <time>2014-04-01T18:26:15Z</time>
      </trkpt>
      <trkpt lat="59.9484978" lon="17.7116288">
        <ele>45.3192</ele>
        <time>2014-04-01T18:26:16Z</time>
      </trkpt>
      <trkpt lat="59.9484989" lon="17.7116832">
        <ele>46.7612</ele>
        <time>2014-04-01T18:26:17Z</time>
      </trkpt>
      <trkpt lat="59.9485023" lon="17.7117335">
        <ele>47.7225</ele>
        <time>2014-04-01T18:26:18Z</time>
      </trkpt>
      <trkpt lat="59.9485012" lon="17.7117813">
        <ele>49.1646</ele>
        <time>2014-04-01T18:26:19Z</time>
      </trkpt>
      <trkpt lat="59.9485021" lon="17.7118186">
        <ele>51.0872</ele>
        <time>2014-04-01T18:26:20Z</time>
      </trkpt>
      <trkpt lat="59.9485014" lon="17.7118566">
        <ele>52.5292</ele>
        <time>2014-04-01T18:26:21Z</time>
      </trkpt>
      <trkpt lat="59.9484958" lon="17.711904">
        <ele>53.4905</ele>
        <time>2014-04-01T18:26:22Z</time>
      </trkpt>
      <trkpt lat="59.9484907" lon="17.7119582">
        <ele>54.4518</ele>
        <time>2014-04-01T18:26:23Z</time>
      </trkpt>
      <trkpt lat="59.9484885" lon="17.7120226">
        <ele>55.8938</ele>
        <time>2014-04-01T18:26:24Z</time>
      </trkpt>
      <trkpt lat="59.9484852" lon="17.7120774">
        <ele>56.8551</ele>
        <time>2014-04-01T18:26:25Z</time>
      </trkpt>
      <trkpt lat="59.9484807" lon="17.7121454">
        <ele>57.8165</ele>
        <time>2014-04-01T18:26:26Z</time>
      </trkpt>
      <trkpt lat="59.948474" lon="17.7122168">
        <ele>58.2971</ele>
        <time>2014-04-01T18:26:27Z</time>
      </trkpt>
      <trkpt lat="59.9484603" lon="17.7123266">
        <ele>58.7777</ele>
        <time>2014-04-01T18:26:28Z</time>
      </trkpt>
      <trkpt lat="59.9484476" lon="17.7124095">
        <ele>59.2584</ele>
        <time>2014-04-01T18:26:29Z</time>
      </trkpt>
      <trkpt lat="59.9484321" lon="17.7124751">
        <ele>59.2584</ele>
        <time>2014-04-01T18:26:30Z</time>
      </trkpt>
      <trkpt lat="59.9484072" lon="17.712523">
        <ele>59.2584</ele>
        <time>2014-04-01T18:26:31Z</time>
      </trkpt>
      <trkpt lat="59.9483774" lon="17.7125597">
        <ele>58.2971</ele>
        <time>2014-04-01T18:26:32Z</time>
      </trkpt>
      <trkpt lat="59.9483612" lon="17.7125761">
        <ele>57.8165</ele>
        <time>2014-04-01T18:26:33Z</time>
      </trkpt>
      <trkpt lat="59.9483407" lon="17.7125908">
        <ele>57.8165</ele>
        <time>2014-04-01T18:26:34Z</time>
      </trkpt>
      <trkpt lat="59.9483176" lon="17.7126018">
        <ele>57.3358</ele>
        <time>2014-04-01T18:26:35Z</time>
      </trkpt>
      <trkpt lat="59.9482989" lon="17.7126137">
        <ele>57.3358</ele>
        <time>2014-04-01T18:26:36Z</time>
      </trkpt>
      <trkpt lat="59.9482802" lon="17.712625">
        <ele>57.3358</ele>
        <time>2014-04-01T18:26:37Z</time>
      </trkpt>
      <trkpt lat="59.9482601" lon="17.7126447">
        <ele>56.8551</ele>
        <time>2014-04-01T18:26:38Z</time>
      </trkpt>
      <trkpt lat="59.9482417" lon="17.7126606">
        <ele>56.8551</ele>
        <time>2014-04-01T18:26:39Z</time>
      </trkpt>
      <trkpt lat="59.9482217" lon="17.712659">
        <ele>57.3358</ele>
        <time>2014-04-01T18:26:40Z</time>
      </trkpt>
      <trkpt lat="59.9482037" lon="17.7126648">
        <ele>57.8165</ele>
        <time>2014-04-01T18:26:41Z</time>
      </trkpt>
      <trkpt lat="59.9481932" lon="17.7126597">
        <ele>57.3358</ele>
        <time>2014-04-01T18:26:42Z</time>
      </trkpt>
      <trkpt lat="59.9481709" lon="17.712669">
        <ele>57.3358</ele>
        <time>2014-04-01T18:26:43Z</time>
      </trkpt>
      <trkpt lat="59.9481457" lon="17.7126953">
        <ele>56.8551</ele>
        <time>2014-04-01T18:26:44Z</time>
      </trkpt>
      <trkpt lat="59.9481233" lon="17.7127196">
        <ele>57.3358</ele>
        <time>2014-04-01T18:26:45Z</time>
      </trkpt>
      <trkpt lat="59.9480958" lon="17.7127631">
        <ele>57.3358</ele>
        <time>2014-04-01T18:26:46Z</time>
      </trkpt>
      <trkpt lat="59.948073" lon="17.712809">
        <ele>56.8551</ele>
        <time>2014-04-01T18:26:47Z</time>
      </trkpt>
      <trkpt lat="59.9480518" lon="17.7128543">
        <ele>56.8551</ele>
        <time>2014-04-01T18:26:48Z</time>
      </trkpt>
      <trkpt lat="59.9480291" lon="17.7128874">
        <ele>57.3358</ele>
        <time>2014-04-01T18:26:49Z</time>
      </trkpt>
      <trkpt lat="59.9480076" lon="17.7129177">
        <ele>57.8165</ele>
        <time>2014-04-01T18:26:50Z</time>
      </trkpt>
      <trkpt lat="59.9479843" lon="17.7129564">
        <ele>57.8165</ele>
        <time>2014-04-01T18:26:51Z</time>
      </trkpt>
      <trkpt lat="59.9479679" lon="17.7129882">
        <ele>57.8165</ele>
        <time>2014-04-01T18:26:52Z</time>
      </trkpt>
      <trkpt lat="59.9479523" lon="17.7130094">
        <ele>58.7777</ele>
        <time>2014-04-01T18:26:53Z</time>
      </trkpt>
      <trkpt lat="59.9479416" lon="17.7130181">
        <ele>59.2584</ele>
        <time>2014-04-01T18:26:54Z</time>
      </trkpt>
      <trkpt lat="59.947932" lon="17.7130503">
        <ele>59.2584</ele>
        <time>2014-04-01T18:26:55Z</time>
      </trkpt>
      <trkpt lat="59.9479296" lon="17.713078">
        <ele>59.2584</ele>
        <time>2014-04-01T18:26:56Z</time>
      </trkpt>
      <trkpt lat="59.9479315" lon="17.7131089">
        <ele>58.7777</ele>
        <time>2014-04-01T18:26:57Z</time>
      </trkpt>
      <trkpt lat="59.9479239" lon="17.7131616">
        <ele>59.2584</ele>
        <time>2014-04-01T18:26:58Z</time>
      </trkpt>
      <trkpt lat="59.9479224" lon="17.7131983">
        <ele>59.7391</ele>
        <time>2014-04-01T18:26:59Z</time>
      </trkpt>
      <trkpt lat="59.9479196" lon="17.7132291">
        <ele>59.7391</ele>
        <time>2014-04-01T18:27:00Z</time>
      </trkpt>
      <trkpt lat="59.9479112" lon="17.7132579">
        <ele>59.2584</ele>
        <time>2014-04-01T18:27:01Z</time>
      </trkpt>
      <trkpt lat="59.9478959" lon="17.713272">
        <ele>59.2584</ele>
        <time>2014-04-01T18:27:02Z</time>
      </trkpt>
      <trkpt lat="59.9478767" lon="17.7132751">
        <ele>58.7777</ele>
        <time>2014-04-01T18:27:03Z</time>
      </trkpt>
      <trkpt lat="59.9478539" lon="17.7132718">
        <ele>58.7777</ele>
        <time>2014-04-01T18:27:04Z</time>
      </trkpt>
      <trkpt lat="59.9478238" lon="17.7132775">
        <ele>58.2971</ele>
        <time>2014-04-01T18:27:05Z</time>
      </trkpt>
      <trkpt lat="59.9477926" lon="17.7132904">
        <ele>58.7777</ele>
        <time>2014-04-01T18:27:06Z</time>
      </trkpt>
      <trkpt lat="59.9477632" lon="17.7133">
        <ele>59.2584</ele>
        <time>2014-04-01T18:27:07Z</time>
      </trkpt>
      <trkpt lat="59.9477373" lon="17.7133107">
        <ele>59.2584</ele>
        <time>2014-04-01T18:27:08Z</time>
      </trkpt>
      <trkpt lat="59.9477162" lon="17.7133053">
        <ele>59.7391</ele>
        <time>2014-04-01T18:27:09Z</time>
      </trkpt>
      <trkpt lat="59.9477012" lon="17.713302">
        <ele>59.2584</ele>
        <time>2014-04-01T18:27:10Z</time>
      </trkpt>
      <trkpt lat="59.9476897" lon="17.7133036">
        <ele>59.2584</ele>
        <time>2014-04-01T18:27:11Z</time>
      </trkpt>
      <trkpt lat="59.9476839" lon="17.7133029">
        <ele>58.7777</ele>
        <time>2014-04-01T18:27:12Z</time>
      </trkpt>
      <trkpt lat="59.9476693" lon="17.7133222">
        <ele>58.2971</ele>
        <time>2014-04-01T18:27:13Z</time>
      </trkpt>
      <trkpt lat="59.9476561" lon="17.7133346">
        <ele>57.8165</ele>
        <time>2014-04-01T18:27:14Z</time>
      </trkpt>
      <trkpt lat="59.9476399" lon="17.7133616">
        <ele>57.3358</ele>
        <time>2014-04-01T18:27:15Z</time>
      </trkpt>
      <trkpt lat="59.9476273" lon="17.713394">
        <ele>57.3358</ele>
        <time>2014-04-01T18:27:16Z</time>
      </trkpt>
      <trkpt lat="59.9476155" lon="17.7134254">
        <ele>56.8551</ele>
        <time>2014-04-01T18:27:17Z</time>
      </trkpt>
      <trkpt lat="59.9475983" lon="17.7134636">
        <ele>56.3745</ele>
        <time>2014-04-01T18:27:18Z</time>
      </trkpt>
      <trkpt lat="59.947584" lon="17.7135007">
        <ele>55.8938</ele>
        <time>2014-04-01T18:27:19Z</time>
      </trkpt>
      <trkpt lat="59.9475722" lon="17.7135398">
        <ele>55.4131</ele>
        <time>2014-04-01T18:27:20Z</time>
      </trkpt>
      <trkpt lat="59.9475565" lon="17.713578">
        <ele>54.9324</ele>
        <time>2014-04-01T18:27:21Z</time>
      </trkpt>
      <trkpt lat="59.9475431" lon="17.7136035">
        <ele>53.9712</ele>
        <time>2014-04-01T18:27:22Z</time>
      </trkpt>
      <trkpt lat="59.9475296" lon="17.7136418">
        <ele>53.4905</ele>
        <time>2014-04-01T18:27:23Z</time>
      </trkpt>
      <trkpt lat="59.947514" lon="17.713689">
        <ele>53.0098</ele>
        <time>2014-04-01T18:27:24Z</time>
      </trkpt>
      <trkpt lat="59.9474935" lon="17.7137377">
        <ele>53.0098</ele>
        <time>2014-04-01T18:27:25Z</time>
      </trkpt>
      <trkpt lat="59.9474725" lon="17.713788">
        <ele>52.5292</ele>
        <time>2014-04-01T18:27:26Z</time>
      </trkpt>
      <trkpt lat="59.9474523" lon="17.7138382">
        <ele>52.0486</ele>
        <time>2014-04-01T18:27:27Z</time>
      </trkpt>
      <trkpt lat="59.9474372" lon="17.7138697">
        <ele>52.0486</ele>
        <time>2014-04-01T18:27:28Z</time>
      </trkpt>
      <trkpt lat="59.9474188" lon="17.7138977">
        <ele>52.0486</ele>
        <time>2014-04-01T18:27:29Z</time>
      </trkpt>
      <trkpt lat="59.9474026" lon="17.7139268">
        <ele>52.5292</ele>
        <time>2014-04-01T18:27:30Z</time>
      </trkpt>
      <trkpt lat="59.9473891" lon="17.7139604">
        <ele>52.0486</ele>
        <time>2014-04-01T18:27:31Z</time>
      </trkpt>
      <trkpt lat="59.9473746" lon="17.7140034">
        <ele>52.0486</ele>
        <time>2014-04-01T18:27:32Z</time>
      </trkpt>
      <trkpt lat="59.9473649" lon="17.7140381">
        <ele>52.0486</ele>
        <time>2014-04-01T18:27:33Z</time>
      </trkpt>
      <trkpt lat="59.9473606" lon="17.7140686">
        <ele>52.5292</ele>
        <time>2014-04-01T18:27:34Z</time>
      </trkpt>
      <trkpt lat="59.9473556" lon="17.714098">
        <ele>52.5292</ele>
        <time>2014-04-01T18:27:35Z</time>
      </trkpt>
      <trkpt lat="59.9473519" lon="17.7141231">
        <ele>52.5292</ele>
        <time>2014-04-01T18:27:36Z</time>
      </trkpt>
      <trkpt lat="59.9473398" lon="17.7141584">
        <ele>52.5292</ele>
        <time>2014-04-01T18:27:37Z</time>
      </trkpt>
      <trkpt lat="59.9473277" lon="17.7141961">
        <ele>52.0486</ele>
        <time>2014-04-01T18:27:38Z</time>
      </trkpt>
      <trkpt lat="59.9473139" lon="17.7142396">
        <ele>52.5292</ele>
        <time>2014-04-01T18:27:39Z</time>
      </trkpt>
      <trkpt lat="59.9472985" lon="17.7142769">
        <ele>52.5292</ele>
        <time>2014-04-01T18:27:40Z</time>
      </trkpt>
      <trkpt lat="59.9472829" lon="17.714314">
        <ele>52.5292</ele>
        <time>2014-04-01T18:27:41Z</time>
      </trkpt>
      <trkpt lat="59.9472617" lon="17.7143646">
        <ele>53.0098</ele>
        <time>2014-04-01T18:27:42Z</time>
      </trkpt>
      <trkpt lat="59.9472436" lon="17.714408">
        <ele>52.5292</ele>
        <time>2014-04-01T18:27:43Z</time>
      </trkpt>
      <trkpt lat="59.947228" lon="17.7144437">
        <ele>52.5292</ele>
        <time>2014-04-01T18:27:44Z</time>
      </trkpt>
      <trkpt lat="59.9472136" lon="17.7144848">
        <ele>52.5292</ele>
        <time>2014-04-01T18:27:45Z</time>
      </trkpt>
      <trkpt lat="59.9472055" lon="17.7145243">
        <ele>53.0098</ele>
        <time>2014-04-01T18:27:46Z</time>
      </trkpt>
      <trkpt lat="59.9472022" lon="17.7145695">
        <ele>53.9712</ele>
        <time>2014-04-01T18:27:47Z</time>
      </trkpt>
      <trkpt lat="59.947199" lon="17.7146209">
        <ele>54.4518</ele>
        <time>2014-04-01T18:27:48Z</time>
      </trkpt>
      <trkpt lat="59.9471996" lon="17.7146768">
        <ele>55.4131</ele>
        <time>2014-04-01T18:27:49Z</time>
      </trkpt>
      <trkpt lat="59.9472017" lon="17.714725">
        <ele>55.8938</ele>
        <time>2014-04-01T18:27:50Z</time>
      </trkpt>
      <trkpt lat="59.9472054" lon="17.7147737">
        <ele>56.8551</ele>
        <time>2014-04-01T18:27:51Z</time>
      </trkpt>
      <trkpt lat="59.9472088" lon="17.7148312">
        <ele>57.3358</ele>
        <time>2014-04-01T18:27:52Z</time>
      </trkpt>
      <trkpt lat="59.9472117" lon="17.7148866">
        <ele>57.8165</ele>
        <time>2014-04-01T18:27:53Z</time>
      </trkpt>
      <trkpt lat="59.9472204" lon="17.7149452">
        <ele>59.2584</ele>
        <time>2014-04-01T18:27:54Z</time>
      </trkpt>
      <trkpt lat="59.9472287" lon="17.7150042">
        <ele>60.2197</ele>
        <time>2014-04-01T18:27:55Z</time>
      </trkpt>
      <trkpt lat="59.9472371" lon="17.7150515">
        <ele>61.6617</ele>
        <time>2014-04-01T18:27:56Z</time>
      </trkpt>
      <trkpt lat="59.9472508" lon="17.7150918">
        <ele>63.1036</ele>
        <time>2014-04-01T18:27:57Z</time>
      </trkpt>
      <trkpt lat="59.9472679" lon="17.7151322">
        <ele>64.0651</ele>
        <time>2014-04-01T18:27:58Z</time>
      </trkpt>
      <trkpt lat="59.9472898" lon="17.7151625">
        <ele>65.9877</ele>
        <time>2014-04-01T18:27:59Z</time>
      </trkpt>
      <trkpt lat="59.9473083" lon="17.7151934">
        <ele>67.4297</ele>
        <time>2014-04-01T18:28:00Z</time>
      </trkpt>
      <trkpt lat="59.9473276" lon="17.7152353">
        <ele>68.3909</ele>
        <time>2014-04-01T18:28:01Z</time>
      </trkpt>
      <trkpt lat="59.9473427" lon="17.7152787">
        <ele>68.3909</ele>
        <time>2014-04-01T18:28:02Z</time>
      </trkpt>
      <trkpt lat="59.9473592" lon="17.7153129">
        <ele>68.8716</ele>
        <time>2014-04-01T18:28:03Z</time>
      </trkpt>
      <trkpt lat="59.9473758" lon="17.7153446">
        <ele>69.8329</ele>
        <time>2014-04-01T18:28:04Z</time>
      </trkpt>
      <trkpt lat="59.947387" lon="17.7153659">
        <ele>69.3523</ele>
        <time>2014-04-01T18:28:05Z</time>
      </trkpt>
      <trkpt lat="59.9474052" lon="17.7153811">
        <ele>69.3523</ele>
        <time>2014-04-01T18:28:06Z</time>
      </trkpt>
      <trkpt lat="59.9474254" lon="17.7154079">
        <ele>68.3909</ele>
        <time>2014-04-01T18:28:07Z</time>
      </trkpt>
      <trkpt lat="59.9474503" lon="17.7154334">
        <ele>68.3909</ele>
        <time>2014-04-01T18:28:08Z</time>
      </trkpt>
      <trkpt lat="59.9474701" lon="17.715462">
        <ele>68.3909</ele>
        <time>2014-04-01T18:28:09Z</time>
      </trkpt>
      <trkpt lat="59.9474898" lon="17.7154904">
        <ele>68.3909</ele>
        <time>2014-04-01T18:28:10Z</time>
      </trkpt>
      <trkpt lat="59.9475088" lon="17.7155203">
        <ele>67.9103</ele>
        <time>2014-04-01T18:28:11Z</time>
      </trkpt>
      <trkpt lat="59.9475275" lon="17.715549">
        <ele>67.4297</ele>
        <time>2014-04-01T18:28:12Z</time>
      </trkpt>
      <trkpt lat="59.9475477" lon="17.7155672">
        <ele>67.9103</ele>
        <time>2014-04-01T18:28:13Z</time>
      </trkpt>
      <trkpt lat="59.9475737" lon="17.7155854">
        <ele>68.3909</ele>
        <time>2014-04-01T18:28:14Z</time>
      </trkpt>
      <trkpt lat="59.9476048" lon="17.7156061">
        <ele>69.3523</ele>
        <time>2014-04-01T18:28:15Z</time>
      </trkpt>
      <trkpt lat="59.9476391" lon="17.7156124">
        <ele>70.7942</ele>
        <time>2014-04-01T18:28:16Z</time>
      </trkpt>
      <trkpt lat="59.9476679" lon="17.715616">
        <ele>71.7555</ele>
        <time>2014-04-01T18:28:17Z</time>
      </trkpt>
      <trkpt lat="59.9476983" lon="17.715616">
        <ele>71.7555</ele>
        <time>2014-04-01T18:28:18Z</time>
      </trkpt>
      <trkpt lat="59.9477271" lon="17.7156175">
        <ele>71.7555</ele>
        <time>2014-04-01T18:28:19Z</time>
      </trkpt>
      <trkpt lat="59.9477533" lon="17.7156263">
        <ele>72.2362</ele>
        <time>2014-04-01T18:28:20Z</time>
      </trkpt>
      <trkpt lat="59.9477772" lon="17.7156382">
        <ele>71.2749</ele>
        <time>2014-04-01T18:28:21Z</time>
      </trkpt>
      <trkpt lat="59.9477922" lon="17.7156474">
        <ele>69.8329</ele>
        <time>2014-04-01T18:28:22Z</time>
      </trkpt>
      <trkpt lat="59.9478047" lon="17.715652">
        <ele>68.8716</ele>
        <time>2014-04-01T18:28:23Z</time>
      </trkpt>
      <trkpt lat="59.9478154" lon="17.7156503">
        <ele>67.4297</ele>
        <time>2014-04-01T18:28:24Z</time>
      </trkpt>
      <trkpt lat="59.9478231" lon="17.7156513">
        <ele>65.5071</ele>
        <time>2014-04-01T18:28:25Z</time>
      </trkpt>
      <trkpt lat="59.9478302" lon="17.7156489">
        <ele>64.0651</ele>
        <time>2014-04-01T18:28:26Z</time>
      </trkpt>
      <trkpt lat="59.947841" lon="17.7156407">
        <ele>62.6229</ele>
        <time>2014-04-01T18:28:27Z</time>
      </trkpt>
      <trkpt lat="59.9478549" lon="17.7156287">
        <ele>61.181</ele>
        <time>2014-04-01T18:28:28Z</time>
      </trkpt>
      <trkpt lat="59.9478741" lon="17.715606">
        <ele>60.7003</ele>
        <time>2014-04-01T18:28:29Z</time>
      </trkpt>
      <trkpt lat="59.9478969" lon="17.7155786">
        <ele>60.7003</ele>
        <time>2014-04-01T18:28:30Z</time>
      </trkpt>
      <trkpt lat="59.9479154" lon="17.7155555">
        <ele>59.7391</ele>
        <time>2014-04-01T18:28:31Z</time>
      </trkpt>
      <trkpt lat="59.9479327" lon="17.7155239">
        <ele>58.2971</ele>
        <time>2014-04-01T18:28:32Z</time>
      </trkpt>
      <trkpt lat="59.9479523" lon="17.7154915">
        <ele>57.8165</ele>
        <time>2014-04-01T18:28:33Z</time>
      </trkpt>
      <trkpt lat="59.9479682" lon="17.7154621">
        <ele>57.8165</ele>
        <time>2014-04-01T18:28:34Z</time>
      </trkpt>
      <trkpt lat="59.9479802" lon="17.7154283">
        <ele>57.3358</ele>
        <time>2014-04-01T18:28:35Z</time>
      </trkpt>
      <trkpt lat="59.9479967" lon="17.7153808">
        <ele>58.2971</ele>
        <time>2014-04-01T18:28:36Z</time>
      </trkpt>
      <trkpt lat="59.9480166" lon="17.7153255">
        <ele>59.7391</ele>
        <time>2014-04-01T18:28:37Z</time>
      </trkpt>
      <trkpt lat="59.9480348" lon="17.7152701">
        <ele>60.7003</ele>
        <time>2014-04-01T18:28:38Z</time>
      </trkpt>
      <trkpt lat="59.948046" lon="17.715213">
        <ele>60.7003</ele>
        <time>2014-04-01T18:28:39Z</time>
      </trkpt>
      <trkpt lat="59.9480538" lon="17.7151648">
        <ele>60.2197</ele>
        <time>2014-04-01T18:28:40Z</time>
      </trkpt>
      <trkpt lat="59.9480596" lon="17.7151239">
        <ele>59.7391</ele>
        <time>2014-04-01T18:28:41Z</time>
      </trkpt>
      <trkpt lat="59.9480636" lon="17.7150881">
        <ele>58.7777</ele>
        <time>2014-04-01T18:28:42Z</time>
      </trkpt>
      <trkpt lat="59.9480711" lon="17.7150472">
        <ele>58.2971</ele>
        <time>2014-04-01T18:28:43Z</time>
      </trkpt>
      <trkpt lat="59.9480771" lon="17.7149971">
        <ele>58.7777</ele>
        <time>2014-04-01T18:28:44Z</time>
      </trkpt>
      <trkpt lat="59.9480822" lon="17.7149473">
        <ele>58.7777</ele>
        <time>2014-04-01T18:28:45Z</time>
      </trkpt>
      <trkpt lat="59.9480865" lon="17.7148997">
        <ele>57.8165</ele>
        <time>2014-04-01T18:28:46Z</time>
      </trkpt>
      <trkpt lat="59.9480941" lon="17.7148562">
        <ele>57.8165</ele>
        <time>2014-04-01T18:28:47Z</time>
      </trkpt>
      <trkpt lat="59.9481006" lon="17.7148168">
        <ele>56.8551</ele>
        <time>2014-04-01T18:28:48Z</time>
      </trkpt>
      <trkpt lat="59.948113" lon="17.7147633">
        <ele>56.8551</ele>
        <time>2014-04-01T18:28:49Z</time>
      </trkpt>
      <trkpt lat="59.9481248" lon="17.7146992">
        <ele>56.8551</ele>
        <time>2014-04-01T18:28:50Z</time>
      </trkpt>
      <trkpt lat="59.9481353" lon="17.7146295">
        <ele>57.3358</ele>
        <time>2014-04-01T18:28:51Z</time>
      </trkpt>
      <trkpt lat="59.9481443" lon="17.7145678">
        <ele>56.8551</ele>
        <time>2014-04-01T18:28:52Z</time>
      </trkpt>
      <trkpt lat="59.948157" lon="17.7145152">
        <ele>56.8551</ele>
        <time>2014-04-01T18:28:53Z</time>
      </trkpt>
      <trkpt lat="59.9481645" lon="17.714465">
        <ele>56.3745</ele>
        <time>2014-04-01T18:28:54Z</time>
      </trkpt>
      <trkpt lat="59.9481663" lon="17.7144">
        <ele>56.8551</ele>
        <time>2014-04-01T18:28:55Z</time>
      </trkpt>
      <trkpt lat="59.9481714" lon="17.7143261">
        <ele>56.8551</ele>
        <time>2014-04-01T18:28:56Z</time>
      </trkpt>
      <trkpt lat="59.9481756" lon="17.7142583">
        <ele>57.8165</ele>
        <time>2014-04-01T18:28:57Z</time>
      </trkpt>
      <trkpt lat="59.9481823" lon="17.7141982">
        <ele>58.7777</ele>
        <time>2014-04-01T18:28:58Z</time>
      </trkpt>
      <trkpt lat="59.9481913" lon="17.7141423">
        <ele>58.7777</ele>
        <time>2014-04-01T18:28:59Z</time>
      </trkpt>
      <trkpt lat="59.9482063" lon="17.7140692">
        <ele>58.2971</ele>
        <time>2014-04-01T18:29:00Z</time>
      </trkpt>
      <trkpt lat="59.9482247" lon="17.7140102">
        <ele>58.2971</ele>
        <time>2014-04-01T18:29:01Z</time>
      </trkpt>
      <trkpt lat="59.9482403" lon="17.713966">
        <ele>58.7777</ele>
        <time>2014-04-01T18:29:02Z</time>
      </trkpt>
      <trkpt lat="59.948249" lon="17.7139329">
        <ele>58.2971</ele>
        <time>2014-04-01T18:29:03Z</time>
      </trkpt>
      <trkpt lat="59.9482598" lon="17.7139097">
        <ele>56.3745</ele>
        <time>2014-04-01T18:29:04Z</time>
      </trkpt>
      <trkpt lat="59.9482695" lon="17.7138732">
        <ele>55.8938</ele>
        <time>2014-04-01T18:29:05Z</time>
      </trkpt>
      <trkpt lat="59.948284" lon="17.7138381">
        <ele>54.9324</ele>
        <time>2014-04-01T18:29:06Z</time>
      </trkpt>
      <trkpt lat="59.9482999" lon="17.7138103">
        <ele>53.9712</ele>
        <time>2014-04-01T18:29:07Z</time>
      </trkpt>
      <trkpt lat="59.9483187" lon="17.7137927">
        <ele>53.0098</ele>
        <time>2014-04-01T18:29:08Z</time>
      </trkpt>
      <trkpt lat="59.9483392" lon="17.7137706">
        <ele>52.5292</ele>
        <time>2014-04-01T18:29:09Z</time>
      </trkpt>
      <trkpt lat="59.9483619" lon="17.713746">
        <ele>52.0486</ele>
        <time>2014-04-01T18:29:10Z</time>
      </trkpt>
      <trkpt lat="59.9483812" lon="17.7137276">
        <ele>51.0872</ele>
        <time>2014-04-01T18:29:11Z</time>
      </trkpt>
      <trkpt lat="59.9484014" lon="17.7137221">
        <ele>51.0872</ele>
        <time>2014-04-01T18:29:12Z</time>
      </trkpt>
      <trkpt lat="59.9484233" lon="17.7137236">
        <ele>50.6066</ele>
        <time>2014-04-01T18:29:13Z</time>
      </trkpt>
      <trkpt lat="59.9484522" lon="17.713728">
        <ele>50.6066</ele>
        <time>2014-04-01T18:29:14Z</time>
      </trkpt>
      <trkpt lat="59.9484884" lon="17.7137382">
        <ele>50.6066</ele>
        <time>2014-04-01T18:29:15Z</time>
      </trkpt>
      <trkpt lat="59.9485238" lon="17.7137382">
        <ele>51.5679</ele>
        <time>2014-04-01T18:29:16Z</time>
      </trkpt>
      <trkpt lat="59.9485601" lon="17.7137388">
        <ele>52.5292</ele>
        <time>2014-04-01T18:29:17Z</time>
      </trkpt>
      <trkpt lat="59.9485921" lon="17.7137487">
        <ele>53.0098</ele>
        <time>2014-04-01T18:29:18Z</time>
      </trkpt>
      <trkpt lat="59.9486228" lon="17.7137594">
        <ele>54.4518</ele>
        <time>2014-04-01T18:29:19Z</time>
      </trkpt>
      <trkpt lat="59.9486584" lon="17.7137683">
        <ele>55.8938</ele>
        <time>2014-04-01T18:29:20Z</time>
      </trkpt>
      <trkpt lat="59.9486971" lon="17.7137833">
        <ele>58.2971</ele>
        <time>2014-04-01T18:29:21Z</time>
      </trkpt>
      <trkpt lat="59.9487396" lon="17.7137971">
        <ele>61.181</ele>
        <time>2014-04-01T18:29:22Z</time>
      </trkpt>
      <trkpt lat="59.9487751" lon="17.7138144">
        <ele>63.5844</ele>
        <time>2014-04-01T18:29:23Z</time>
      </trkpt>
      <trkpt lat="59.9488095" lon="17.7138356">
        <ele>65.5071</ele>
        <time>2014-04-01T18:29:24Z</time>
      </trkpt>
      <trkpt lat="59.9488424" lon="17.7138572">
        <ele>67.4297</ele>
        <time>2014-04-01T18:29:25Z</time>
      </trkpt>
      <trkpt lat="59.9488753" lon="17.7138754">
        <ele>69.8329</ele>
        <time>2014-04-01T18:29:26Z</time>
      </trkpt>
      <trkpt lat="59.9489103" lon="17.713889">
        <ele>71.2749</ele>
        <time>2014-04-01T18:29:27Z</time>
      </trkpt>
      <trkpt lat="59.9489457" lon="17.7139085">
        <ele>73.1976</ele>
        <time>2014-04-01T18:29:28Z</time>
      </trkpt>
      <trkpt lat="59.9489726" lon="17.7139346">
        <ele>73.6782</ele>
        <time>2014-04-01T18:29:29Z</time>
      </trkpt>
      <trkpt lat="59.9489966" lon="17.7139568">
        <ele>74.6395</ele>
        <time>2014-04-01T18:29:30Z</time>
      </trkpt>
      <trkpt lat="59.9490126" lon="17.7139885">
        <ele>74.6395</ele>
        <time>2014-04-01T18:29:31Z</time>
      </trkpt>
      <trkpt lat="59.9490201" lon="17.7140253">
        <ele>74.1588</ele>
        <time>2014-04-01T18:29:32Z</time>
      </trkpt>
      <trkpt lat="59.9490284" lon="17.714054">
        <ele>73.1976</ele>
        <time>2014-04-01T18:29:33Z</time>
      </trkpt>
      <trkpt lat="59.9490484" lon="17.7140731">
        <ele>72.7169</ele>
        <time>2014-04-01T18:29:34Z</time>
      </trkpt>
      <trkpt lat="59.9490723" lon="17.7140909">
        <ele>73.1976</ele>
        <time>2014-04-01T18:29:35Z</time>
      </trkpt>
      <trkpt lat="59.9491026" lon="17.7140937">
        <ele>74.1588</ele>
        <time>2014-04-01T18:29:36Z</time>
      </trkpt>
      <trkpt lat="59.9491366" lon="17.7140931">
        <ele>74.6395</ele>
        <time>2014-04-01T18:29:37Z</time>
      </trkpt>
      <trkpt lat="59.9491593" lon="17.7141128">
        <ele>74.1588</ele>
        <time>2014-04-01T18:29:38Z</time>
      </trkpt>
      <trkpt lat="59.9491697" lon="17.7141546">
        <ele>73.6782</ele>
        <time>2014-04-01T18:29:39Z</time>
      </trkpt>
      <trkpt lat="59.9491754" lon="17.7142035">
        <ele>73.1976</ele>
        <time>2014-04-01T18:29:40Z</time>
      </trkpt>
      <trkpt lat="59.949193" lon="17.7142386">
        <ele>73.6782</ele>
        <time>2014-04-01T18:29:41Z</time>
      </trkpt>
      <trkpt lat="59.9492088" lon="17.7142788">
        <ele>74.1588</ele>
        <time>2014-04-01T18:29:42Z</time>
      </trkpt>
      <trkpt lat="59.9492228" lon="17.7143158">
        <ele>73.1976</ele>
        <time>2014-04-01T18:29:43Z</time>
      </trkpt>
      <trkpt lat="59.9492262" lon="17.7143619">
        <ele>71.7555</ele>
        <time>2014-04-01T18:29:44Z</time>
      </trkpt>
      <trkpt lat="59.949238" lon="17.7144026">
        <ele>71.2749</ele>
        <time>2014-04-01T18:29:45Z</time>
      </trkpt>
      <trkpt lat="59.9492539" lon="17.7144422">
        <ele>72.2362</ele>
        <time>2014-04-01T18:29:46Z</time>
      </trkpt>
      <trkpt lat="59.9492644" lon="17.714481">
        <ele>73.1976</ele>
        <time>2014-04-01T18:29:47Z</time>
      </trkpt>
      <trkpt lat="59.9492756" lon="17.7145127">
        <ele>73.6782</ele>
        <time>2014-04-01T18:29:48Z</time>
      </trkpt>
      <trkpt lat="59.9492803" lon="17.7145539">
        <ele>73.1976</ele>
        <time>2014-04-01T18:29:49Z</time>
      </trkpt>
      <trkpt lat="59.9492775" lon="17.7146048">
        <ele>73.6782</ele>
        <time>2014-04-01T18:29:50Z</time>
      </trkpt>
      <trkpt lat="59.949266" lon="17.7146659">
        <ele>72.7169</ele>
        <time>2014-04-01T18:29:51Z</time>
      </trkpt>
      <trkpt lat="59.9492514" lon="17.7147291">
        <ele>71.7555</ele>
        <time>2014-04-01T18:29:52Z</time>
      </trkpt>
      <trkpt lat="59.9492386" lon="17.714796">
        <ele>71.7555</ele>
        <time>2014-04-01T18:29:53Z</time>
      </trkpt>
      <trkpt lat="59.9492295" lon="17.7148704">
        <ele>71.7555</ele>
        <time>2014-04-01T18:29:54Z</time>
      </trkpt>
      <trkpt lat="59.9492328" lon="17.7149105">
        <ele>71.7555</ele>
        <time>2014-04-01T18:29:55Z</time>
      </trkpt>
      <trkpt lat="59.9492347" lon="17.7149669">
        <ele>71.2749</ele>
        <time>2014-04-01T18:29:56Z</time>
      </trkpt>
      <trkpt lat="59.9492422" lon="17.7150123">
        <ele>70.7942</ele>
        <time>2014-04-01T18:29:57Z</time>
      </trkpt>
      <trkpt lat="59.949257" lon="17.7150561">
        <ele>70.3135</ele>
        <time>2014-04-01T18:29:58Z</time>
      </trkpt>
      <trkpt lat="59.9492712" lon="17.7151011">
        <ele>70.3135</ele>
        <time>2014-04-01T18:29:59Z</time>
      </trkpt>
      <trkpt lat="59.9492903" lon="17.7151281">
        <ele>70.3135</ele>
        <time>2014-04-01T18:30:00Z</time>
      </trkpt>
      <trkpt lat="59.9493043" lon="17.7151524">
        <ele>69.8329</ele>
        <time>2014-04-01T18:30:01Z</time>
      </trkpt>
      <trkpt lat="59.9493186" lon="17.7151742">
        <ele>68.3909</ele>
        <time>2014-04-01T18:30:02Z</time>
      </trkpt>
      <trkpt lat="59.9493349" lon="17.7151978">
        <ele>67.4297</ele>
        <time>2014-04-01T18:30:03Z</time>
      </trkpt>
      <trkpt lat="59.9493551" lon="17.715213">
        <ele>66.949</ele>
        <time>2014-04-01T18:30:04Z</time>
      </trkpt>
      <trkpt lat="59.9493777" lon="17.7152197">
        <ele>66.949</ele>
        <time>2014-04-01T18:30:05Z</time>
      </trkpt>
      <trkpt lat="59.9494024" lon="17.7152286">
        <ele>66.949</ele>
        <time>2014-04-01T18:30:06Z</time>
      </trkpt>
      <trkpt lat="59.9494251" lon="17.7152332">
        <ele>66.949</ele>
        <time>2014-04-01T18:30:07Z</time>
      </trkpt>
      <trkpt lat="59.9494414" lon="17.7152293">
        <ele>66.4683</ele>
        <time>2014-04-01T18:30:08Z</time>
      </trkpt>
      <trkpt lat="59.9494509" lon="17.715227">
        <ele>64.5457</ele>
        <time>2014-04-01T18:30:09Z</time>
      </trkpt>
      <trkpt lat="59.9494639" lon="17.7152042">
        <ele>63.5844</ele>
        <time>2014-04-01T18:30:10Z</time>
      </trkpt>
      <trkpt lat="59.9494795" lon="17.7151859">
        <ele>63.1036</ele>
        <time>2014-04-01T18:30:11Z</time>
      </trkpt>
      <trkpt lat="59.9494899" lon="17.715161">
        <ele>62.1423</ele>
        <time>2014-04-01T18:30:12Z</time>
      </trkpt>
      <trkpt lat="59.9494982" lon="17.7151333">
        <ele>62.1423</ele>
        <time>2014-04-01T18:30:13Z</time>
      </trkpt>
      <trkpt lat="59.9495069" lon="17.7151162">
        <ele>60.7003</ele>
        <time>2014-04-01T18:30:14Z</time>
      </trkpt>
      <trkpt lat="59.9495125" lon="17.715073">
        <ele>60.7003</ele>
        <time>2014-04-01T18:30:15Z</time>
      </trkpt>
      <trkpt lat="59.9495199" lon="17.7150419">
        <ele>60.2197</ele>
        <time>2014-04-01T18:30:16Z</time>
      </trkpt>
      <trkpt lat="59.9495214" lon="17.7149964">
        <ele>60.2197</ele>
        <time>2014-04-01T18:30:17Z</time>
      </trkpt>
      <trkpt lat="59.9495253" lon="17.714947">
        <ele>59.2584</ele>
        <time>2014-04-01T18:30:18Z</time>
      </trkpt>
      <trkpt lat="59.9495312" lon="17.7149089">
        <ele>58.7777</ele>
        <time>2014-04-01T18:30:19Z</time>
      </trkpt>
      <trkpt lat="59.9495349" lon="17.7148707">
        <ele>58.2971</ele>
        <time>2014-04-01T18:30:20Z</time>
      </trkpt>
      <trkpt lat="59.9495354" lon="17.7148285">
        <ele>57.8165</ele>
        <time>2014-04-01T18:30:21Z</time>
      </trkpt>
      <trkpt lat="59.9495338" lon="17.7147779">
        <ele>57.8165</ele>
        <time>2014-04-01T18:30:22Z</time>
      </trkpt>
      <trkpt lat="59.9495261" lon="17.7147275">
        <ele>57.3358</ele>
        <time>2014-04-01T18:30:23Z</time>
      </trkpt>
      <trkpt lat="59.9495215" lon="17.7146798">
        <ele>56.8551</ele>
        <time>2014-04-01T18:30:24Z</time>
      </trkpt>
      <trkpt lat="59.9495162" lon="17.714638">
        <ele>56.3745</ele>
        <time>2014-04-01T18:30:25Z</time>
      </trkpt>
      <trkpt lat="59.9495048" lon="17.7145972">
        <ele>55.8938</ele>
        <time>2014-04-01T18:30:26Z</time>
      </trkpt>
      <trkpt lat="59.9494908" lon="17.7145613">
        <ele>55.8938</ele>
        <time>2014-04-01T18:30:27Z</time>
      </trkpt>
      <trkpt lat="59.9494792" lon="17.7145478">
        <ele>54.9324</ele>
        <time>2014-04-01T18:30:28Z</time>
      </trkpt>
      <trkpt lat="59.9494592" lon="17.7145388">
        <ele>54.9324</ele>
        <time>2014-04-01T18:30:29Z</time>
      </trkpt>
      <trkpt lat="59.9494376" lon="17.7145278">
        <ele>55.4131</ele>
        <time>2014-04-01T18:30:30Z</time>
      </trkpt>
      <trkpt lat="59.9494153" lon="17.7145137">
        <ele>55.4131</ele>
        <time>2014-04-01T18:30:31Z</time>
      </trkpt>
      <trkpt lat="59.9493924" lon="17.7144971">
        <ele>55.8938</ele>
        <time>2014-04-01T18:30:32Z</time>
      </trkpt>
      <trkpt lat="59.9493696" lon="17.714477">
        <ele>55.8938</ele>
        <time>2014-04-01T18:30:33Z</time>
      </trkpt>
      <trkpt lat="59.9493432" lon="17.7144565">
        <ele>56.3745</ele>
        <time>2014-04-01T18:30:34Z</time>
      </trkpt>
      <trkpt lat="59.9493152" lon="17.7144391">
        <ele>56.3745</ele>
        <time>2014-04-01T18:30:35Z</time>
      </trkpt>
      <trkpt lat="59.9492887" lon="17.7144285">
        <ele>56.3745</ele>
        <time>2014-04-01T18:30:36Z</time>
      </trkpt>
      <trkpt lat="59.9492614" lon="17.7144091">
        <ele>56.8551</ele>
        <time>2014-04-01T18:30:37Z</time>
      </trkpt>
      <trkpt lat="59.9492355" lon="17.7143656">
        <ele>57.3358</ele>
        <time>2014-04-01T18:30:38Z</time>
      </trkpt>
      <trkpt lat="59.9492117" lon="17.7143267">
        <ele>57.3358</ele>
        <time>2014-04-01T18:30:39Z</time>
      </trkpt>
      <trkpt lat="59.9491899" lon="17.7143018">
        <ele>57.3358</ele>
        <time>2014-04-01T18:30:40Z</time>
      </trkpt>
      <trkpt lat="59.9491663" lon="17.7142803">
        <ele>56.8551</ele>
        <time>2014-04-01T18:30:41Z</time>
      </trkpt>
      <trkpt lat="59.9491396" lon="17.7142577">
        <ele>57.3358</ele>
        <time>2014-04-01T18:30:42Z</time>
      </trkpt>
      <trkpt lat="59.9491137" lon="17.7142277">
        <ele>57.8165</ele>
        <time>2014-04-01T18:30:43Z</time>
      </trkpt>
      <trkpt lat="59.9490874" lon="17.7142013">
        <ele>57.8165</ele>
        <time>2014-04-01T18:30:44Z</time>
      </trkpt>
      <trkpt lat="59.949062" lon="17.7141827">
        <ele>57.8165</ele>
        <time>2014-04-01T18:30:45Z</time>
      </trkpt>
      <trkpt lat="59.9490338" lon="17.7141675">
        <ele>58.2971</ele>
        <time>2014-04-01T18:30:46Z</time>
      </trkpt>
      <trkpt lat="59.949007" lon="17.7141483">
        <ele>58.7777</ele>
        <time>2014-04-01T18:30:47Z</time>
      </trkpt>
      <trkpt lat="59.9489842" lon="17.7141252">
        <ele>59.2584</ele>
        <time>2014-04-01T18:30:48Z</time>
      </trkpt>
      <trkpt lat="59.9489612" lon="17.7141038">
        <ele>59.2584</ele>
        <time>2014-04-01T18:30:49Z</time>
      </trkpt>
      <trkpt lat="59.9489386" lon="17.7140908">
        <ele>59.2584</ele>
        <time>2014-04-01T18:30:50Z</time>
      </trkpt>
      <trkpt lat="59.9489117" lon="17.7140775">
        <ele>59.7391</ele>
        <time>2014-04-01T18:30:51Z</time>
      </trkpt>
      <trkpt lat="59.9488784" lon="17.7140713">
        <ele>59.7391</ele>
        <time>2014-04-01T18:30:52Z</time>
      </trkpt>
      <trkpt lat="59.9488489" lon="17.7140639">
        <ele>59.7391</ele>
        <time>2014-04-01T18:30:53Z</time>
      </trkpt>
      <trkpt lat="59.9488225" lon="17.7140692">
        <ele>59.7391</ele>
        <time>2014-04-01T18:30:54Z</time>
      </trkpt>
      <trkpt lat="59.9487934" lon="17.7140426">
        <ele>59.7391</ele>
        <time>2014-04-01T18:30:55Z</time>
      </trkpt>
      <trkpt lat="59.9487662" lon="17.7140004">
        <ele>60.2197</ele>
        <time>2014-04-01T18:30:56Z</time>
      </trkpt>
      <trkpt lat="59.9487438" lon="17.7139589">
        <ele>59.7391</ele>
        <time>2014-04-01T18:30:57Z</time>
      </trkpt>
      <trkpt lat="59.9487251" lon="17.7139177">
        <ele>59.2584</ele>
        <time>2014-04-01T18:30:58Z</time>
      </trkpt>
      <trkpt lat="59.9487041" lon="17.7138804">
        <ele>59.2584</ele>
        <time>2014-04-01T18:30:59Z</time>
      </trkpt>
      <trkpt lat="59.9486936" lon="17.7138414">
        <ele>59.2584</ele>
        <time>2014-04-01T18:31:00Z</time>
      </trkpt>
      <trkpt lat="59.9486869" lon="17.7137888">
        <ele>58.2971</ele>
        <time>2014-04-01T18:31:01Z</time>
      </trkpt>
      <trkpt lat="59.9486818" lon="17.7137232">
        <ele>58.7777</ele>
        <time>2014-04-01T18:31:02Z</time>
      </trkpt>
      <trkpt lat="59.948677" lon="17.7136489">
        <ele>58.2971</ele>
        <time>2014-04-01T18:31:03Z</time>
      </trkpt>
      <trkpt lat="59.9486688" lon="17.7135736">
        <ele>57.8165</ele>
        <time>2014-04-01T18:31:04Z</time>
      </trkpt>
      <trkpt lat="59.9486641" lon="17.7135082">
        <ele>57.3358</ele>
        <time>2014-04-01T18:31:05Z</time>
      </trkpt>
      <trkpt lat="59.9486615" lon="17.7134459">
        <ele>57.8165</ele>
        <time>2014-04-01T18:31:06Z</time>
      </trkpt>
      <trkpt lat="59.9486593" lon="17.7133869">
        <ele>57.8165</ele>
        <time>2014-04-01T18:31:07Z</time>
      </trkpt>
      <trkpt lat="59.9486632" lon="17.7133222">
        <ele>58.2971</ele>
        <time>2014-04-01T18:31:08Z</time>
      </trkpt>
      <trkpt lat="59.9486729" lon="17.7132661">
        <ele>58.2971</ele>
        <time>2014-04-01T18:31:09Z</time>
      </trkpt>
      <trkpt lat="59.9486869" lon="17.7132253">
        <ele>58.7777</ele>
        <time>2014-04-01T18:31:10Z</time>
      </trkpt>
      <trkpt lat="59.9487029" lon="17.7131897">
        <ele>58.7777</ele>
        <time>2014-04-01T18:31:11Z</time>
      </trkpt>
      <trkpt lat="59.9487216" lon="17.7131578">
        <ele>58.7777</ele>
        <time>2014-04-01T18:31:12Z</time>
      </trkpt>
      <trkpt lat="59.9487418" lon="17.7131356">
        <ele>58.7777</ele>
        <time>2014-04-01T18:31:13Z</time>
      </trkpt>
      <trkpt lat="59.9487737" lon="17.7131223">
        <ele>58.2971</ele>
        <time>2014-04-01T18:31:14Z</time>
      </trkpt>
      <trkpt lat="59.9488056" lon="17.7131061">
        <ele>57.8165</ele>
        <time>2014-04-01T18:31:15Z</time>
      </trkpt>
      <trkpt lat="59.9488364" lon="17.7130886">
        <ele>57.3358</ele>
        <time>2014-04-01T18:31:16Z</time>
      </trkpt>
      <trkpt lat="59.9488662" lon="17.713067">
        <ele>57.8165</ele>
        <time>2014-04-01T18:31:17Z</time>
      </trkpt>
      <trkpt lat="59.9488977" lon="17.7130508">
        <ele>58.2971</ele>
        <time>2014-04-01T18:31:18Z</time>
      </trkpt>
      <trkpt lat="59.9489308" lon="17.7130253">
        <ele>58.7777</ele>
        <time>2014-04-01T18:31:19Z</time>
      </trkpt>
      <trkpt lat="59.9489563" lon="17.7130047">
        <ele>59.7391</ele>
        <time>2014-04-01T18:31:20Z</time>
      </trkpt>
      <trkpt lat="59.9489962" lon="17.7129731">
        <ele>60.7003</ele>
        <time>2014-04-01T18:31:21Z</time>
      </trkpt>
      <trkpt lat="59.9490329" lon="17.7129431">
        <ele>61.181</ele>
        <time>2014-04-01T18:31:22Z</time>
      </trkpt>
      <trkpt lat="59.9490719" lon="17.7129109">
        <ele>62.6229</ele>
        <time>2014-04-01T18:31:23Z</time>
      </trkpt>
      <trkpt lat="59.9491085" lon="17.7128865">
        <ele>64.0651</ele>
        <time>2014-04-01T18:31:24Z</time>
      </trkpt>
      <trkpt lat="59.9491463" lon="17.7128509">
        <ele>65.5071</ele>
        <time>2014-04-01T18:31:25Z</time>
      </trkpt>
      <trkpt lat="59.9491739" lon="17.712818">
        <ele>66.4683</ele>
        <time>2014-04-01T18:31:26Z</time>
      </trkpt>
      <trkpt lat="59.949195" lon="17.7127896">
        <ele>65.9877</ele>
        <time>2014-04-01T18:31:27Z</time>
      </trkpt>
      <trkpt lat="59.9492231" lon="17.7127539">
        <ele>65.9877</ele>
        <time>2014-04-01T18:31:28Z</time>
      </trkpt>
      <trkpt lat="59.9492446" lon="17.7127146">
        <ele>65.5071</ele>
        <time>2014-04-01T18:31:29Z</time>
      </trkpt>
      <trkpt lat="59.9492731" lon="17.7126684">
        <ele>65.9877</ele>
        <time>2014-04-01T18:31:30Z</time>
      </trkpt>
      <trkpt lat="59.9493005" lon="17.7126331">
        <ele>65.9877</ele>
        <time>2014-04-01T18:31:31Z</time>
      </trkpt>
      <trkpt lat="59.9493204" lon="17.7125987">
        <ele>65.5071</ele>
        <time>2014-04-01T18:31:32Z</time>
      </trkpt>
      <trkpt lat="59.9493337" lon="17.7125539">
        <ele>65.0264</ele>
        <time>2014-04-01T18:31:33Z</time>
      </trkpt>
      <trkpt lat="59.9493448" lon="17.7125042">
        <ele>64.5457</ele>
        <time>2014-04-01T18:31:34Z</time>
      </trkpt>
      <trkpt lat="59.9493572" lon="17.7124573">
        <ele>64.5457</ele>
        <time>2014-04-01T18:31:35Z</time>
      </trkpt>
      <trkpt lat="59.9493599" lon="17.7124024">
        <ele>64.5457</ele>
        <time>2014-04-01T18:31:36Z</time>
      </trkpt>
      <trkpt lat="59.9493592" lon="17.7123518">
        <ele>64.5457</ele>
        <time>2014-04-01T18:31:37Z</time>
      </trkpt>
      <trkpt lat="59.9493534" lon="17.7122995">
        <ele>63.5844</ele>
        <time>2014-04-01T18:31:38Z</time>
      </trkpt>
      <trkpt lat="59.9493555" lon="17.7122427">
        <ele>63.1036</ele>
        <time>2014-04-01T18:31:39Z</time>
      </trkpt>
      <trkpt lat="59.9493654" lon="17.7121924">
        <ele>62.1423</ele>
        <time>2014-04-01T18:31:40Z</time>
      </trkpt>
      <trkpt lat="59.9493794" lon="17.7121503">
        <ele>61.6617</ele>
        <time>2014-04-01T18:31:41Z</time>
      </trkpt>
      <trkpt lat="59.9493852" lon="17.7121105">
        <ele>61.181</ele>
        <time>2014-04-01T18:31:42Z</time>
      </trkpt>
      <trkpt lat="59.9493875" lon="17.7120656">
        <ele>60.7003</ele>
        <time>2014-04-01T18:31:43Z</time>
      </trkpt>
      <trkpt lat="59.9493944" lon="17.7120302">
        <ele>59.7391</ele>
        <time>2014-04-01T18:31:44Z</time>
      </trkpt>
      <trkpt lat="59.9494065" lon="17.7119862">
        <ele>58.7777</ele>
        <time>2014-04-01T18:31:45Z</time>
      </trkpt>
      <trkpt lat="59.9494169" lon="17.711939">
        <ele>58.2971</ele>
        <time>2014-04-01T18:31:46Z</time>
      </trkpt>
      <trkpt lat="59.9494276" lon="17.7119024">
        <ele>57.8165</ele>
        <time>2014-04-01T18:31:47Z</time>
      </trkpt>
      <trkpt lat="59.9494328" lon="17.7118693">
        <ele>57.3358</ele>
        <time>2014-04-01T18:31:48Z</time>
      </trkpt>
      <trkpt lat="59.9494381" lon="17.7118286">
        <ele>56.3745</ele>
        <time>2014-04-01T18:31:49Z</time>
      </trkpt>
      <trkpt lat="59.9494433" lon="17.7117831">
        <ele>56.3745</ele>
        <time>2014-04-01T18:31:50Z</time>
      </trkpt>
      <trkpt lat="59.9494447" lon="17.7117438">
        <ele>55.4131</ele>
        <time>2014-04-01T18:31:51Z</time>
      </trkpt>
      <trkpt lat="59.9494495" lon="17.7117128">
        <ele>54.9324</ele>
        <time>2014-04-01T18:31:52Z</time>
      </trkpt>
      <trkpt lat="59.9494608" lon="17.7116838">
        <ele>54.9324</ele>
        <time>2014-04-01T18:31:53Z</time>
      </trkpt>
      <trkpt lat="59.949477" lon="17.7116525">
        <ele>54.4518</ele>
        <time>2014-04-01T18:31:54Z</time>
      </trkpt>
      <trkpt lat="59.9494923" lon="17.7116309">
        <ele>53.9712</ele>
        <time>2014-04-01T18:31:55Z</time>
      </trkpt>
      <trkpt lat="59.9495176" lon="17.7116214">
        <ele>53.9712</ele>
        <time>2014-04-01T18:31:56Z</time>
      </trkpt>
      <trkpt lat="59.9495429" lon="17.7116171">
        <ele>53.4905</ele>
        <time>2014-04-01T18:31:57Z</time>
      </trkpt>
      <trkpt lat="59.9495723" lon="17.7116062">
        <ele>53.0098</ele>
        <time>2014-04-01T18:31:58Z</time>
      </trkpt>
      <trkpt lat="59.9496002" lon="17.7115934">
        <ele>52.5292</ele>
        <time>2014-04-01T18:31:59Z</time>
      </trkpt>
      <trkpt lat="59.9496302" lon="17.7115712">
        <ele>53.0098</ele>
        <time>2014-04-01T18:32:00Z</time>
      </trkpt>
      <trkpt lat="59.9496571" lon="17.7115563">
        <ele>52.5292</ele>
        <time>2014-04-01T18:32:01Z</time>
      </trkpt>
      <trkpt lat="59.9496819" lon="17.7115455">
        <ele>52.5292</ele>
        <time>2014-04-01T18:32:02Z</time>
      </trkpt>
      <trkpt lat="59.9497115" lon="17.7115381">
        <ele>52.5292</ele>
        <time>2014-04-01T18:32:03Z</time>
      </trkpt>
      <trkpt lat="59.9497431" lon="17.7115221">
        <ele>52.5292</ele>
        <time>2014-04-01T18:32:04Z</time>
      </trkpt>
      <trkpt lat="59.949768" lon="17.7115123">
        <ele>52.5292</ele>
        <time>2014-04-01T18:32:05Z</time>
      </trkpt>
      <trkpt lat="59.9497927" lon="17.7115069">
        <ele>52.5292</ele>
        <time>2014-04-01T18:32:06Z</time>
      </trkpt>
      <trkpt lat="59.9498208" lon="17.711501">
        <ele>52.0486</ele>
        <time>2014-04-01T18:32:07Z</time>
      </trkpt>
      <trkpt lat="59.9498506" lon="17.7114841">
        <ele>52.5292</ele>
        <time>2014-04-01T18:32:08Z</time>
      </trkpt>
      <trkpt lat="59.9498788" lon="17.7114698">
        <ele>52.0486</ele>
        <time>2014-04-01T18:32:09Z</time>
      </trkpt>
      <trkpt lat="59.9499078" lon="17.7114558">
        <ele>52.0486</ele>
        <time>2014-04-01T18:32:10Z</time>
      </trkpt>
      <trkpt lat="59.9499344" lon="17.7114325">
        <ele>52.0486</ele>
        <time>2014-04-01T18:32:11Z</time>
      </trkpt>
      <trkpt lat="59.9499586" lon="17.7114144">
        <ele>52.0486</ele>
        <time>2014-04-01T18:32:12Z</time>
      </trkpt>
      <trkpt lat="59.9499835" lon="17.7114012">
        <ele>52.0486</ele>
        <time>2014-04-01T18:32:13Z</time>
      </trkpt>
      <trkpt lat="59.9500104" lon="17.7113915">
        <ele>52.0486</ele>
        <time>2014-04-01T18:32:14Z</time>
      </trkpt>
      <trkpt lat="59.950038" lon="17.711377">
        <ele>52.0486</ele>
        <time>2014-04-01T18:32:15Z</time>
      </trkpt>
      <trkpt lat="59.9500675" lon="17.7113617">
        <ele>51.5679</ele>
        <time>2014-04-01T18:32:16Z</time>
      </trkpt>
      <trkpt lat="59.9500936" lon="17.7113465">
        <ele>51.5679</ele>
        <time>2014-04-01T18:32:17Z</time>
      </trkpt>
      <trkpt lat="59.9501171" lon="17.711327">
        <ele>51.5679</ele>
        <time>2014-04-01T18:32:18Z</time>
      </trkpt>
      <trkpt lat="59.950139" lon="17.7113166">
        <ele>50.6066</ele>
        <time>2014-04-01T18:32:19Z</time>
      </trkpt>
      <trkpt lat="59.9501643" lon="17.7113135">
        <ele>50.126</ele>
        <time>2014-04-01T18:32:20Z</time>
      </trkpt>
      <trkpt lat="59.9501926" lon="17.7113176">
        <ele>49.6453</ele>
        <time>2014-04-01T18:32:21Z</time>
      </trkpt>
      <trkpt lat="59.9502153" lon="17.7113305">
        <ele>49.1646</ele>
        <time>2014-04-01T18:32:22Z</time>
      </trkpt>
      <trkpt lat="59.9502352" lon="17.7113455">
        <ele>48.684</ele>
        <time>2014-04-01T18:32:23Z</time>
      </trkpt>
      <trkpt lat="59.9502527" lon="17.7113717">
        <ele>48.2034</ele>
        <time>2014-04-01T18:32:24Z</time>
      </trkpt>
      <trkpt lat="59.9502674" lon="17.7114113">
        <ele>47.7225</ele>
        <time>2014-04-01T18:32:25Z</time>
      </trkpt>
      <trkpt lat="59.9502839" lon="17.7114522">
        <ele>47.2418</ele>
        <time>2014-04-01T18:32:26Z</time>
      </trkpt>
      <trkpt lat="59.9503015" lon="17.7114862">
        <ele>47.7225</ele>
        <time>2014-04-01T18:32:27Z</time>
      </trkpt>
      <trkpt lat="59.9503229" lon="17.7115185">
        <ele>47.2418</ele>
        <time>2014-04-01T18:32:28Z</time>
      </trkpt>
      <trkpt lat="59.950344" lon="17.7115481">
        <ele>47.2418</ele>
        <time>2014-04-01T18:32:29Z</time>
      </trkpt>
      <trkpt lat="59.950364" lon="17.7115841">
        <ele>47.7225</ele>
        <time>2014-04-01T18:32:30Z</time>
      </trkpt>
      <trkpt lat="59.9503866" lon="17.7116169">
        <ele>47.7225</ele>
        <time>2014-04-01T18:32:31Z</time>
      </trkpt>
      <trkpt lat="59.9504113" lon="17.7116527">
        <ele>48.2034</ele>
        <time>2014-04-01T18:32:32Z</time>
      </trkpt>
      <trkpt lat="59.9504372" lon="17.7116808">
        <ele>48.684</ele>
        <time>2014-04-01T18:32:33Z</time>
      </trkpt>
      <trkpt lat="59.9504661" lon="17.7116941">
        <ele>49.6453</ele>
        <time>2014-04-01T18:32:34Z</time>
      </trkpt>
      <trkpt lat="59.950501" lon="17.7117162">
        <ele>51.5679</ele>
        <time>2014-04-01T18:32:35Z</time>
      </trkpt>
      <trkpt lat="59.9505326" lon="17.71174">
        <ele>53.0098</ele>
        <time>2014-04-01T18:32:36Z</time>
      </trkpt>
      <trkpt lat="59.9505674" lon="17.7117548">
        <ele>55.4131</ele>
        <time>2014-04-01T18:32:37Z</time>
      </trkpt>
      <trkpt lat="59.9505959" lon="17.711778">
        <ele>57.3358</ele>
        <time>2014-04-01T18:32:38Z</time>
      </trkpt>
      <trkpt lat="59.9506279" lon="17.7118015">
        <ele>58.7777</ele>
        <time>2014-04-01T18:32:39Z</time>
      </trkpt>
      <trkpt lat="59.9506626" lon="17.7118291">
        <ele>61.181</ele>
        <time>2014-04-01T18:32:40Z</time>
      </trkpt>
      <trkpt lat="59.9506974" lon="17.7118555">
        <ele>63.5844</ele>
        <time>2014-04-01T18:32:41Z</time>
      </trkpt>
      <trkpt lat="59.9507392" lon="17.7118763">
        <ele>65.9877</ele>
        <time>2014-04-01T18:32:42Z</time>
      </trkpt>
      <trkpt lat="59.950775" lon="17.7119077">
        <ele>67.4297</ele>
        <time>2014-04-01T18:32:43Z</time>
      </trkpt>
      <trkpt lat="59.9508045" lon="17.711941">
        <ele>69.3523</ele>
        <time>2014-04-01T18:32:44Z</time>
      </trkpt>
      <trkpt lat="59.9508231" lon="17.7119825">
        <ele>70.7942</ele>
        <time>2014-04-01T18:32:45Z</time>
      </trkpt>
      <trkpt lat="59.950839" lon="17.7120345">
        <ele>70.7942</ele>
        <time>2014-04-01T18:32:46Z</time>
      </trkpt>
      <trkpt lat="59.9508552" lon="17.7120867">
        <ele>70.7942</ele>
        <time>2014-04-01T18:32:47Z</time>
      </trkpt>
      <trkpt lat="59.9508678" lon="17.7121333">
        <ele>70.3135</ele>
        <time>2014-04-01T18:32:48Z</time>
      </trkpt>
      <trkpt lat="59.9508794" lon="17.7121774">
        <ele>70.3135</ele>
        <time>2014-04-01T18:32:49Z</time>
      </trkpt>
      <trkpt lat="59.9508967" lon="17.7122202">
        <ele>70.7942</ele>
        <time>2014-04-01T18:32:50Z</time>
      </trkpt>
      <trkpt lat="59.9509112" lon="17.7122614">
        <ele>71.7555</ele>
        <time>2014-04-01T18:32:51Z</time>
      </trkpt>
      <trkpt lat="59.9509231" lon="17.7123002">
        <ele>72.7169</ele>
        <time>2014-04-01T18:32:52Z</time>
      </trkpt>
      <trkpt lat="59.9509371" lon="17.7123339">
        <ele>74.1588</ele>
        <time>2014-04-01T18:32:53Z</time>
      </trkpt>
      <trkpt lat="59.9509654" lon="17.7123526">
        <ele>75.6008</ele>
        <time>2014-04-01T18:32:54Z</time>
      </trkpt>
      <trkpt lat="59.950993" lon="17.7123772">
        <ele>77.5234</ele>
        <time>2014-04-01T18:32:55Z</time>
      </trkpt>
      <trkpt lat="59.951022" lon="17.7124023">
        <ele>78.9655</ele>
        <time>2014-04-01T18:32:56Z</time>
      </trkpt>
      <trkpt lat="59.9510509" lon="17.7124219">
        <ele>79.9266</ele>
        <time>2014-04-01T18:32:57Z</time>
      </trkpt>
      <trkpt lat="59.9510811" lon="17.7124287">
        <ele>80.8882</ele>
        <time>2014-04-01T18:32:58Z</time>
      </trkpt>
      <trkpt lat="59.9511003" lon="17.7124395">
        <ele>80.8882</ele>
        <time>2014-04-01T18:32:59Z</time>
      </trkpt>
      <trkpt lat="59.9511158" lon="17.7124561">
        <ele>80.8882</ele>
        <time>2014-04-01T18:33:00Z</time>
      </trkpt>
      <trkpt lat="59.9511372" lon="17.7124716">
        <ele>80.4075</ele>
        <time>2014-04-01T18:33:01Z</time>
      </trkpt>
      <trkpt lat="59.9511573" lon="17.7124903">
        <ele>80.4075</ele>
        <time>2014-04-01T18:33:02Z</time>
      </trkpt>
      <trkpt lat="59.9511785" lon="17.7125079">
        <ele>80.8882</ele>
        <time>2014-04-01T18:33:03Z</time>
      </trkpt>
      <trkpt lat="59.9511981" lon="17.7125281">
        <ele>80.4075</ele>
        <time>2014-04-01T18:33:04Z</time>
      </trkpt>
      <trkpt lat="59.9512168" lon="17.7125446">
        <ele>79.446</ele>
        <time>2014-04-01T18:33:05Z</time>
      </trkpt>
      <trkpt lat="59.951233" lon="17.7125643">
        <ele>78.4847</ele>
        <time>2014-04-01T18:33:06Z</time>
      </trkpt>
      <trkpt lat="59.9512526" lon="17.7125802">
        <ele>78.4847</ele>
        <time>2014-04-01T18:33:07Z</time>
      </trkpt>
      <trkpt lat="59.9512693" lon="17.712597">
        <ele>77.0428</ele>
        <time>2014-04-01T18:33:08Z</time>
      </trkpt>
      <trkpt lat="59.9512878" lon="17.7126219">
        <ele>76.0814</ele>
        <time>2014-04-01T18:33:09Z</time>
      </trkpt>
      <trkpt lat="59.9513095" lon="17.7126598">
        <ele>75.6008</ele>
        <time>2014-04-01T18:33:10Z</time>
      </trkpt>
      <trkpt lat="59.9513314" lon="17.7126877">
        <ele>74.6395</ele>
        <time>2014-04-01T18:33:11Z</time>
      </trkpt>
      <trkpt lat="59.9513531" lon="17.71271">
        <ele>73.6782</ele>
        <time>2014-04-01T18:33:12Z</time>
      </trkpt>
      <trkpt lat="59.9513795" lon="17.7127212">
        <ele>72.7169</ele>
        <time>2014-04-01T18:33:13Z</time>
      </trkpt>
      <trkpt lat="59.9513961" lon="17.7127431">
        <ele>69.8329</ele>
        <time>2014-04-01T18:33:14Z</time>
      </trkpt>
      <trkpt lat="59.9514215" lon="17.7127657">
        <ele>68.8716</ele>
        <time>2014-04-01T18:33:15Z</time>
      </trkpt>
      <trkpt lat="59.9514489" lon="17.712782">
        <ele>67.9103</ele>
        <time>2014-04-01T18:33:16Z</time>
      </trkpt>
      <trkpt lat="59.9514699" lon="17.7127965">
        <ele>66.4683</ele>
        <time>2014-04-01T18:33:17Z</time>
      </trkpt>
      <trkpt lat="59.951494" lon="17.7128121">
        <ele>65.5071</ele>
        <time>2014-04-01T18:33:18Z</time>
      </trkpt>
      <trkpt lat="59.9515172" lon="17.7128253">
        <ele>65.0264</ele>
        <time>2014-04-01T18:33:19Z</time>
      </trkpt>
      <trkpt lat="59.9515447" lon="17.712838">
        <ele>64.0651</ele>
        <time>2014-04-01T18:33:20Z</time>
      </trkpt>
      <trkpt lat="59.9515728" lon="17.7128518">
        <ele>63.1036</ele>
        <time>2014-04-01T18:33:21Z</time>
      </trkpt>
      <trkpt lat="59.9515996" lon="17.7128636">
        <ele>62.6229</ele>
        <time>2014-04-01T18:33:22Z</time>
      </trkpt>
      <trkpt lat="59.9516276" lon="17.7128746">
        <ele>61.6617</ele>
        <time>2014-04-01T18:33:23Z</time>
      </trkpt>
      <trkpt lat="59.9516565" lon="17.7128818">
        <ele>60.7003</ele>
        <time>2014-04-01T18:33:24Z</time>
      </trkpt>
      <trkpt lat="59.9516815" lon="17.7128835">
        <ele>60.2197</ele>
        <time>2014-04-01T18:33:25Z</time>
      </trkpt>
      <trkpt lat="59.9517053" lon="17.7128856">
        <ele>59.2584</ele>
        <time>2014-04-01T18:33:26Z</time>
      </trkpt>
      <trkpt lat="59.9517324" lon="17.7128839">
        <ele>58.7777</ele>
        <time>2014-04-01T18:33:27Z</time>
      </trkpt>
      <trkpt lat="59.9517592" lon="17.7128835">
        <ele>58.7777</ele>
        <time>2014-04-01T18:33:28Z</time>
      </trkpt>
      <trkpt lat="59.9517842" lon="17.7128845">
        <ele>57.8165</ele>
        <time>2014-04-01T18:33:29Z</time>
      </trkpt>
      <trkpt lat="59.9518061" lon="17.7128943">
        <ele>56.8551</ele>
        <time>2014-04-01T18:33:30Z</time>
      </trkpt>
      <trkpt lat="59.9518282" lon="17.7128928">
        <ele>55.8938</ele>
        <time>2014-04-01T18:33:31Z</time>
      </trkpt>
      <trkpt lat="59.9518509" lon="17.7128901">
        <ele>55.4131</ele>
        <time>2014-04-01T18:33:32Z</time>
      </trkpt>
      <trkpt lat="59.9518773" lon="17.7128804">
        <ele>54.9324</ele>
        <time>2014-04-01T18:33:33Z</time>
      </trkpt>
      <trkpt lat="59.9519032" lon="17.7128637">
        <ele>54.9324</ele>
        <time>2014-04-01T18:33:34Z</time>
      </trkpt>
      <trkpt lat="59.9519284" lon="17.7128365">
        <ele>54.4518</ele>
        <time>2014-04-01T18:33:35Z</time>
      </trkpt>
      <trkpt lat="59.9519489" lon="17.7128046">
        <ele>53.9712</ele>
        <time>2014-04-01T18:33:36Z</time>
      </trkpt>
      <trkpt lat="59.9519709" lon="17.7127735">
        <ele>53.9712</ele>
        <time>2014-04-01T18:33:37Z</time>
      </trkpt>
      <trkpt lat="59.9519919" lon="17.7127367">
        <ele>53.4905</ele>
        <time>2014-04-01T18:33:38Z</time>
      </trkpt>
      <trkpt lat="59.9520121" lon="17.7127011">
        <ele>52.5292</ele>
        <time>2014-04-01T18:33:39Z</time>
      </trkpt>
      <trkpt lat="59.9520312" lon="17.7126715">
        <ele>52.0486</ele>
        <time>2014-04-01T18:33:40Z</time>
      </trkpt>
      <trkpt lat="59.9520498" lon="17.7126421">
        <ele>51.0872</ele>
        <time>2014-04-01T18:33:41Z</time>
      </trkpt>
      <trkpt lat="59.952074" lon="17.712612">
        <ele>50.6066</ele>
        <time>2014-04-01T18:33:42Z</time>
      </trkpt>
      <trkpt lat="59.9520936" lon="17.712581">
        <ele>49.6453</ele>
        <time>2014-04-01T18:33:43Z</time>
      </trkpt>
      <trkpt lat="59.9521157" lon="17.7125557">
        <ele>48.684</ele>
        <time>2014-04-01T18:33:44Z</time>
      </trkpt>
      <trkpt lat="59.9521472" lon="17.7125575">
        <ele>47.7225</ele>
        <time>2014-04-01T18:33:45Z</time>
      </trkpt>
      <trkpt lat="59.9521789" lon="17.7125706">
        <ele>46.2806</ele>
        <time>2014-04-01T18:33:46Z</time>
      </trkpt>
      <trkpt lat="59.9522069" lon="17.7125849">
        <ele>46.2806</ele>
        <time>2014-04-01T18:33:47Z</time>
      </trkpt>
      <trkpt lat="59.9522316" lon="17.7126152">
        <ele>45.7999</ele>
        <time>2014-04-01T18:33:48Z</time>
      </trkpt>
      <trkpt lat="59.9522555" lon="17.7126435">
        <ele>46.7612</ele>
        <time>2014-04-01T18:33:49Z</time>
      </trkpt>
      <trkpt lat="59.9522736" lon="17.7126788">
        <ele>46.7612</ele>
        <time>2014-04-01T18:33:50Z</time>
      </trkpt>
      <trkpt lat="59.9522967" lon="17.712713">
        <ele>47.2418</ele>
        <time>2014-04-01T18:33:51Z</time>
      </trkpt>
      <trkpt lat="59.9523176" lon="17.7127466">
        <ele>47.2418</ele>
        <time>2014-04-01T18:33:52Z</time>
      </trkpt>
      <trkpt lat="59.9523399" lon="17.7127895">
        <ele>47.2418</ele>
        <time>2014-04-01T18:33:53Z</time>
      </trkpt>
      <trkpt lat="59.9523606" lon="17.7128363">
        <ele>47.2418</ele>
        <time>2014-04-01T18:33:54Z</time>
      </trkpt>
      <trkpt lat="59.9523835" lon="17.7128802">
        <ele>47.2418</ele>
        <time>2014-04-01T18:33:55Z</time>
      </trkpt>
      <trkpt lat="59.9524094" lon="17.7129301">
        <ele>46.7612</ele>
        <time>2014-04-01T18:33:56Z</time>
      </trkpt>
      <trkpt lat="59.9524343" lon="17.7129805">
        <ele>46.7612</ele>
        <time>2014-04-01T18:33:57Z</time>
      </trkpt>
      <trkpt lat="59.9524567" lon="17.7130279">
        <ele>45.7999</ele>
        <time>2014-04-01T18:33:58Z</time>
      </trkpt>
      <trkpt lat="59.9524792" lon="17.7130835">
        <ele>45.7999</ele>
        <time>2014-04-01T18:33:59Z</time>
      </trkpt>
      <trkpt lat="59.9524989" lon="17.7131368">
        <ele>45.7999</ele>
        <time>2014-04-01T18:34:00Z</time>
      </trkpt>
      <trkpt lat="59.9525158" lon="17.7131891">
        <ele>45.7999</ele>
        <time>2014-04-01T18:34:01Z</time>
      </trkpt>
      <trkpt lat="59.9525303" lon="17.713244">
        <ele>45.7999</ele>
        <time>2014-04-01T18:34:02Z</time>
      </trkpt>
      <trkpt lat="59.9525477" lon="17.713297">
        <ele>45.7999</ele>
        <time>2014-04-01T18:34:03Z</time>
      </trkpt>
      <trkpt lat="59.9525688" lon="17.7133559">
        <ele>45.3192</ele>
        <time>2014-04-01T18:34:04Z</time>
      </trkpt>
      <trkpt lat="59.9525915" lon="17.7134143">
        <ele>44.8386</ele>
        <time>2014-04-01T18:34:05Z</time>
      </trkpt>
      <trkpt lat="59.952614" lon="17.713474">
        <ele>44.358</ele>
        <time>2014-04-01T18:34:06Z</time>
      </trkpt>
      <trkpt lat="59.9526346" lon="17.7135296">
        <ele>43.8773</ele>
        <time>2014-04-01T18:34:07Z</time>
      </trkpt>
      <trkpt lat="59.9526554" lon="17.7135777">
        <ele>43.3966</ele>
        <time>2014-04-01T18:34:08Z</time>
      </trkpt>
      <trkpt lat="59.952678" lon="17.7136292">
        <ele>43.8773</ele>
        <time>2014-04-01T18:34:09Z</time>
      </trkpt>
      <trkpt lat="59.9526993" lon="17.7136823">
        <ele>43.3966</ele>
        <time>2014-04-01T18:34:10Z</time>
      </trkpt>
      <trkpt lat="59.9527225" lon="17.7137346">
        <ele>43.8773</ele>
        <time>2014-04-01T18:34:11Z</time>
      </trkpt>
      <trkpt lat="59.9527469" lon="17.7137807">
        <ele>43.8773</ele>
        <time>2014-04-01T18:34:12Z</time>
      </trkpt>
      <trkpt lat="59.9527693" lon="17.7138242">
        <ele>43.3966</ele>
        <time>2014-04-01T18:34:13Z</time>
      </trkpt>
      <trkpt lat="59.9527915" lon="17.7138703">
        <ele>43.8773</ele>
        <time>2014-04-01T18:34:14Z</time>
      </trkpt>
      <trkpt lat="59.9528159" lon="17.7139103">
        <ele>44.358</ele>
        <time>2014-04-01T18:34:15Z</time>
      </trkpt>
      <trkpt lat="59.9528399" lon="17.7139481">
        <ele>44.358</ele>
        <time>2014-04-01T18:34:16Z</time>
      </trkpt>
      <trkpt lat="59.9528641" lon="17.7139825">
        <ele>44.358</ele>
        <time>2014-04-01T18:34:17Z</time>
      </trkpt>
      <trkpt lat="59.9528932" lon="17.7140133">
        <ele>43.8773</ele>
        <time>2014-04-01T18:34:18Z</time>
      </trkpt>
      <trkpt lat="59.9529227" lon="17.714036">
        <ele>43.8773</ele>
        <time>2014-04-01T18:34:19Z</time>
      </trkpt>
      <trkpt lat="59.9529527" lon="17.7140454">
        <ele>43.8773</ele>
        <time>2014-04-01T18:34:20Z</time>
      </trkpt>
      <trkpt lat="59.9529817" lon="17.7140475">
        <ele>43.8773</ele>
        <time>2014-04-01T18:34:21Z</time>
      </trkpt>
      <trkpt lat="59.95301" lon="17.7140339">
        <ele>43.3966</ele>
        <time>2014-04-01T18:34:22Z</time>
      </trkpt>
      <trkpt lat="59.9530411" lon="17.7140051">
        <ele>42.916</ele>
        <time>2014-04-01T18:34:23Z</time>
      </trkpt>
      <trkpt lat="59.9530709" lon="17.7139633">
        <ele>42.916</ele>
        <time>2014-04-01T18:34:24Z</time>
      </trkpt>
      <trkpt lat="59.953101" lon="17.7139236">
        <ele>42.916</ele>
        <time>2014-04-01T18:34:25Z</time>
      </trkpt>
      <trkpt lat="59.953131" lon="17.7138872">
        <ele>42.916</ele>
        <time>2014-04-01T18:34:26Z</time>
      </trkpt>
      <trkpt lat="59.9531616" lon="17.7138423">
        <ele>42.916</ele>
        <time>2014-04-01T18:34:27Z</time>
      </trkpt>
      <trkpt lat="59.9531919" lon="17.7138002">
        <ele>42.916</ele>
        <time>2014-04-01T18:34:28Z</time>
      </trkpt>
      <trkpt lat="59.9532209" lon="17.7137605">
        <ele>43.3966</ele>
        <time>2014-04-01T18:34:29Z</time>
      </trkpt>
      <trkpt lat="59.953248" lon="17.7137209">
        <ele>43.8773</ele>
        <time>2014-04-01T18:34:30Z</time>
      </trkpt>
      <trkpt lat="59.9532721" lon="17.7136869">
        <ele>44.358</ele>
        <time>2014-04-01T18:34:31Z</time>
      </trkpt>
      <trkpt lat="59.9532941" lon="17.7136479">
        <ele>45.3192</ele>
        <time>2014-04-01T18:34:32Z</time>
      </trkpt>
      <trkpt lat="59.9533157" lon="17.7136055">
        <ele>46.2806</ele>
        <time>2014-04-01T18:34:33Z</time>
      </trkpt>
      <trkpt lat="59.9533369" lon="17.7135595">
        <ele>46.7612</ele>
        <time>2014-04-01T18:34:34Z</time>
      </trkpt>
      <trkpt lat="59.9533598" lon="17.7135071">
        <ele>47.2418</ele>
        <time>2014-04-01T18:34:35Z</time>
      </trkpt>
      <trkpt lat="59.9533842" lon="17.7134471">
        <ele>47.2418</ele>
        <time>2014-04-01T18:34:36Z</time>
      </trkpt>
      <trkpt lat="59.9534101" lon="17.7133925">
        <ele>47.7225</ele>
        <time>2014-04-01T18:34:37Z</time>
      </trkpt>
      <trkpt lat="59.9534317" lon="17.7133413">
        <ele>47.2418</ele>
        <time>2014-04-01T18:34:38Z</time>
      </trkpt>
      <trkpt lat="59.9534522" lon="17.7132874">
        <ele>47.2418</ele>
        <time>2014-04-01T18:34:39Z</time>
      </trkpt>
      <trkpt lat="59.9534754" lon="17.713243">
        <ele>46.7612</ele>
        <time>2014-04-01T18:34:40Z</time>
      </trkpt>
      <trkpt lat="59.9535006" lon="17.7132141">
        <ele>46.2806</ele>
        <time>2014-04-01T18:34:41Z</time>
      </trkpt>
      <trkpt lat="59.9535286" lon="17.7131927">
        <ele>46.2806</ele>
        <time>2014-04-01T18:34:42Z</time>
      </trkpt>
      <trkpt lat="59.9535519" lon="17.7131699">
        <ele>45.7999</ele>
        <time>2014-04-01T18:34:43Z</time>
      </trkpt>
      <trkpt lat="59.9535748" lon="17.713144">
        <ele>45.3192</ele>
        <time>2014-04-01T18:34:44Z</time>
      </trkpt>
      <trkpt lat="59.9536031" lon="17.7131234">
        <ele>45.7999</ele>
        <time>2014-04-01T18:34:45Z</time>
      </trkpt>
      <trkpt lat="59.9536297" lon="17.7131048">
        <ele>45.7999</ele>
        <time>2014-04-01T18:34:46Z</time>
      </trkpt>
      <trkpt lat="59.9536544" lon="17.7130833">
        <ele>45.3192</ele>
        <time>2014-04-01T18:34:47Z</time>
      </trkpt>
      <trkpt lat="59.9536832" lon="17.7130555">
        <ele>44.8386</ele>
        <time>2014-04-01T18:34:48Z</time>
      </trkpt>
      <trkpt lat="59.9537101" lon="17.713044">
        <ele>44.8386</ele>
        <time>2014-04-01T18:34:49Z</time>
      </trkpt>
      <trkpt lat="59.9537369" lon="17.7130498">
        <ele>44.8386</ele>
        <time>2014-04-01T18:34:50Z</time>
      </trkpt>
      <trkpt lat="59.9537675" lon="17.7130635">
        <ele>45.3192</ele>
        <time>2014-04-01T18:34:51Z</time>
      </trkpt>
      <trkpt lat="59.9537958" lon="17.7130876">
        <ele>45.7999</ele>
        <time>2014-04-01T18:34:52Z</time>
      </trkpt>
      <trkpt lat="59.9538191" lon="17.7131222">
        <ele>45.7999</ele>
        <time>2014-04-01T18:34:53Z</time>
      </trkpt>
      <trkpt lat="59.9538406" lon="17.7131725">
        <ele>45.7999</ele>
        <time>2014-04-01T18:34:54Z</time>
      </trkpt>
      <trkpt lat="59.9538596" lon="17.7132247">
        <ele>46.2806</ele>
        <time>2014-04-01T18:34:55Z</time>
      </trkpt>
      <trkpt lat="59.9538745" lon="17.7132792">
        <ele>46.7612</ele>
        <time>2014-04-01T18:34:56Z</time>
      </trkpt>
      <trkpt lat="59.9538867" lon="17.7133409">
        <ele>46.7612</ele>
        <time>2014-04-01T18:34:57Z</time>
      </trkpt>
      <trkpt lat="59.9538965" lon="17.7134016">
        <ele>46.7612</ele>
        <time>2014-04-01T18:34:58Z</time>
      </trkpt>
      <trkpt lat="59.9539036" lon="17.713466">
        <ele>46.7612</ele>
        <time>2014-04-01T18:34:59Z</time>
      </trkpt>
      <trkpt lat="59.9539115" lon="17.713531">
        <ele>46.7612</ele>
        <time>2014-04-01T18:35:00Z</time>
      </trkpt>
      <trkpt lat="59.953915" lon="17.7135942">
        <ele>46.7612</ele>
        <time>2014-04-01T18:35:01Z</time>
      </trkpt>
      <trkpt lat="59.953917" lon="17.7136564">
        <ele>46.2806</ele>
        <time>2014-04-01T18:35:02Z</time>
      </trkpt>
      <trkpt lat="59.9539203" lon="17.7137196">
        <ele>46.7612</ele>
        <time>2014-04-01T18:35:03Z</time>
      </trkpt>
      <trkpt lat="59.9539238" lon="17.7137795">
        <ele>46.7612</ele>
        <time>2014-04-01T18:35:04Z</time>
      </trkpt>
      <trkpt lat="59.953924" lon="17.7138303">
        <ele>46.2806</ele>
        <time>2014-04-01T18:35:05Z</time>
      </trkpt>
      <trkpt lat="59.9539214" lon="17.7138859">
        <ele>46.2806</ele>
        <time>2014-04-01T18:35:06Z</time>
      </trkpt>
      <trkpt lat="59.9539196" lon="17.7139439">
        <ele>46.2806</ele>
        <time>2014-04-01T18:35:07Z</time>
      </trkpt>
      <trkpt lat="59.9539182" lon="17.7140024">
        <ele>46.2806</ele>
        <time>2014-04-01T18:35:08Z</time>
      </trkpt>
      <trkpt lat="59.9539193" lon="17.7140659">
        <ele>46.2806</ele>
        <time>2014-04-01T18:35:09Z</time>
      </trkpt>
      <trkpt lat="59.9539243" lon="17.7141297">
        <ele>45.7999</ele>
        <time>2014-04-01T18:35:10Z</time>
      </trkpt>
      <trkpt lat="59.9539256" lon="17.7141911">
        <ele>46.2806</ele>
        <time>2014-04-01T18:35:11Z</time>
      </trkpt>
      <trkpt lat="59.953924" lon="17.7142544">
        <ele>46.2806</ele>
        <time>2014-04-01T18:35:12Z</time>
      </trkpt>
      <trkpt lat="59.9539281" lon="17.7143142">
        <ele>46.7612</ele>
        <time>2014-04-01T18:35:13Z</time>
      </trkpt>
      <trkpt lat="59.9539323" lon="17.7143739">
        <ele>46.7612</ele>
        <time>2014-04-01T18:35:14Z</time>
      </trkpt>
      <trkpt lat="59.9539375" lon="17.7144386">
        <ele>46.7612</ele>
        <time>2014-04-01T18:35:15Z</time>
      </trkpt>
      <trkpt lat="59.9539438" lon="17.7145041">
        <ele>46.7612</ele>
        <time>2014-04-01T18:35:16Z</time>
      </trkpt>
      <trkpt lat="59.9539529" lon="17.7145592">
        <ele>47.2418</ele>
        <time>2014-04-01T18:35:17Z</time>
      </trkpt>
      <trkpt lat="59.95396" lon="17.7146062">
        <ele>47.2418</ele>
        <time>2014-04-01T18:35:18Z</time>
      </trkpt>
      <trkpt lat="59.9539637" lon="17.7146494">
        <ele>46.2806</ele>
        <time>2014-04-01T18:35:19Z</time>
      </trkpt>
      <trkpt lat="59.9539716" lon="17.7146981">
        <ele>45.7999</ele>
        <time>2014-04-01T18:35:20Z</time>
      </trkpt>
      <trkpt lat="59.9539799" lon="17.7147544">
        <ele>45.3192</ele>
        <time>2014-04-01T18:35:21Z</time>
      </trkpt>
      <trkpt lat="59.9539908" lon="17.7147966">
        <ele>44.8386</ele>
        <time>2014-04-01T18:35:22Z</time>
      </trkpt>
      <trkpt lat="59.954009" lon="17.7148291">
        <ele>45.3192</ele>
        <time>2014-04-01T18:35:23Z</time>
      </trkpt>
      <trkpt lat="59.9540272" lon="17.7148545">
        <ele>44.8386</ele>
        <time>2014-04-01T18:35:24Z</time>
      </trkpt>
      <trkpt lat="59.9540498" lon="17.7148668">
        <ele>43.8773</ele>
        <time>2014-04-01T18:35:25Z</time>
      </trkpt>
      <trkpt lat="59.954084" lon="17.7148662">
        <ele>44.8386</ele>
        <time>2014-04-01T18:35:26Z</time>
      </trkpt>
      <trkpt lat="59.9541123" lon="17.7148597">
        <ele>44.8386</ele>
        <time>2014-04-01T18:35:27Z</time>
      </trkpt>
      <trkpt lat="59.9541403" lon="17.7148526">
        <ele>45.3192</ele>
        <time>2014-04-01T18:35:28Z</time>
      </trkpt>
      <trkpt lat="59.9541668" lon="17.7148536">
        <ele>45.3192</ele>
        <time>2014-04-01T18:35:29Z</time>
      </trkpt>
      <trkpt lat="59.9541918" lon="17.7148541">
        <ele>44.358</ele>
        <time>2014-04-01T18:35:30Z</time>
      </trkpt>
      <trkpt lat="59.9542199" lon="17.7148502">
        <ele>44.358</ele>
        <time>2014-04-01T18:35:31Z</time>
      </trkpt>
      <trkpt lat="59.9542527" lon="17.7148486">
        <ele>44.358</ele>
        <time>2014-04-01T18:35:32Z</time>
      </trkpt>
      <trkpt lat="59.9542831" lon="17.7148549">
        <ele>44.358</ele>
        <time>2014-04-01T18:35:33Z</time>
      </trkpt>
      <trkpt lat="59.9543123" lon="17.7148616">
        <ele>44.358</ele>
        <time>2014-04-01T18:35:34Z</time>
      </trkpt>
      <trkpt lat="59.9543426" lon="17.7148629">
        <ele>44.358</ele>
        <time>2014-04-01T18:35:35Z</time>
      </trkpt>
      <trkpt lat="59.9543725" lon="17.7148592">
        <ele>44.8386</ele>
        <time>2014-04-01T18:35:36Z</time>
      </trkpt>
      <trkpt lat="59.9543995" lon="17.7148576">
        <ele>44.8386</ele>
        <time>2014-04-01T18:35:37Z</time>
      </trkpt>
      <trkpt lat="59.9544275" lon="17.7148644">
        <ele>44.8386</ele>
        <time>2014-04-01T18:35:38Z</time>
      </trkpt>
      <trkpt lat="59.9544545" lon="17.7148735">
        <ele>44.8386</ele>
        <time>2014-04-01T18:35:39Z</time>
      </trkpt>
      <trkpt lat="59.9544846" lon="17.7148701">
        <ele>44.8386</ele>
        <time>2014-04-01T18:35:40Z</time>
      </trkpt>
      <trkpt lat="59.954518" lon="17.7148684">
        <ele>44.8386</ele>
        <time>2014-04-01T18:35:41Z</time>
      </trkpt>
      <trkpt lat="59.9545496" lon="17.7148543">
        <ele>44.358</ele>
        <time>2014-04-01T18:35:42Z</time>
      </trkpt>
      <trkpt lat="59.9545792" lon="17.7148327">
        <ele>44.358</ele>
        <time>2014-04-01T18:35:43Z</time>
      </trkpt>
      <trkpt lat="59.9546108" lon="17.7148271">
        <ele>44.8386</ele>
        <time>2014-04-01T18:35:44Z</time>
      </trkpt>
      <trkpt lat="59.954643" lon="17.7148176">
        <ele>45.3192</ele>
        <time>2014-04-01T18:35:45Z</time>
      </trkpt>
      <trkpt lat="59.9546736" lon="17.7147987">
        <ele>45.3192</ele>
        <time>2014-04-01T18:35:46Z</time>
      </trkpt>
      <trkpt lat="59.9547036" lon="17.7147841">
        <ele>45.3192</ele>
        <time>2014-04-01T18:35:47Z</time>
      </trkpt>
      <trkpt lat="59.9547357" lon="17.7147663">
        <ele>45.7999</ele>
        <time>2014-04-01T18:35:48Z</time>
      </trkpt>
      <trkpt lat="59.954771" lon="17.7147472">
        <ele>45.7999</ele>
        <time>2014-04-01T18:35:49Z</time>
      </trkpt>
      <trkpt lat="59.9548056" lon="17.7147364">
        <ele>45.7999</ele>
        <time>2014-04-01T18:35:50Z</time>
      </trkpt>
      <trkpt lat="59.9548398" lon="17.714728">
        <ele>45.7999</ele>
        <time>2014-04-01T18:35:51Z</time>
      </trkpt>
      <trkpt lat="59.9548749" lon="17.7147077">
        <ele>46.2806</ele>
        <time>2014-04-01T18:35:52Z</time>
      </trkpt>
      <trkpt lat="59.9549047" lon="17.714681">
        <ele>46.7612</ele>
        <time>2014-04-01T18:35:53Z</time>
      </trkpt>
      <trkpt lat="59.9549315" lon="17.71464">
        <ele>46.7612</ele>
        <time>2014-04-01T18:35:54Z</time>
      </trkpt>
      <trkpt lat="59.9549589" lon="17.7145888">
        <ele>47.2418</ele>
        <time>2014-04-01T18:35:55Z</time>
      </trkpt>
      <trkpt lat="59.9549874" lon="17.714534">
        <ele>47.7225</ele>
        <time>2014-04-01T18:35:56Z</time>
      </trkpt>
      <trkpt lat="59.955018" lon="17.714469">
        <ele>48.2034</ele>
        <time>2014-04-01T18:35:57Z</time>
      </trkpt>
      <trkpt lat="59.9550416" lon="17.7144039">
        <ele>47.7225</ele>
        <time>2014-04-01T18:35:58Z</time>
      </trkpt>
      <trkpt lat="59.9550661" lon="17.7143333">
        <ele>46.7612</ele>
        <time>2014-04-01T18:35:59Z</time>
      </trkpt>
      <trkpt lat="59.9550898" lon="17.7142717">
        <ele>46.7612</ele>
        <time>2014-04-01T18:36:00Z</time>
      </trkpt>
      <trkpt lat="59.9551101" lon="17.7142214">
        <ele>46.2806</ele>
        <time>2014-04-01T18:36:01Z</time>
      </trkpt>
      <trkpt lat="59.9551278" lon="17.7141723">
        <ele>45.3192</ele>
        <time>2014-04-01T18:36:02Z</time>
      </trkpt>
      <trkpt lat="59.9551354" lon="17.7141355">
        <ele>44.358</ele>
        <time>2014-04-01T18:36:03Z</time>
      </trkpt>
      <trkpt lat="59.9551396" lon="17.7141022">
        <ele>43.3966</ele>
        <time>2014-04-01T18:36:04Z</time>
      </trkpt>
    </trkseg>
  </trk>
</gpx>